<?xml version='1.0' encoding='UTF-8'?>
<gpx version="1.1" creator="https://www.komoot.de" xmlns="http://www.topografix.com/GPX/1/1" xmlns:xsi="http://www.w3.org/2001/XMLSchema-instance" xsi:schemaLocation="http://www.topografix.com/GPX/1/1 http://www.topografix.com/GPX/1/1/gpx.xsd">
  <metadata>
    <name>60 km nocturne 5 juillet</name>
    <author>
      <link href="https://www.komoot.de">
        <text>komoot</text>
        <type>text/html</type>
      </link>
    </author>
  </metadata>
  <trk>
    <name>60 km nocturne 5 juillet</name>
    <trkseg>
      <trkpt lat="48.884462" lon="2.268923">
        <ele>42.814077</ele>
        <time>2023-07-04T06:22:05.578Z</time>
      </trkpt>
      <trkpt lat="48.884560" lon="2.268487">
        <ele>42.814077</ele>
        <time>2023-07-04T06:22:12.003Z</time>
      </trkpt>
      <trkpt lat="48.884586" lon="2.268373">
        <ele>42.814077</ele>
        <time>2023-07-04T06:22:13.622Z</time>
      </trkpt>
      <trkpt lat="48.884663" lon="2.268043">
        <ele>42.814077</ele>
        <time>2023-07-04T06:22:17.960Z</time>
      </trkpt>
      <trkpt lat="48.884795" lon="2.267467">
        <ele>42.771290</ele>
        <time>2023-07-04T06:22:25.160Z</time>
      </trkpt>
      <trkpt lat="48.884959" lon="2.266741">
        <ele>42.582458</ele>
        <time>2023-07-04T06:22:33.024Z</time>
      </trkpt>
      <trkpt lat="48.885507" lon="2.264331">
        <ele>41.576808</ele>
        <time>2023-07-04T06:22:54.046Z</time>
      </trkpt>
      <trkpt lat="48.885604" lon="2.263934">
        <ele>41.260748</ele>
        <time>2023-07-04T06:22:57.017Z</time>
      </trkpt>
      <trkpt lat="48.885635" lon="2.263809">
        <ele>41.161050</ele>
        <time>2023-07-04T06:22:57.987Z</time>
      </trkpt>
      <trkpt lat="48.885665" lon="2.263684">
        <ele>41.061748</ele>
        <time>2023-07-04T06:22:58.983Z</time>
      </trkpt>
      <trkpt lat="48.885729" lon="2.263679">
        <ele>40.989018</ele>
        <time>2023-07-04T06:22:59.716Z</time>
      </trkpt>
      <trkpt lat="48.885795" lon="2.263389">
        <ele>40.760005</ele>
        <time>2023-07-04T06:23:01.955Z</time>
      </trkpt>
      <trkpt lat="48.885951" lon="2.262734">
        <ele>40.240126</ele>
        <time>2023-07-04T06:23:07.623Z</time>
      </trkpt>
      <trkpt lat="48.885924" lon="2.262633">
        <ele>40.158763</ele>
        <time>2023-07-04T06:23:08.645Z</time>
      </trkpt>
      <trkpt lat="48.886180" lon="2.262095">
        <ele>40.283149</ele>
        <time>2023-07-04T06:23:15.071Z</time>
      </trkpt>
      <trkpt lat="48.886348" lon="2.261853">
        <ele>40.393299</ele>
        <time>2023-07-04T06:23:19.082Z</time>
      </trkpt>
      <trkpt lat="48.886381" lon="2.261735">
        <ele>40.433435</ele>
        <time>2023-07-04T06:23:20.430Z</time>
      </trkpt>
      <trkpt lat="48.886281" lon="2.261709">
        <ele>40.481727</ele>
        <time>2023-07-04T06:23:21.904Z</time>
      </trkpt>
      <trkpt lat="48.886199" lon="2.261603">
        <ele>40.532957</ele>
        <time>2023-07-04T06:23:23.777Z</time>
      </trkpt>
      <trkpt lat="48.886167" lon="2.261485">
        <ele>40.572909</ele>
        <time>2023-07-04T06:23:25.137Z</time>
      </trkpt>
      <trkpt lat="48.886167" lon="2.261414">
        <ele>40.595133</ele>
        <time>2023-07-04T06:23:25.858Z</time>
      </trkpt>
      <trkpt lat="48.886201" lon="2.261343">
        <ele>40.622625</ele>
        <time>2023-07-04T06:23:26.677Z</time>
      </trkpt>
      <trkpt lat="48.886247" lon="2.261313">
        <ele>40.646450</ele>
        <time>2023-07-04T06:23:27.505Z</time>
      </trkpt>
      <trkpt lat="48.885937" lon="2.261143">
        <ele>40.803316</ele>
        <time>2023-07-04T06:23:33.321Z</time>
      </trkpt>
      <trkpt lat="48.885580" lon="2.260958">
        <ele>41.016176</ele>
        <time>2023-07-04T06:23:40.657Z</time>
      </trkpt>
      <trkpt lat="48.885436" lon="2.260881">
        <ele>41.179481</ele>
        <time>2023-07-04T06:23:44.126Z</time>
      </trkpt>
      <trkpt lat="48.885050" lon="2.260673">
        <ele>41.617605</ele>
        <time>2023-07-04T06:23:53.326Z</time>
      </trkpt>
      <trkpt lat="48.884959" lon="2.260633">
        <ele>41.718947</ele>
        <time>2023-07-04T06:23:55.454Z</time>
      </trkpt>
      <trkpt lat="48.884944" lon="2.260441">
        <ele>41.854971</ele>
        <time>2023-07-04T06:23:58.236Z</time>
      </trkpt>
      <trkpt lat="48.884868" lon="2.260282">
        <ele>41.993258</ele>
        <time>2023-07-04T06:24:01.537Z</time>
      </trkpt>
      <trkpt lat="48.884746" lon="2.260215">
        <ele>42.132031</ele>
        <time>2023-07-04T06:24:04.870Z</time>
      </trkpt>
      <trkpt lat="48.884621" lon="2.260264">
        <ele>42.270134</ele>
        <time>2023-07-04T06:24:08.019Z</time>
      </trkpt>
      <trkpt lat="48.884539" lon="2.260417">
        <ele>42.408995</ele>
        <time>2023-07-04T06:24:10.863Z</time>
      </trkpt>
      <trkpt lat="48.884434" lon="2.260368">
        <ele>42.526500</ele>
        <time>2023-07-04T06:24:12.794Z</time>
      </trkpt>
      <trkpt lat="48.883753" lon="2.260045">
        <ele>42.836493</ele>
        <time>2023-07-04T06:24:23.616Z</time>
      </trkpt>
      <trkpt lat="48.883262" lon="2.259812">
        <ele>42.777426</ele>
        <time>2023-07-04T06:24:30.923Z</time>
      </trkpt>
      <trkpt lat="48.883001" lon="2.259688">
        <ele>42.746024</ele>
        <time>2023-07-04T06:24:35.213Z</time>
      </trkpt>
      <trkpt lat="48.882898" lon="2.259639">
        <ele>42.733630</ele>
        <time>2023-07-04T06:24:36.780Z</time>
      </trkpt>
      <trkpt lat="48.882179" lon="2.259298">
        <ele>42.479950</ele>
        <time>2023-07-04T06:24:47.156Z</time>
      </trkpt>
      <trkpt lat="48.881527" lon="2.258989">
        <ele>41.911004</ele>
        <time>2023-07-04T06:24:55.254Z</time>
      </trkpt>
      <trkpt lat="48.881478" lon="2.258965">
        <ele>41.868117</ele>
        <time>2023-07-04T06:24:55.932Z</time>
      </trkpt>
      <trkpt lat="48.881450" lon="2.258952">
        <ele>41.843727</ele>
        <time>2023-07-04T06:24:56.321Z</time>
      </trkpt>
      <trkpt lat="48.881049" lon="2.258653">
        <ele>41.471655</ele>
        <time>2023-07-04T06:25:02.037Z</time>
      </trkpt>
      <trkpt lat="48.880486" lon="2.258389">
        <ele>41.023807</ele>
        <time>2023-07-04T06:25:09.441Z</time>
      </trkpt>
      <trkpt lat="48.880417" lon="2.258356">
        <ele>40.976856</ele>
        <time>2023-07-04T06:25:10.329Z</time>
      </trkpt>
      <trkpt lat="48.880316" lon="2.258298">
        <ele>40.906778</ele>
        <time>2023-07-04T06:25:11.645Z</time>
      </trkpt>
      <trkpt lat="48.880189" lon="2.258231">
        <ele>40.819522</ele>
        <time>2023-07-04T06:25:13.259Z</time>
      </trkpt>
      <trkpt lat="48.879928" lon="2.258141">
        <ele>40.645805</ele>
        <time>2023-07-04T06:25:16.431Z</time>
      </trkpt>
      <trkpt lat="48.877318" lon="2.256790">
        <ele>39.385655</ele>
        <time>2023-07-04T06:25:53.823Z</time>
      </trkpt>
      <trkpt lat="48.876979" lon="2.256619">
        <ele>39.274746</ele>
        <time>2023-07-04T06:25:59.177Z</time>
      </trkpt>
      <trkpt lat="48.876826" lon="2.256493">
        <ele>39.221225</ele>
        <time>2023-07-04T06:26:01.551Z</time>
      </trkpt>
      <trkpt lat="48.876760" lon="2.256469">
        <ele>39.200351</ele>
        <time>2023-07-04T06:26:02.510Z</time>
      </trkpt>
      <trkpt lat="48.876038" lon="2.256146">
        <ele>38.968853</ele>
        <time>2023-07-04T06:26:12.922Z</time>
      </trkpt>
      <trkpt lat="48.875779" lon="2.256018">
        <ele>38.885083</ele>
        <time>2023-07-04T06:26:16.479Z</time>
      </trkpt>
      <trkpt lat="48.875668" lon="2.255964">
        <ele>38.849235</ele>
        <time>2023-07-04T06:26:18.013Z</time>
      </trkpt>
      <trkpt lat="48.875600" lon="2.255929">
        <ele>38.827152</ele>
        <time>2023-07-04T06:26:19.000Z</time>
      </trkpt>
      <trkpt lat="48.874449" lon="2.255328">
        <ele>38.237125</ele>
        <time>2023-07-04T06:26:35.471Z</time>
      </trkpt>
      <trkpt lat="48.874340" lon="2.255216">
        <ele>38.173138</ele>
        <time>2023-07-04T06:26:37.181Z</time>
      </trkpt>
      <trkpt lat="48.874251" lon="2.255124">
        <ele>38.120792</ele>
        <time>2023-07-04T06:26:38.550Z</time>
      </trkpt>
      <trkpt lat="48.874214" lon="2.255027">
        <ele>38.084921</ele>
        <time>2023-07-04T06:26:39.499Z</time>
      </trkpt>
      <trkpt lat="48.874093" lon="2.254966">
        <ele>38.022917</ele>
        <time>2023-07-04T06:26:41.128Z</time>
      </trkpt>
      <trkpt lat="48.874012" lon="2.255030">
        <ele>37.978517</ele>
        <time>2023-07-04T06:26:42.291Z</time>
      </trkpt>
      <trkpt lat="48.873891" lon="2.254972">
        <ele>37.940075</ele>
        <time>2023-07-04T06:26:43.910Z</time>
      </trkpt>
      <trkpt lat="48.873854" lon="2.254825">
        <ele>37.926052</ele>
        <time>2023-07-04T06:26:45.284Z</time>
      </trkpt>
      <trkpt lat="48.873768" lon="2.254489">
        <ele>37.893929</ele>
        <time>2023-07-04T06:26:48.369Z</time>
      </trkpt>
      <trkpt lat="48.873691" lon="2.254154">
        <ele>37.862312</ele>
        <time>2023-07-04T06:26:51.525Z</time>
      </trkpt>
      <trkpt lat="48.873599" lon="2.254068">
        <ele>37.847682</ele>
        <time>2023-07-04T06:26:52.971Z</time>
      </trkpt>
      <trkpt lat="48.873323" lon="2.253778">
        <ele>37.802236</ele>
        <time>2023-07-04T06:26:57.650Z</time>
      </trkpt>
      <trkpt lat="48.872915" lon="2.253461">
        <ele>37.740169</ele>
        <time>2023-07-04T06:27:04.635Z</time>
      </trkpt>
      <trkpt lat="48.872399" lon="2.252991">
        <ele>37.976200</ele>
        <time>2023-07-04T06:27:14.788Z</time>
      </trkpt>
      <trkpt lat="48.872163" lon="2.252730">
        <ele>38.205314</ele>
        <time>2023-07-04T06:27:19.905Z</time>
      </trkpt>
      <trkpt lat="48.871538" lon="2.252038">
        <ele>38.812323</ele>
        <time>2023-07-04T06:27:33.936Z</time>
      </trkpt>
      <trkpt lat="48.870833" lon="2.251400">
        <ele>39.448053</ele>
        <time>2023-07-04T06:27:49.736Z</time>
      </trkpt>
      <trkpt lat="48.869892" lon="2.250510">
        <ele>40.296577</ele>
        <time>2023-07-04T06:28:09.518Z</time>
      </trkpt>
      <trkpt lat="48.869560" lon="2.250025">
        <ele>40.596535</ele>
        <time>2023-07-04T06:28:17.105Z</time>
      </trkpt>
      <trkpt lat="48.869313" lon="2.249602">
        <ele>40.784447</ele>
        <time>2023-07-04T06:28:23.494Z</time>
      </trkpt>
      <trkpt lat="48.869010" lon="2.248957">
        <ele>41.047764</ele>
        <time>2023-07-04T06:28:32.514Z</time>
      </trkpt>
      <trkpt lat="48.868972" lon="2.248845">
        <ele>41.089631</ele>
        <time>2023-07-04T06:28:33.894Z</time>
      </trkpt>
      <trkpt lat="48.868934" lon="2.248604">
        <ele>41.171965</ele>
        <time>2023-07-04T06:28:36.756Z</time>
      </trkpt>
      <trkpt lat="48.868788" lon="2.248293">
        <ele>41.298901</ele>
        <time>2023-07-04T06:28:42.267Z</time>
      </trkpt>
      <trkpt lat="48.868697" lon="2.248145">
        <ele>41.366206</ele>
        <time>2023-07-04T06:28:44.435Z</time>
      </trkpt>
      <trkpt lat="48.868588" lon="2.247954">
        <ele>41.413791</ele>
        <time>2023-07-04T06:28:46.964Z</time>
      </trkpt>
      <trkpt lat="48.868046" lon="2.247174">
        <ele>41.499535</ele>
        <time>2023-07-04T06:28:58.501Z</time>
      </trkpt>
      <trkpt lat="48.867868" lon="2.247005">
        <ele>41.523645</ele>
        <time>2023-07-04T06:29:02.033Z</time>
      </trkpt>
      <trkpt lat="48.867114" lon="2.246424">
        <ele>41.483426</ele>
        <time>2023-07-04T06:29:15.047Z</time>
      </trkpt>
      <trkpt lat="48.866761" lon="2.246043">
        <ele>40.915300</ele>
        <time>2023-07-04T06:29:20.547Z</time>
      </trkpt>
      <trkpt lat="48.866524" lon="2.245691">
        <ele>40.480485</ele>
        <time>2023-07-04T06:29:24.319Z</time>
      </trkpt>
      <trkpt lat="48.866350" lon="2.245366">
        <ele>40.118751</ele>
        <time>2023-07-04T06:29:27.404Z</time>
      </trkpt>
      <trkpt lat="48.866180" lon="2.244950">
        <ele>39.695982</ele>
        <time>2023-07-04T06:29:30.986Z</time>
      </trkpt>
      <trkpt lat="48.866037" lon="2.244485">
        <ele>39.252868</ele>
        <time>2023-07-04T06:29:34.732Z</time>
      </trkpt>
      <trkpt lat="48.865942" lon="2.244072">
        <ele>38.755326</ele>
        <time>2023-07-04T06:29:37.914Z</time>
      </trkpt>
      <trkpt lat="48.865922" lon="2.243999">
        <ele>38.665196</ele>
        <time>2023-07-04T06:29:38.510Z</time>
      </trkpt>
      <trkpt lat="48.865795" lon="2.243606">
        <ele>38.166139</ele>
        <time>2023-07-04T06:29:41.710Z</time>
      </trkpt>
      <trkpt lat="48.864976" lon="2.242302">
        <ele>36.120334</ele>
        <time>2023-07-04T06:29:55.200Z</time>
      </trkpt>
      <trkpt lat="48.864756" lon="2.241649">
        <ele>35.634189</ele>
        <time>2023-07-04T06:30:00.668Z</time>
      </trkpt>
      <trkpt lat="48.864610" lon="2.241345">
        <ele>35.384777</ele>
        <time>2023-07-04T06:30:03.421Z</time>
      </trkpt>
      <trkpt lat="48.864404" lon="2.241064">
        <ele>35.105980</ele>
        <time>2023-07-04T06:30:06.836Z</time>
      </trkpt>
      <trkpt lat="48.864293" lon="2.240900">
        <ele>34.950060</ele>
        <time>2023-07-04T06:30:08.552Z</time>
      </trkpt>
      <trkpt lat="48.864175" lon="2.240904">
        <ele>34.831170</ele>
        <time>2023-07-04T06:30:10.152Z</time>
      </trkpt>
      <trkpt lat="48.864101" lon="2.240926">
        <ele>34.755218</ele>
        <time>2023-07-04T06:30:11.402Z</time>
      </trkpt>
      <trkpt lat="48.863847" lon="2.240192">
        <ele>34.394660</ele>
        <time>2023-07-04T06:30:18.725Z</time>
      </trkpt>
      <trkpt lat="48.863790" lon="2.240036">
        <ele>34.469818</ele>
        <time>2023-07-04T06:30:20.799Z</time>
      </trkpt>
      <trkpt lat="48.863710" lon="2.239770">
        <ele>34.593003</ele>
        <time>2023-07-04T06:30:23.782Z</time>
      </trkpt>
      <trkpt lat="48.863549" lon="2.239698">
        <ele>34.700449</ele>
        <time>2023-07-04T06:30:26.974Z</time>
      </trkpt>
      <trkpt lat="48.863431" lon="2.239645">
        <ele>34.779225</ele>
        <time>2023-07-04T06:30:29.318Z</time>
      </trkpt>
      <trkpt lat="48.863316" lon="2.239333">
        <ele>34.929854</ele>
        <time>2023-07-04T06:30:33.261Z</time>
      </trkpt>
      <trkpt lat="48.863150" lon="2.239175">
        <ele>35.055247</ele>
        <time>2023-07-04T06:30:48.893Z</time>
      </trkpt>
      <trkpt lat="48.862411" lon="2.238719">
        <ele>35.608572</ele>
        <time>2023-07-04T06:31:04.308Z</time>
      </trkpt>
      <trkpt lat="48.862203" lon="2.238561">
        <ele>35.825705</ele>
        <time>2023-07-04T06:31:09.520Z</time>
      </trkpt>
      <trkpt lat="48.862143" lon="2.238498">
        <ele>35.893800</ele>
        <time>2023-07-04T06:31:11.244Z</time>
      </trkpt>
      <trkpt lat="48.862066" lon="2.238412">
        <ele>35.983026</ele>
        <time>2023-07-04T06:31:13.390Z</time>
      </trkpt>
      <trkpt lat="48.862173" lon="2.238223">
        <ele>36.136206</ele>
        <time>2023-07-04T06:31:16.382Z</time>
      </trkpt>
      <trkpt lat="48.862022" lon="2.238105">
        <ele>36.294752</ele>
        <time>2023-07-04T06:31:21.141Z</time>
      </trkpt>
      <trkpt lat="48.861822" lon="2.237932">
        <ele>36.509634</ele>
        <time>2023-07-04T06:31:25.236Z</time>
      </trkpt>
      <trkpt lat="48.860912" lon="2.237386">
        <ele>37.185551</ele>
        <time>2023-07-04T06:31:40.957Z</time>
      </trkpt>
      <trkpt lat="48.860437" lon="2.237175">
        <ele>37.242227</ele>
        <time>2023-07-04T06:31:48.067Z</time>
      </trkpt>
      <trkpt lat="48.859961" lon="2.237014">
        <ele>37.298076</ele>
        <time>2023-07-04T06:31:55.341Z</time>
      </trkpt>
      <trkpt lat="48.859373" lon="2.236945">
        <ele>37.412455</ele>
        <time>2023-07-04T06:32:04.430Z</time>
      </trkpt>
      <trkpt lat="48.858979" lon="2.236979">
        <ele>37.747864</ele>
        <time>2023-07-04T06:32:10.772Z</time>
      </trkpt>
      <trkpt lat="48.856569" lon="2.237493">
        <ele>40.141255</ele>
        <time>2023-07-04T06:32:57.556Z</time>
      </trkpt>
      <trkpt lat="48.856165" lon="2.237534">
        <ele>40.605754</ele>
        <time>2023-07-04T06:33:05.831Z</time>
      </trkpt>
      <trkpt lat="48.855377" lon="2.237539">
        <ele>40.878008</ele>
        <time>2023-07-04T06:33:21.390Z</time>
      </trkpt>
      <trkpt lat="48.854323" lon="2.237410">
        <ele>40.720932</ele>
        <time>2023-07-04T06:33:36.220Z</time>
      </trkpt>
      <trkpt lat="48.853788" lon="2.237253">
        <ele>40.055957</ele>
        <time>2023-07-04T06:33:42.351Z</time>
      </trkpt>
      <trkpt lat="48.852911" lon="2.236896">
        <ele>38.100192</ele>
        <time>2023-07-04T06:33:51.939Z</time>
      </trkpt>
      <trkpt lat="48.852482" lon="2.236787">
        <ele>37.163245</ele>
        <time>2023-07-04T06:33:56.550Z</time>
      </trkpt>
      <trkpt lat="48.852167" lon="2.236798">
        <ele>36.599723</ele>
        <time>2023-07-04T06:33:59.920Z</time>
      </trkpt>
      <trkpt lat="48.851925" lon="2.236866">
        <ele>36.257965</ele>
        <time>2023-07-04T06:34:02.595Z</time>
      </trkpt>
      <trkpt lat="48.851776" lon="2.236822">
        <ele>36.047181</ele>
        <time>2023-07-04T06:34:04.274Z</time>
      </trkpt>
      <trkpt lat="48.851621" lon="2.236724">
        <ele>35.814050</ele>
        <time>2023-07-04T06:34:06.180Z</time>
      </trkpt>
      <trkpt lat="48.851533" lon="2.236589">
        <ele>35.640408</ele>
        <time>2023-07-04T06:34:07.618Z</time>
      </trkpt>
      <trkpt lat="48.851397" lon="2.236198">
        <ele>35.236277</ele>
        <time>2023-07-04T06:34:11.075Z</time>
      </trkpt>
      <trkpt lat="48.851408" lon="2.235549">
        <ele>34.643040</ele>
        <time>2023-07-04T06:34:16.418Z</time>
      </trkpt>
      <trkpt lat="48.851451" lon="2.234978">
        <ele>34.227369</ele>
        <time>2023-07-04T06:34:21.401Z</time>
      </trkpt>
      <trkpt lat="48.851530" lon="2.234335">
        <ele>33.968569</ele>
        <time>2023-07-04T06:34:27.185Z</time>
      </trkpt>
      <trkpt lat="48.851651" lon="2.233595">
        <ele>33.666883</ele>
        <time>2023-07-04T06:34:33.691Z</time>
      </trkpt>
      <trkpt lat="48.851804" lon="2.232884">
        <ele>33.370916</ele>
        <time>2023-07-04T06:34:39.955Z</time>
      </trkpt>
      <trkpt lat="48.851985" lon="2.232180">
        <ele>33.189263</ele>
        <time>2023-07-04T06:34:46.408Z</time>
      </trkpt>
      <trkpt lat="48.852209" lon="2.231446">
        <ele>33.107556</ele>
        <time>2023-07-04T06:34:53.758Z</time>
      </trkpt>
      <trkpt lat="48.852390" lon="2.231001">
        <ele>33.054725</ele>
        <time>2023-07-04T06:34:58.881Z</time>
      </trkpt>
      <trkpt lat="48.852600" lon="2.230586">
        <ele>33.001856</ele>
        <time>2023-07-04T06:35:04.309Z</time>
      </trkpt>
      <trkpt lat="48.852747" lon="2.230394">
        <ele>32.972109</ele>
        <time>2023-07-04T06:35:07.432Z</time>
      </trkpt>
      <trkpt lat="48.852853" lon="2.230255">
        <ele>32.947401</ele>
        <time>2023-07-04T06:35:09.526Z</time>
      </trkpt>
      <trkpt lat="48.852876" lon="2.229810">
        <ele>32.851035</ele>
        <time>2023-07-04T06:35:42.275Z</time>
      </trkpt>
      <trkpt lat="48.852880" lon="2.229736">
        <ele>32.835006</ele>
        <time>2023-07-04T06:35:47.730Z</time>
      </trkpt>
      <trkpt lat="48.853231" lon="2.228433">
        <ele>32.531045</ele>
        <time>2023-07-04T06:36:01.138Z</time>
      </trkpt>
      <trkpt lat="48.853338" lon="2.227806">
        <ele>32.391206</ele>
        <time>2023-07-04T06:36:06.553Z</time>
      </trkpt>
      <trkpt lat="48.853364" lon="2.227558">
        <ele>32.293748</ele>
        <time>2023-07-04T06:36:08.503Z</time>
      </trkpt>
      <trkpt lat="48.853364" lon="2.226810">
        <ele>31.867038</ele>
        <time>2023-07-04T06:36:14.294Z</time>
      </trkpt>
      <trkpt lat="48.853431" lon="2.226723">
        <ele>31.790634</ele>
        <time>2023-07-04T06:36:15.320Z</time>
      </trkpt>
      <trkpt lat="48.853436" lon="2.226586">
        <ele>31.712360</ele>
        <time>2023-07-04T06:36:16.384Z</time>
      </trkpt>
      <trkpt lat="48.853281" lon="2.226560">
        <ele>31.577161</ele>
        <time>2023-07-04T06:36:33.029Z</time>
      </trkpt>
      <trkpt lat="48.853257" lon="2.226545">
        <ele>31.554662</ele>
        <time>2023-07-04T06:36:35.773Z</time>
      </trkpt>
      <trkpt lat="48.853226" lon="2.226479">
        <ele>31.508403</ele>
        <time>2023-07-04T06:36:41.468Z</time>
      </trkpt>
      <trkpt lat="48.853226" lon="2.226423">
        <ele>31.476457</ele>
        <time>2023-07-04T06:36:41.897Z</time>
      </trkpt>
      <trkpt lat="48.853226" lon="2.226350">
        <ele>31.434812</ele>
        <time>2023-07-04T06:36:42.467Z</time>
      </trkpt>
      <trkpt lat="48.853227" lon="2.226254">
        <ele>31.380040</ele>
        <time>2023-07-04T06:36:43.221Z</time>
      </trkpt>
      <trkpt lat="48.853212" lon="2.226166">
        <ele>31.328182</ele>
        <time>2023-07-04T06:36:43.932Z</time>
      </trkpt>
      <trkpt lat="48.853230" lon="2.225932">
        <ele>31.193783</ele>
        <time>2023-07-04T06:36:46.559Z</time>
      </trkpt>
      <trkpt lat="48.853211" lon="2.225790">
        <ele>31.111118</ele>
        <time>2023-07-04T06:36:47.732Z</time>
      </trkpt>
      <trkpt lat="48.853155" lon="2.225702">
        <ele>31.041280</ele>
        <time>2023-07-04T06:36:48.739Z</time>
      </trkpt>
      <trkpt lat="48.853019" lon="2.225662">
        <ele>30.921182</ele>
        <time>2023-07-04T06:36:50.457Z</time>
      </trkpt>
      <trkpt lat="48.852875" lon="2.223103">
        <ele>32.487265</ele>
        <time>2023-07-04T06:38:47.915Z</time>
      </trkpt>
      <trkpt lat="48.852833" lon="2.222367">
        <ele>34.259422</ele>
        <time>2023-07-04T06:39:21.718Z</time>
      </trkpt>
      <trkpt lat="48.852735" lon="2.220624">
        <ele>41.427644</ele>
        <time>2023-07-04T06:40:41.788Z</time>
      </trkpt>
      <trkpt lat="48.852707" lon="2.219950">
        <ele>44.449677</ele>
        <time>2023-07-04T06:41:12.801Z</time>
      </trkpt>
      <trkpt lat="48.852701" lon="2.219876">
        <ele>45.076001</ele>
        <time>2023-07-04T06:41:16.229Z</time>
      </trkpt>
      <trkpt lat="48.852375" lon="2.219920">
        <ele>49.254246</ele>
        <time>2023-07-04T06:41:38.123Z</time>
      </trkpt>
      <trkpt lat="48.852273" lon="2.219970">
        <ele>50.622487</ele>
        <time>2023-07-04T06:41:45.514Z</time>
      </trkpt>
      <trkpt lat="48.852232" lon="2.219896">
        <ele>51.435134</ele>
        <time>2023-07-04T06:41:49.908Z</time>
      </trkpt>
      <trkpt lat="48.852198" lon="2.219899">
        <ele>51.869924</ele>
        <time>2023-07-04T06:41:52.038Z</time>
      </trkpt>
      <trkpt lat="48.852165" lon="2.219955">
        <ele>52.501418</ele>
        <time>2023-07-04T06:41:55.166Z</time>
      </trkpt>
      <trkpt lat="48.851851" lon="2.219914">
        <ele>56.524854</ele>
        <time>2023-07-04T06:42:18.523Z</time>
      </trkpt>
      <trkpt lat="48.851854" lon="2.219545">
        <ele>59.624851</ele>
        <time>2023-07-04T06:42:37.399Z</time>
      </trkpt>
      <trkpt lat="48.851823" lon="2.219240">
        <ele>62.217369</ele>
        <time>2023-07-04T06:42:52.214Z</time>
      </trkpt>
      <trkpt lat="48.851521" lon="2.218028">
        <ele>72.422453</ele>
        <time>2023-07-04T06:43:47.815Z</time>
      </trkpt>
      <trkpt lat="48.851468" lon="2.217947">
        <ele>73.276339</ele>
        <time>2023-07-04T06:43:52.601Z</time>
      </trkpt>
      <trkpt lat="48.851273" lon="2.217795">
        <ele>75.765965</ele>
        <time>2023-07-04T06:44:07.083Z</time>
      </trkpt>
      <trkpt lat="48.851207" lon="2.217545">
        <ele>77.779551</ele>
        <time>2023-07-04T06:44:18.310Z</time>
      </trkpt>
      <trkpt lat="48.851160" lon="2.217451">
        <ele>78.662058</ele>
        <time>2023-07-04T06:44:23.145Z</time>
      </trkpt>
      <trkpt lat="48.851083" lon="2.217422">
        <ele>79.563250</ele>
        <time>2023-07-04T06:44:27.923Z</time>
      </trkpt>
      <trkpt lat="48.850708" lon="2.217578">
        <ele>83.980029</ele>
        <time>2023-07-04T06:44:49.952Z</time>
      </trkpt>
      <trkpt lat="48.850647" lon="2.217549">
        <ele>84.706114</ele>
        <time>2023-07-04T06:44:53.235Z</time>
      </trkpt>
      <trkpt lat="48.850657" lon="2.217472">
        <ele>85.292812</ele>
        <time>2023-07-04T06:44:55.936Z</time>
      </trkpt>
      <trkpt lat="48.850639" lon="2.217194">
        <ele>87.373399</ele>
        <time>2023-07-04T06:45:05.615Z</time>
      </trkpt>
      <trkpt lat="48.850629" lon="2.217040">
        <ele>88.268362</ele>
        <time>2023-07-04T06:45:10.649Z</time>
      </trkpt>
      <trkpt lat="48.850200" lon="2.216900">
        <ele>92.124788</ele>
        <time>2023-07-04T06:45:30.995Z</time>
      </trkpt>
      <trkpt lat="48.849397" lon="2.213765">
        <ele>109.938415</ele>
        <time>2023-07-04T06:47:21.871Z</time>
      </trkpt>
      <trkpt lat="48.848201" lon="2.214175">
        <ele>116.454134</ele>
        <time>2023-07-04T06:48:06.629Z</time>
      </trkpt>
      <trkpt lat="48.847797" lon="2.214277">
        <ele>117.061200</ele>
        <time>2023-07-04T06:48:16.337Z</time>
      </trkpt>
      <trkpt lat="48.847517" lon="2.214280">
        <ele>117.476259</ele>
        <time>2023-07-04T06:48:21.522Z</time>
      </trkpt>
      <trkpt lat="48.847251" lon="2.214274">
        <ele>117.870600</ele>
        <time>2023-07-04T06:48:25.528Z</time>
      </trkpt>
      <trkpt lat="48.846899" lon="2.214200">
        <ele>118.397345</ele>
        <time>2023-07-04T06:48:29.921Z</time>
      </trkpt>
      <trkpt lat="48.846485" lon="2.214068">
        <ele>117.680330</ele>
        <time>2023-07-04T06:48:34.572Z</time>
      </trkpt>
      <trkpt lat="48.846245" lon="2.213952">
        <ele>117.000226</ele>
        <time>2023-07-04T06:48:37.211Z</time>
      </trkpt>
      <trkpt lat="48.845710" lon="2.213574">
        <ele>115.406948</ele>
        <time>2023-07-04T06:48:43.153Z</time>
      </trkpt>
      <trkpt lat="48.845646" lon="2.213497">
        <ele>115.186505</ele>
        <time>2023-07-04T06:48:43.992Z</time>
      </trkpt>
      <trkpt lat="48.845493" lon="2.213316">
        <ele>114.662887</ele>
        <time>2023-07-04T06:48:45.970Z</time>
      </trkpt>
      <trkpt lat="48.845233" lon="2.213028">
        <ele>113.794021</ele>
        <time>2023-07-04T06:48:49.275Z</time>
      </trkpt>
      <trkpt lat="48.844901" lon="2.212529">
        <ele>112.859761</ele>
        <time>2023-07-04T06:48:54.004Z</time>
      </trkpt>
      <trkpt lat="48.844635" lon="2.211947">
        <ele>111.955860</ele>
        <time>2023-07-04T06:48:58.897Z</time>
      </trkpt>
      <trkpt lat="48.844557" lon="2.211698">
        <ele>111.604077</ele>
        <time>2023-07-04T06:49:00.980Z</time>
      </trkpt>
      <trkpt lat="48.844479" lon="2.211329">
        <ele>111.109679</ele>
        <time>2023-07-04T06:49:03.999Z</time>
      </trkpt>
      <trkpt lat="48.844457" lon="2.211021">
        <ele>110.714473</ele>
        <time>2023-07-04T06:49:06.491Z</time>
      </trkpt>
      <trkpt lat="48.844444" lon="2.210390">
        <ele>110.013633</ele>
        <time>2023-07-04T06:49:11.906Z</time>
      </trkpt>
      <trkpt lat="48.844443" lon="2.210362">
        <ele>109.990517</ele>
        <time>2023-07-04T06:49:12.172Z</time>
      </trkpt>
      <trkpt lat="48.844433" lon="2.209881">
        <ele>109.593801</ele>
        <time>2023-07-04T06:49:16.317Z</time>
      </trkpt>
      <trkpt lat="48.844419" lon="2.209188">
        <ele>109.022250</ele>
        <time>2023-07-04T06:49:22.068Z</time>
      </trkpt>
      <trkpt lat="48.844409" lon="2.208631">
        <ele>108.562910</ele>
        <time>2023-07-04T06:49:26.274Z</time>
      </trkpt>
      <trkpt lat="48.844399" lon="2.208165">
        <ele>108.178553</ele>
        <time>2023-07-04T06:49:29.715Z</time>
      </trkpt>
      <trkpt lat="48.844374" lon="2.207921">
        <ele>107.974985</ele>
        <time>2023-07-04T06:49:31.549Z</time>
      </trkpt>
      <trkpt lat="48.844295" lon="2.207540">
        <ele>107.174082</ele>
        <time>2023-07-04T06:49:34.457Z</time>
      </trkpt>
      <trkpt lat="48.844046" lon="2.207163">
        <ele>106.054705</ele>
        <time>2023-07-04T06:49:38.192Z</time>
      </trkpt>
      <trkpt lat="48.843827" lon="2.206996">
        <ele>105.274406</ele>
        <time>2023-07-04T06:49:40.693Z</time>
      </trkpt>
      <trkpt lat="48.843695" lon="2.206936">
        <ele>104.835648</ele>
        <time>2023-07-04T06:49:42.082Z</time>
      </trkpt>
      <trkpt lat="48.842765" lon="2.206998">
        <ele>101.788615</ele>
        <time>2023-07-04T06:49:51.176Z</time>
      </trkpt>
      <trkpt lat="48.842345" lon="2.206948">
        <ele>100.132629</ele>
        <time>2023-07-04T06:49:55.247Z</time>
      </trkpt>
      <trkpt lat="48.842286" lon="2.206932">
        <ele>99.897049</ele>
        <time>2023-07-04T06:49:55.826Z</time>
      </trkpt>
      <trkpt lat="48.842251" lon="2.206966">
        <ele>99.733758</ele>
        <time>2023-07-04T06:49:56.219Z</time>
      </trkpt>
      <trkpt lat="48.842064" lon="2.206995">
        <ele>98.994884</ele>
        <time>2023-07-04T06:49:58.033Z</time>
      </trkpt>
      <trkpt lat="48.841847" lon="2.207070">
        <ele>98.120116</ele>
        <time>2023-07-04T06:50:00.160Z</time>
      </trkpt>
      <trkpt lat="48.840670" lon="2.207189">
        <ele>94.315066</ele>
        <time>2023-07-04T06:50:11.898Z</time>
      </trkpt>
      <trkpt lat="48.840389" lon="2.207184">
        <ele>93.760485</ele>
        <time>2023-07-04T06:50:14.782Z</time>
      </trkpt>
      <trkpt lat="48.840283" lon="2.207159">
        <ele>93.548792</ele>
        <time>2023-07-04T06:50:15.930Z</time>
      </trkpt>
      <trkpt lat="48.840162" lon="2.207102">
        <ele>93.298789</ele>
        <time>2023-07-04T06:50:17.314Z</time>
      </trkpt>
      <trkpt lat="48.840115" lon="2.207076">
        <ele>93.200080</ele>
        <time>2023-07-04T06:50:17.854Z</time>
      </trkpt>
      <trkpt lat="48.840072" lon="2.207043">
        <ele>93.105010</ele>
        <time>2023-07-04T06:50:18.373Z</time>
      </trkpt>
      <trkpt lat="48.839879" lon="2.206892">
        <ele>92.676601</ele>
        <time>2023-07-04T06:50:20.867Z</time>
      </trkpt>
      <trkpt lat="48.839776" lon="2.206784">
        <ele>92.429628</ele>
        <time>2023-07-04T06:50:22.356Z</time>
      </trkpt>
      <trkpt lat="48.839639" lon="2.206576">
        <ele>92.047416</ele>
        <time>2023-07-04T06:50:24.793Z</time>
      </trkpt>
      <trkpt lat="48.839298" lon="2.205903">
        <ele>92.057742</ele>
        <time>2023-07-04T06:50:33.111Z</time>
      </trkpt>
      <trkpt lat="48.839193" lon="2.205668">
        <ele>92.311396</ele>
        <time>2023-07-04T06:50:36.494Z</time>
      </trkpt>
      <trkpt lat="48.838999" lon="2.205395">
        <ele>92.670182</ele>
        <time>2023-07-04T06:50:41.403Z</time>
      </trkpt>
      <trkpt lat="48.838587" lon="2.204706">
        <ele>93.501512</ele>
        <time>2023-07-04T06:50:54.719Z</time>
      </trkpt>
      <trkpt lat="48.837933" lon="2.203860">
        <ele>95.668619</ele>
        <time>2023-07-04T06:51:17.146Z</time>
      </trkpt>
      <trkpt lat="48.837516" lon="2.203384">
        <ele>97.515271</ele>
        <time>2023-07-04T06:51:32.223Z</time>
      </trkpt>
      <trkpt lat="48.837004" lon="2.202907">
        <ele>99.641678</ele>
        <time>2023-07-04T06:51:50.163Z</time>
      </trkpt>
      <trkpt lat="48.836500" lon="2.202442">
        <ele>102.181883</ele>
        <time>2023-07-04T06:52:09.493Z</time>
      </trkpt>
      <trkpt lat="48.836107" lon="2.202071">
        <ele>104.383045</ele>
        <time>2023-07-04T06:52:24.923Z</time>
      </trkpt>
      <trkpt lat="48.835840" lon="2.201831">
        <ele>105.858921</ele>
        <time>2023-07-04T06:52:35.403Z</time>
      </trkpt>
      <trkpt lat="48.834368" lon="2.200289">
        <ele>114.463175</ele>
        <time>2023-07-04T06:53:38.696Z</time>
      </trkpt>
      <trkpt lat="48.832174" lon="2.197424">
        <ele>125.891881</ele>
        <time>2023-07-04T06:55:11.918Z</time>
      </trkpt>
      <trkpt lat="48.832009" lon="2.197209">
        <ele>126.180635</ele>
        <time>2023-07-04T06:55:16.659Z</time>
      </trkpt>
      <trkpt lat="48.830597" lon="2.195365">
        <ele>128.192536</ele>
        <time>2023-07-04T06:55:44.167Z</time>
      </trkpt>
      <trkpt lat="48.830526" lon="2.195273">
        <ele>128.255908</ele>
        <time>2023-07-04T06:55:45.753Z</time>
      </trkpt>
      <trkpt lat="48.830328" lon="2.195020">
        <ele>128.431606</ele>
        <time>2023-07-04T06:55:50.421Z</time>
      </trkpt>
      <trkpt lat="48.830295" lon="2.195123">
        <ele>128.482814</ele>
        <time>2023-07-04T06:55:51.728Z</time>
      </trkpt>
      <trkpt lat="48.830311" lon="2.195254">
        <ele>128.542375</ele>
        <time>2023-07-04T06:55:53.547Z</time>
      </trkpt>
      <trkpt lat="48.830373" lon="2.195336">
        <ele>128.598199</ele>
        <time>2023-07-04T06:55:55.129Z</time>
      </trkpt>
      <trkpt lat="48.830439" lon="2.195350">
        <ele>128.643453</ele>
        <time>2023-07-04T06:55:56.470Z</time>
      </trkpt>
      <trkpt lat="48.830448" lon="2.195812">
        <ele>128.850070</ele>
        <time>2023-07-04T06:56:02.501Z</time>
      </trkpt>
      <trkpt lat="48.830450" lon="2.195914">
        <ele>128.895688</ele>
        <time>2023-07-04T06:56:03.883Z</time>
      </trkpt>
      <trkpt lat="48.830455" lon="2.196225">
        <ele>129.137697</ele>
        <time>2023-07-04T06:56:09.274Z</time>
      </trkpt>
      <trkpt lat="48.830466" lon="2.196423">
        <ele>129.314866</ele>
        <time>2023-07-04T06:56:12.861Z</time>
      </trkpt>
      <trkpt lat="48.830604" lon="2.199133">
        <ele>130.985360</ele>
        <time>2023-07-04T06:56:50.565Z</time>
      </trkpt>
      <trkpt lat="48.830617" lon="2.199455">
        <ele>130.689091</ele>
        <time>2023-07-04T06:56:53.107Z</time>
      </trkpt>
      <trkpt lat="48.830714" lon="2.199479">
        <ele>130.551984</ele>
        <time>2023-07-04T06:56:54.237Z</time>
      </trkpt>
      <trkpt lat="48.830754" lon="2.199523">
        <ele>130.483087</ele>
        <time>2023-07-04T06:56:54.804Z</time>
      </trkpt>
      <trkpt lat="48.830799" lon="2.199676">
        <ele>130.329191</ele>
        <time>2023-07-04T06:56:56.052Z</time>
      </trkpt>
      <trkpt lat="48.830767" lon="2.199840">
        <ele>130.172103</ele>
        <time>2023-07-04T06:56:57.301Z</time>
      </trkpt>
      <trkpt lat="48.830705" lon="2.199918">
        <ele>130.059797</ele>
        <time>2023-07-04T06:56:58.205Z</time>
      </trkpt>
      <trkpt lat="48.830813" lon="2.200280">
        <ele>129.694801</ele>
        <time>2023-07-04T06:57:01.050Z</time>
      </trkpt>
      <trkpt lat="48.831174" lon="2.201487">
        <ele>127.980295</ele>
        <time>2023-07-04T06:57:10.168Z</time>
      </trkpt>
      <trkpt lat="48.831258" lon="2.201766">
        <ele>127.330904</ele>
        <time>2023-07-04T06:57:12.193Z</time>
      </trkpt>
      <trkpt lat="48.832521" lon="2.205985">
        <ele>117.230422</ele>
        <time>2023-07-04T06:57:42.867Z</time>
      </trkpt>
      <trkpt lat="48.832657" lon="2.206438">
        <ele>116.054954</ele>
        <time>2023-07-04T06:57:46.135Z</time>
      </trkpt>
      <trkpt lat="48.833028" lon="2.207679">
        <ele>112.786378</ele>
        <time>2023-07-04T06:57:55.040Z</time>
      </trkpt>
      <trkpt lat="48.833107" lon="2.207943">
        <ele>112.090936</ele>
        <time>2023-07-04T06:57:56.916Z</time>
      </trkpt>
      <trkpt lat="48.833180" lon="2.208185">
        <ele>111.452566</ele>
        <time>2023-07-04T06:57:58.647Z</time>
      </trkpt>
      <trkpt lat="48.833906" lon="2.210593">
        <ele>105.641109</ele>
        <time>2023-07-04T06:58:15.838Z</time>
      </trkpt>
      <trkpt lat="48.834333" lon="2.212010">
        <ele>104.418698</ele>
        <time>2023-07-04T06:58:27.402Z</time>
      </trkpt>
      <trkpt lat="48.834374" lon="2.212146">
        <ele>104.400449</ele>
        <time>2023-07-04T06:58:28.681Z</time>
      </trkpt>
      <trkpt lat="48.834349" lon="2.212192">
        <ele>104.393172</ele>
        <time>2023-07-04T06:58:29.301Z</time>
      </trkpt>
      <trkpt lat="48.834218" lon="2.212440">
        <ele>104.354379</ele>
        <time>2023-07-04T06:58:32.635Z</time>
      </trkpt>
      <trkpt lat="48.834197" lon="2.212480">
        <ele>104.348137</ele>
        <time>2023-07-04T06:58:33.189Z</time>
      </trkpt>
      <trkpt lat="48.833042" lon="2.214592">
        <ele>104.848321</ele>
        <time>2023-07-04T06:59:09.877Z</time>
      </trkpt>
      <trkpt lat="48.832347" lon="2.215862">
        <ele>104.042723</ele>
        <time>2023-07-04T06:59:25.503Z</time>
      </trkpt>
      <trkpt lat="48.831745" lon="2.216961">
        <ele>100.918874</ele>
        <time>2023-07-04T06:59:34.769Z</time>
      </trkpt>
      <trkpt lat="48.831625" lon="2.216859">
        <ele>100.462463</ele>
        <time>2023-07-04T06:59:36.066Z</time>
      </trkpt>
      <trkpt lat="48.831443" lon="2.216825">
        <ele>99.853821</ele>
        <time>2023-07-04T06:59:37.778Z</time>
      </trkpt>
      <trkpt lat="48.831318" lon="2.216859">
        <ele>99.432326</ele>
        <time>2023-07-04T06:59:38.977Z</time>
      </trkpt>
      <trkpt lat="48.831180" lon="2.216981">
        <ele>98.492173</ele>
        <time>2023-07-04T06:59:40.472Z</time>
      </trkpt>
      <trkpt lat="48.831100" lon="2.217177">
        <ele>97.467964</ele>
        <time>2023-07-04T06:59:41.887Z</time>
      </trkpt>
      <trkpt lat="48.831080" lon="2.217345">
        <ele>96.709752</ele>
        <time>2023-07-04T06:59:42.926Z</time>
      </trkpt>
      <trkpt lat="48.831084" lon="2.217507">
        <ele>95.989783</ele>
        <time>2023-07-04T06:59:43.944Z</time>
      </trkpt>
      <trkpt lat="48.831128" lon="2.217918">
        <ele>94.140498</ele>
        <time>2023-07-04T06:59:46.503Z</time>
      </trkpt>
      <trkpt lat="48.829648" lon="2.218152">
        <ele>83.279878</ele>
        <time>2023-07-04T07:00:05.221Z</time>
      </trkpt>
      <trkpt lat="48.829523" lon="2.218178">
        <ele>82.200344</ele>
        <time>2023-07-04T07:00:06.325Z</time>
      </trkpt>
      <trkpt lat="48.828915" lon="2.218325">
        <ele>76.932549</ele>
        <time>2023-07-04T07:00:11.731Z</time>
      </trkpt>
      <trkpt lat="48.828882" lon="2.218466">
        <ele>76.089626</ele>
        <time>2023-07-04T07:00:12.979Z</time>
      </trkpt>
      <trkpt lat="48.828863" lon="2.218788">
        <ele>74.268597</ele>
        <time>2023-07-04T07:00:15.621Z</time>
      </trkpt>
      <trkpt lat="48.828884" lon="2.218883">
        <ele>73.704120</ele>
        <time>2023-07-04T07:00:16.196Z</time>
      </trkpt>
      <trkpt lat="48.828944" lon="2.218931">
        <ele>73.123889</ele>
        <time>2023-07-04T07:00:16.794Z</time>
      </trkpt>
      <trkpt lat="48.829075" lon="2.218960">
        <ele>71.991156</ele>
        <time>2023-07-04T07:00:17.940Z</time>
      </trkpt>
      <trkpt lat="48.829176" lon="2.219058">
        <ele>70.993896</ele>
        <time>2023-07-04T07:00:18.954Z</time>
      </trkpt>
      <trkpt lat="48.829184" lon="2.219219">
        <ele>70.116128</ele>
        <time>2023-07-04T07:00:19.886Z</time>
      </trkpt>
      <trkpt lat="48.829124" lon="2.219315">
        <ele>69.396471</ele>
        <time>2023-07-04T07:00:20.648Z</time>
      </trkpt>
      <trkpt lat="48.829060" lon="2.219327">
        <ele>68.863926</ele>
        <time>2023-07-04T07:00:21.191Z</time>
      </trkpt>
      <trkpt lat="48.828957" lon="2.219300">
        <ele>68.000746</ele>
        <time>2023-07-04T07:00:22.080Z</time>
      </trkpt>
      <trkpt lat="48.828831" lon="2.219200">
        <ele>66.826733</ele>
        <time>2023-07-04T07:00:23.333Z</time>
      </trkpt>
      <trkpt lat="48.828224" lon="2.218729">
        <ele>61.197782</ele>
        <time>2023-07-04T07:00:29.286Z</time>
      </trkpt>
      <trkpt lat="48.828107" lon="2.218759">
        <ele>60.217888</ele>
        <time>2023-07-04T07:00:30.370Z</time>
      </trkpt>
      <trkpt lat="48.828076" lon="2.218927">
        <ele>59.269333</ele>
        <time>2023-07-04T07:00:31.356Z</time>
      </trkpt>
      <trkpt lat="48.828169" lon="2.219088">
        <ele>58.104855</ele>
        <time>2023-07-04T07:00:32.715Z</time>
      </trkpt>
      <trkpt lat="48.828787" lon="2.219667">
        <ele>54.221295</ele>
        <time>2023-07-04T07:00:39.422Z</time>
      </trkpt>
      <trkpt lat="48.828807" lon="2.219787">
        <ele>53.843759</ele>
        <time>2023-07-04T07:00:40.182Z</time>
      </trkpt>
      <trkpt lat="48.828789" lon="2.219862">
        <ele>53.600290</ele>
        <time>2023-07-04T07:00:40.645Z</time>
      </trkpt>
      <trkpt lat="48.828716" lon="2.219908">
        <ele>53.234142</ele>
        <time>2023-07-04T07:00:41.341Z</time>
      </trkpt>
      <trkpt lat="48.827515" lon="2.219096">
        <ele>48.850013</ele>
        <time>2023-07-04T07:00:54.482Z</time>
      </trkpt>
      <trkpt lat="48.827459" lon="2.219092">
        <ele>48.897087</ele>
        <time>2023-07-04T07:00:55.025Z</time>
      </trkpt>
      <trkpt lat="48.827241" lon="2.219079">
        <ele>49.080276</ele>
        <time>2023-07-04T07:00:57.869Z</time>
      </trkpt>
      <trkpt lat="48.827149" lon="2.219091">
        <ele>49.157810</ele>
        <time>2023-07-04T07:00:59.655Z</time>
      </trkpt>
      <trkpt lat="48.827099" lon="2.219139">
        <ele>49.207475</ele>
        <time>2023-07-04T07:01:00.688Z</time>
      </trkpt>
      <trkpt lat="48.826988" lon="2.219194">
        <ele>49.305512</ele>
        <time>2023-07-04T07:01:05.605Z</time>
      </trkpt>
      <trkpt lat="48.826843" lon="2.219203">
        <ele>49.427366</ele>
        <time>2023-07-04T07:01:11.868Z</time>
      </trkpt>
      <trkpt lat="48.826582" lon="2.219210">
        <ele>49.646554</ele>
        <time>2023-07-04T07:01:23.637Z</time>
      </trkpt>
      <trkpt lat="48.826529" lon="2.219173">
        <ele>49.695532</ele>
        <time>2023-07-04T07:01:25.262Z</time>
      </trkpt>
      <trkpt lat="48.826467" lon="2.219202">
        <ele>49.750004</ele>
        <time>2023-07-04T07:01:26.915Z</time>
      </trkpt>
      <trkpt lat="48.826410" lon="2.219289">
        <ele>49.817854</ele>
        <time>2023-07-04T07:01:28.744Z</time>
      </trkpt>
      <trkpt lat="48.826293" lon="2.219374">
        <ele>49.926754</ele>
        <time>2023-07-04T07:01:32.791Z</time>
      </trkpt>
      <trkpt lat="48.826024" lon="2.219479">
        <ele>50.599138</ele>
        <time>2023-07-04T07:01:41.456Z</time>
      </trkpt>
      <trkpt lat="48.825873" lon="2.219517">
        <ele>51.645740</ele>
        <time>2023-07-04T07:01:47.039Z</time>
      </trkpt>
      <trkpt lat="48.825691" lon="2.219591">
        <ele>52.934058</ele>
        <time>2023-07-04T07:01:53.636Z</time>
      </trkpt>
      <trkpt lat="48.825454" lon="2.219735">
        <ele>54.679493</ele>
        <time>2023-07-04T07:02:04.380Z</time>
      </trkpt>
      <trkpt lat="48.825062" lon="2.219887">
        <ele>57.445923</ele>
        <time>2023-07-04T07:02:21.526Z</time>
      </trkpt>
      <trkpt lat="48.824581" lon="2.220060">
        <ele>60.825918</ele>
        <time>2023-07-04T07:02:45.066Z</time>
      </trkpt>
      <trkpt lat="48.823700" lon="2.220393">
        <ele>67.824545</ele>
        <time>2023-07-04T07:03:30.666Z</time>
      </trkpt>
      <trkpt lat="48.823511" lon="2.220536">
        <ele>69.514613</ele>
        <time>2023-07-04T07:03:40.945Z</time>
      </trkpt>
      <trkpt lat="48.823402" lon="2.220663">
        <ele>70.614185</ele>
        <time>2023-07-04T07:03:47.629Z</time>
      </trkpt>
      <trkpt lat="48.823290" lon="2.220848">
        <ele>71.938596</ele>
        <time>2023-07-04T07:03:55.480Z</time>
      </trkpt>
      <trkpt lat="48.823046" lon="2.221483">
        <ele>75.813110</ele>
        <time>2023-07-04T07:04:16.662Z</time>
      </trkpt>
      <trkpt lat="48.822953" lon="2.221976">
        <ele>77.854117</ele>
        <time>2023-07-04T07:04:30.917Z</time>
      </trkpt>
      <trkpt lat="48.822933" lon="2.222186">
        <ele>78.542659</ele>
        <time>2023-07-04T07:04:36.807Z</time>
      </trkpt>
      <trkpt lat="48.822903" lon="2.222506">
        <ele>79.591533</ele>
        <time>2023-07-04T07:04:45.400Z</time>
      </trkpt>
      <trkpt lat="48.822855" lon="2.222625">
        <ele>80.044395</ele>
        <time>2023-07-04T07:04:49.184Z</time>
      </trkpt>
      <trkpt lat="48.822820" lon="2.222677">
        <ele>80.285706</ele>
        <time>2023-07-04T07:04:51.070Z</time>
      </trkpt>
      <trkpt lat="48.822813" lon="2.222765">
        <ele>80.573344</ele>
        <time>2023-07-04T07:04:53.241Z</time>
      </trkpt>
      <trkpt lat="48.822831" lon="2.222817">
        <ele>80.763984</ele>
        <time>2023-07-04T07:04:54.656Z</time>
      </trkpt>
      <trkpt lat="48.822873" lon="2.222856">
        <ele>81.006610</ele>
        <time>2023-07-04T07:04:56.268Z</time>
      </trkpt>
      <trkpt lat="48.822960" lon="2.222949">
        <ele>81.530958</ele>
        <time>2023-07-04T07:04:59.846Z</time>
      </trkpt>
      <trkpt lat="48.823090" lon="2.223128">
        <ele>82.395786</ele>
        <time>2023-07-04T07:05:05.587Z</time>
      </trkpt>
      <trkpt lat="48.823253" lon="2.223628">
        <ele>84.206281</ele>
        <time>2023-07-04T07:05:16.579Z</time>
      </trkpt>
      <trkpt lat="48.823294" lon="2.223923">
        <ele>85.184645</ele>
        <time>2023-07-04T07:05:21.853Z</time>
      </trkpt>
      <trkpt lat="48.823299" lon="2.224155">
        <ele>85.775773</ele>
        <time>2023-07-04T07:05:26.066Z</time>
      </trkpt>
      <trkpt lat="48.823233" lon="2.224522">
        <ele>86.292959</ele>
        <time>2023-07-04T07:05:32.321Z</time>
      </trkpt>
      <trkpt lat="48.823124" lon="2.224773">
        <ele>86.701715</ele>
        <time>2023-07-04T07:05:36.820Z</time>
      </trkpt>
      <trkpt lat="48.822922" lon="2.225069">
        <ele>87.281267</ele>
        <time>2023-07-04T07:05:43.040Z</time>
      </trkpt>
      <trkpt lat="48.822868" lon="2.225150">
        <ele>87.437974</ele>
        <time>2023-07-04T07:05:44.751Z</time>
      </trkpt>
      <trkpt lat="48.822811" lon="2.225240">
        <ele>87.607741</ele>
        <time>2023-07-04T07:05:46.654Z</time>
      </trkpt>
      <trkpt lat="48.822702" lon="2.225415">
        <ele>87.935232</ele>
        <time>2023-07-04T07:05:50.238Z</time>
      </trkpt>
      <trkpt lat="48.822524" lon="2.225651">
        <ele>88.423096</ele>
        <time>2023-07-04T07:05:55.563Z</time>
      </trkpt>
      <trkpt lat="48.822104" lon="2.226264">
        <ele>89.565809</ele>
        <time>2023-07-04T07:06:07.761Z</time>
      </trkpt>
      <trkpt lat="48.821476" lon="2.227175">
        <ele>90.933829</ele>
        <time>2023-07-04T07:06:25.266Z</time>
      </trkpt>
      <trkpt lat="48.821390" lon="2.227307">
        <ele>91.126437</ele>
        <time>2023-07-04T07:06:27.678Z</time>
      </trkpt>
      <trkpt lat="48.821155" lon="2.227649">
        <ele>91.639147</ele>
        <time>2023-07-04T07:06:34.590Z</time>
      </trkpt>
      <trkpt lat="48.821120" lon="2.227698">
        <ele>91.714132</ele>
        <time>2023-07-04T07:06:35.567Z</time>
      </trkpt>
      <trkpt lat="48.820836" lon="2.228108">
        <ele>92.422931</ele>
        <time>2023-07-04T07:06:44.373Z</time>
      </trkpt>
      <trkpt lat="48.820268" lon="2.228942">
        <ele>94.577128</ele>
        <time>2023-07-04T07:07:03.110Z</time>
      </trkpt>
      <trkpt lat="48.820239" lon="2.228986">
        <ele>94.688900</ele>
        <time>2023-07-04T07:07:04.139Z</time>
      </trkpt>
      <trkpt lat="48.820102" lon="2.229139">
        <ele>95.152578</ele>
        <time>2023-07-04T07:07:08.458Z</time>
      </trkpt>
      <trkpt lat="48.819390" lon="2.229333">
        <ele>97.134528</ele>
        <time>2023-07-04T07:07:28.664Z</time>
      </trkpt>
      <trkpt lat="48.819303" lon="2.229353">
        <ele>97.532346</ele>
        <time>2023-07-04T07:07:31.323Z</time>
      </trkpt>
      <trkpt lat="48.819208" lon="2.229376">
        <ele>97.967275</ele>
        <time>2023-07-04T07:07:34.277Z</time>
      </trkpt>
      <trkpt lat="48.818941" lon="2.229442">
        <ele>99.190298</ele>
        <time>2023-07-04T07:07:42.777Z</time>
      </trkpt>
      <trkpt lat="48.818855" lon="2.229459">
        <ele>99.582394</ele>
        <time>2023-07-04T07:07:45.558Z</time>
      </trkpt>
      <trkpt lat="48.818614" lon="2.229516">
        <ele>100.685117</ele>
        <time>2023-07-04T07:07:53.484Z</time>
      </trkpt>
      <trkpt lat="48.818260" lon="2.229600">
        <ele>102.305010</ele>
        <time>2023-07-04T07:08:05.558Z</time>
      </trkpt>
      <trkpt lat="48.818197" lon="2.229620">
        <ele>102.595996</ele>
        <time>2023-07-04T07:08:07.775Z</time>
      </trkpt>
      <trkpt lat="48.818036" lon="2.229792">
        <ele>103.485949</ele>
        <time>2023-07-04T07:08:14.523Z</time>
      </trkpt>
      <trkpt lat="48.817897" lon="2.229879">
        <ele>104.165662</ele>
        <time>2023-07-04T07:08:19.859Z</time>
      </trkpt>
      <trkpt lat="48.817824" lon="2.229856">
        <ele>104.502731</ele>
        <time>2023-07-04T07:08:22.483Z</time>
      </trkpt>
      <trkpt lat="48.817681" lon="2.229769">
        <ele>105.199198</ele>
        <time>2023-07-04T07:08:27.915Z</time>
      </trkpt>
      <trkpt lat="48.817572" lon="2.229761">
        <ele>105.793057</ele>
        <time>2023-07-04T07:08:31.812Z</time>
      </trkpt>
      <trkpt lat="48.817513" lon="2.229792">
        <ele>106.138313</ele>
        <time>2023-07-04T07:08:34.307Z</time>
      </trkpt>
      <trkpt lat="48.816539" lon="2.230040">
        <ele>111.599890</ele>
        <time>2023-07-04T07:09:15.675Z</time>
      </trkpt>
      <trkpt lat="48.816033" lon="2.230165">
        <ele>114.434942</ele>
        <time>2023-07-04T07:09:38.146Z</time>
      </trkpt>
      <trkpt lat="48.815655" lon="2.230261">
        <ele>116.607985</ele>
        <time>2023-07-04T07:09:54.968Z</time>
      </trkpt>
      <trkpt lat="48.814918" lon="2.230447">
        <ele>120.901859</ele>
        <time>2023-07-04T07:10:27.541Z</time>
      </trkpt>
      <trkpt lat="48.814196" lon="2.230631">
        <ele>125.109456</ele>
        <time>2023-07-04T07:10:59.152Z</time>
      </trkpt>
      <trkpt lat="48.813906" lon="2.230705">
        <ele>126.682857</ele>
        <time>2023-07-04T07:11:11.669Z</time>
      </trkpt>
      <trkpt lat="48.812984" lon="2.230938">
        <ele>131.562334</ele>
        <time>2023-07-04T07:11:50.443Z</time>
      </trkpt>
      <trkpt lat="48.811280" lon="2.231363">
        <ele>139.610452</ele>
        <time>2023-07-04T07:12:58.889Z</time>
      </trkpt>
      <trkpt lat="48.810530" lon="2.231550">
        <ele>142.793978</ele>
        <time>2023-07-04T07:13:26.263Z</time>
      </trkpt>
      <trkpt lat="48.810084" lon="2.231663">
        <ele>143.697547</ele>
        <time>2023-07-04T07:13:40.101Z</time>
      </trkpt>
      <trkpt lat="48.810085" lon="2.231450">
        <ele>143.977864</ele>
        <time>2023-07-04T07:13:46.503Z</time>
      </trkpt>
      <trkpt lat="48.810090" lon="2.231308">
        <ele>144.165003</ele>
        <time>2023-07-04T07:13:50.677Z</time>
      </trkpt>
      <trkpt lat="48.810264" lon="2.231175">
        <ele>144.554278</ele>
        <time>2023-07-04T07:13:58.935Z</time>
      </trkpt>
      <trkpt lat="48.810834" lon="2.230783">
        <ele>145.804691</ele>
        <time>2023-07-04T07:14:11.250Z</time>
      </trkpt>
      <trkpt lat="48.811559" lon="2.230390">
        <ele>148.001805</ele>
        <time>2023-07-04T07:14:27.835Z</time>
      </trkpt>
      <trkpt lat="48.811930" lon="2.230189">
        <ele>149.284615</ele>
        <time>2023-07-04T07:14:36.932Z</time>
      </trkpt>
      <trkpt lat="48.811850" lon="2.230096">
        <ele>149.612725</ele>
        <time>2023-07-04T07:14:39.755Z</time>
      </trkpt>
      <trkpt lat="48.810459" lon="2.230265">
        <ele>155.822874</ele>
        <time>2023-07-04T07:15:27.727Z</time>
      </trkpt>
      <trkpt lat="48.810348" lon="2.230233">
        <ele>156.496822</ele>
        <time>2023-07-04T07:15:32.590Z</time>
      </trkpt>
      <trkpt lat="48.810305" lon="2.230068">
        <ele>157.193898</ele>
        <time>2023-07-04T07:15:37.445Z</time>
      </trkpt>
      <trkpt lat="48.810215" lon="2.229188">
        <ele>160.692248</ele>
        <time>2023-07-04T07:16:02.004Z</time>
      </trkpt>
      <trkpt lat="48.810080" lon="2.227879">
        <ele>165.312805</ele>
        <time>2023-07-04T07:16:37.208Z</time>
      </trkpt>
      <trkpt lat="48.810069" lon="2.227761">
        <ele>165.690204</ele>
        <time>2023-07-04T07:16:40.186Z</time>
      </trkpt>
      <trkpt lat="48.810006" lon="2.227148">
        <ele>167.654907</ele>
        <time>2023-07-04T07:16:54.523Z</time>
      </trkpt>
      <trkpt lat="48.809909" lon="2.226155">
        <ele>170.833883</ele>
        <time>2023-07-04T07:17:14.855Z</time>
      </trkpt>
      <trkpt lat="48.809852" lon="2.225594">
        <ele>171.934741</ele>
        <time>2023-07-04T07:17:24.958Z</time>
      </trkpt>
      <trkpt lat="48.809813" lon="2.225414">
        <ele>172.154463</ele>
        <time>2023-07-04T07:17:27.975Z</time>
      </trkpt>
      <trkpt lat="48.809369" lon="2.224940">
        <ele>173.110096</ele>
        <time>2023-07-04T07:17:40.809Z</time>
      </trkpt>
      <trkpt lat="48.808227" lon="2.223867">
        <ele>174.836205</ele>
        <time>2023-07-04T07:18:05.169Z</time>
      </trkpt>
      <trkpt lat="48.806974" lon="2.222650">
        <ele>175.322614</ele>
        <time>2023-07-04T07:18:28.012Z</time>
      </trkpt>
      <trkpt lat="48.806643" lon="2.222353">
        <ele>175.512489</ele>
        <time>2023-07-04T07:18:33.492Z</time>
      </trkpt>
      <trkpt lat="48.804567" lon="2.220400">
        <ele>177.465860</ele>
        <time>2023-07-04T07:19:16.785Z</time>
      </trkpt>
      <trkpt lat="48.803692" lon="2.219473">
        <ele>178.571438</ele>
        <time>2023-07-04T07:19:41.161Z</time>
      </trkpt>
      <trkpt lat="48.802008" lon="2.217853">
        <ele>178.691618</ele>
        <time>2023-07-04T07:20:14.801Z</time>
      </trkpt>
      <trkpt lat="48.800412" lon="2.216342">
        <ele>174.513303</ele>
        <time>2023-07-04T07:20:34.094Z</time>
      </trkpt>
      <trkpt lat="48.800208" lon="2.216184">
        <ele>173.825239</ele>
        <time>2023-07-04T07:20:36.363Z</time>
      </trkpt>
      <trkpt lat="48.800079" lon="2.216160">
        <ele>173.434762</ele>
        <time>2023-07-04T07:20:37.649Z</time>
      </trkpt>
      <trkpt lat="48.799927" lon="2.216197">
        <ele>172.972248</ele>
        <time>2023-07-04T07:20:39.198Z</time>
      </trkpt>
      <trkpt lat="48.799670" lon="2.216363">
        <ele>172.133118</ele>
        <time>2023-07-04T07:20:41.990Z</time>
      </trkpt>
      <trkpt lat="48.798200" lon="2.218407">
        <ele>168.523360</ele>
        <time>2023-07-04T07:21:03.754Z</time>
      </trkpt>
      <trkpt lat="48.798037" lon="2.218565">
        <ele>168.537616</ele>
        <time>2023-07-04T07:21:06.492Z</time>
      </trkpt>
      <trkpt lat="48.798188" lon="2.216794">
        <ele>171.157682</ele>
        <time>2023-07-04T07:21:34.121Z</time>
      </trkpt>
      <trkpt lat="48.798214" lon="2.216379">
        <ele>171.769312</ele>
        <time>2023-07-04T07:21:42.629Z</time>
      </trkpt>
      <trkpt lat="48.798279" lon="2.215884">
        <ele>172.552219</ele>
        <time>2023-07-04T07:21:53.673Z</time>
      </trkpt>
      <trkpt lat="48.798787" lon="2.214682">
        <ele>175.223268</ele>
        <time>2023-07-04T07:22:20.679Z</time>
      </trkpt>
      <trkpt lat="48.798739" lon="2.214637">
        <ele>175.383450</ele>
        <time>2023-07-04T07:22:22.201Z</time>
      </trkpt>
      <trkpt lat="48.798315" lon="2.214241">
        <ele>176.796920</ele>
        <time>2023-07-04T07:22:34.119Z</time>
      </trkpt>
      <trkpt lat="48.797622" lon="2.213559">
        <ele>177.728168</ele>
        <time>2023-07-04T07:22:50.840Z</time>
      </trkpt>
      <trkpt lat="48.796928" lon="2.212889">
        <ele>178.097377</ele>
        <time>2023-07-04T07:23:56.466Z</time>
      </trkpt>
      <trkpt lat="48.796426" lon="2.212404">
        <ele>178.093051</ele>
        <time>2023-07-04T07:24:42.587Z</time>
      </trkpt>
      <trkpt lat="48.796159" lon="2.212146">
        <ele>177.826498</ele>
        <time>2023-07-04T07:25:07.146Z</time>
      </trkpt>
      <trkpt lat="48.795795" lon="2.211796">
        <ele>177.463622</ele>
        <time>2023-07-04T07:25:12.720Z</time>
      </trkpt>
      <trkpt lat="48.795566" lon="2.211574">
        <ele>177.234790</ele>
        <time>2023-07-04T07:25:16.278Z</time>
      </trkpt>
      <trkpt lat="48.795282" lon="2.211292">
        <ele>176.948986</ele>
        <time>2023-07-04T07:25:20.551Z</time>
      </trkpt>
      <trkpt lat="48.793825" lon="2.209912">
        <ele>173.857620</ele>
        <time>2023-07-04T07:25:39.364Z</time>
      </trkpt>
      <trkpt lat="48.792993" lon="2.209026">
        <ele>170.794140</ele>
        <time>2023-07-04T07:25:50.523Z</time>
      </trkpt>
      <trkpt lat="48.792959" lon="2.208884">
        <ele>170.447272</ele>
        <time>2023-07-04T07:25:51.568Z</time>
      </trkpt>
      <trkpt lat="48.792989" lon="2.208712">
        <ele>170.038790</ele>
        <time>2023-07-04T07:25:52.745Z</time>
      </trkpt>
      <trkpt lat="48.793166" lon="2.208479">
        <ele>169.222325</ele>
        <time>2023-07-04T07:25:55.089Z</time>
      </trkpt>
      <trkpt lat="48.793599" lon="2.208188">
        <ele>167.572085</ele>
        <time>2023-07-04T07:25:59.586Z</time>
      </trkpt>
      <trkpt lat="48.793829" lon="2.208067">
        <ele>166.437756</ele>
        <time>2023-07-04T07:26:01.863Z</time>
      </trkpt>
      <trkpt lat="48.794034" lon="2.208008">
        <ele>164.908810</ele>
        <time>2023-07-04T07:26:03.784Z</time>
      </trkpt>
      <trkpt lat="48.794120" lon="2.207916">
        <ele>164.137859</ele>
        <time>2023-07-04T07:26:04.761Z</time>
      </trkpt>
      <trkpt lat="48.794177" lon="2.207743">
        <ele>163.204116</ele>
        <time>2023-07-04T07:26:05.925Z</time>
      </trkpt>
      <trkpt lat="48.794278" lon="2.207138">
        <ele>160.191310</ele>
        <time>2023-07-04T07:26:09.653Z</time>
      </trkpt>
      <trkpt lat="48.794332" lon="2.206491">
        <ele>157.043115</ele>
        <time>2023-07-04T07:26:13.449Z</time>
      </trkpt>
      <trkpt lat="48.794300" lon="2.205993">
        <ele>154.627738</ele>
        <time>2023-07-04T07:26:16.309Z</time>
      </trkpt>
      <trkpt lat="48.794308" lon="2.205463">
        <ele>151.871077</ele>
        <time>2023-07-04T07:26:19.322Z</time>
      </trkpt>
      <trkpt lat="48.794446" lon="2.204711">
        <ele>147.673609</ele>
        <time>2023-07-04T07:26:23.768Z</time>
      </trkpt>
      <trkpt lat="48.794444" lon="2.204302">
        <ele>145.474355</ele>
        <time>2023-07-04T07:26:26.129Z</time>
      </trkpt>
      <trkpt lat="48.794393" lon="2.203911">
        <ele>143.331132</ele>
        <time>2023-07-04T07:26:28.454Z</time>
      </trkpt>
      <trkpt lat="48.794318" lon="2.203457">
        <ele>140.814382</ele>
        <time>2023-07-04T07:26:31.222Z</time>
      </trkpt>
      <trkpt lat="48.794224" lon="2.203076">
        <ele>138.867959</ele>
        <time>2023-07-04T07:26:33.656Z</time>
      </trkpt>
      <trkpt lat="48.794211" lon="2.202921">
        <ele>138.436821</ele>
        <time>2023-07-04T07:26:34.606Z</time>
      </trkpt>
      <trkpt lat="48.794286" lon="2.202675">
        <ele>137.688875</ele>
        <time>2023-07-04T07:26:36.258Z</time>
      </trkpt>
      <trkpt lat="48.794796" lon="2.201704">
        <ele>134.262302</ele>
        <time>2023-07-04T07:26:44.049Z</time>
      </trkpt>
      <trkpt lat="48.794862" lon="2.201561">
        <ele>133.780528</ele>
        <time>2023-07-04T07:26:45.196Z</time>
      </trkpt>
      <trkpt lat="48.794980" lon="2.201290">
        <ele>132.884197</ele>
        <time>2023-07-04T07:26:47.353Z</time>
      </trkpt>
      <trkpt lat="48.794696" lon="2.200515">
        <ele>131.710234</ele>
        <time>2023-07-04T07:26:53.855Z</time>
      </trkpt>
      <trkpt lat="48.794343" lon="2.199564">
        <ele>132.028709</ele>
        <time>2023-07-04T07:27:04.472Z</time>
      </trkpt>
      <trkpt lat="48.794144" lon="2.199042">
        <ele>132.204671</ele>
        <time>2023-07-04T07:27:12.522Z</time>
      </trkpt>
      <trkpt lat="48.793016" lon="2.196092">
        <ele>136.080974</ele>
        <time>2023-07-04T07:28:08.306Z</time>
      </trkpt>
      <trkpt lat="48.793076" lon="2.196008">
        <ele>136.018187</ele>
        <time>2023-07-04T07:28:09.262Z</time>
      </trkpt>
      <trkpt lat="48.793090" lon="2.195878">
        <ele>135.951434</ele>
        <time>2023-07-04T07:28:10.373Z</time>
      </trkpt>
      <trkpt lat="48.793055" lon="2.195775">
        <ele>135.892703</ele>
        <time>2023-07-04T07:28:11.420Z</time>
      </trkpt>
      <trkpt lat="48.792999" lon="2.195724">
        <ele>135.842468</ele>
        <time>2023-07-04T07:28:12.647Z</time>
      </trkpt>
      <trkpt lat="48.793374" lon="2.193706">
        <ele>134.779923</ele>
        <time>2023-07-04T07:28:28.706Z</time>
      </trkpt>
      <trkpt lat="48.793635" lon="2.192301">
        <ele>133.522220</ele>
        <time>2023-07-04T07:28:39.886Z</time>
      </trkpt>
      <trkpt lat="48.793711" lon="2.191895">
        <ele>133.147491</ele>
        <time>2023-07-04T07:28:43.560Z</time>
      </trkpt>
      <trkpt lat="48.794069" lon="2.189976">
        <ele>130.391356</ele>
        <time>2023-07-04T07:28:58.679Z</time>
      </trkpt>
      <trkpt lat="48.794384" lon="2.188398">
        <ele>127.373262</ele>
        <time>2023-07-04T07:29:09.436Z</time>
      </trkpt>
      <trkpt lat="48.794511" lon="2.187619">
        <ele>126.577099</ele>
        <time>2023-07-04T07:29:14.699Z</time>
      </trkpt>
      <trkpt lat="48.794665" lon="2.186878">
        <ele>125.836882</ele>
        <time>2023-07-04T07:29:20.070Z</time>
      </trkpt>
      <trkpt lat="48.794696" lon="2.186763">
        <ele>125.718509</ele>
        <time>2023-07-04T07:29:21.058Z</time>
      </trkpt>
      <trkpt lat="48.795578" lon="2.182079">
        <ele>127.476977</ele>
        <time>2023-07-04T07:30:20.747Z</time>
      </trkpt>
      <trkpt lat="48.795622" lon="2.181720">
        <ele>127.836026</ele>
        <time>2023-07-04T07:30:25.682Z</time>
      </trkpt>
      <trkpt lat="48.795579" lon="2.181634">
        <ele>127.942186</ele>
        <time>2023-07-04T07:30:27.316Z</time>
      </trkpt>
      <trkpt lat="48.795557" lon="2.181489">
        <ele>128.088492</ele>
        <time>2023-07-04T07:30:29.186Z</time>
      </trkpt>
      <trkpt lat="48.795605" lon="2.181291">
        <ele>128.295943</ele>
        <time>2023-07-04T07:30:32.209Z</time>
      </trkpt>
      <trkpt lat="48.795722" lon="2.181135">
        <ele>128.528378</ele>
        <time>2023-07-04T07:30:35.548Z</time>
      </trkpt>
      <trkpt lat="48.795814" lon="2.181013">
        <ele>128.710716</ele>
        <time>2023-07-04T07:30:37.819Z</time>
      </trkpt>
      <trkpt lat="48.795751" lon="2.180872">
        <ele>128.878238</ele>
        <time>2023-07-04T07:30:40.589Z</time>
      </trkpt>
      <trkpt lat="48.795686" lon="2.180728">
        <ele>129.049879</ele>
        <time>2023-07-04T07:30:43.252Z</time>
      </trkpt>
      <trkpt lat="48.795578" lon="2.180488">
        <ele>129.706595</ele>
        <time>2023-07-04T07:30:47.663Z</time>
      </trkpt>
      <trkpt lat="48.795175" lon="2.179625">
        <ele>132.391898</ele>
        <time>2023-07-04T07:31:06.752Z</time>
      </trkpt>
      <trkpt lat="48.794750" lon="2.178916">
        <ele>134.825295</ele>
        <time>2023-07-04T07:31:27.641Z</time>
      </trkpt>
      <trkpt lat="48.794576" lon="2.178726">
        <ele>135.651253</ele>
        <time>2023-07-04T07:31:35.091Z</time>
      </trkpt>
      <trkpt lat="48.794570" lon="2.178721">
        <ele>135.677629</ele>
        <time>2023-07-04T07:31:35.319Z</time>
      </trkpt>
      <trkpt lat="48.793909" lon="2.178164">
        <ele>140.432152</ele>
        <time>2023-07-04T07:32:03.498Z</time>
      </trkpt>
      <trkpt lat="48.793273" lon="2.177653">
        <ele>145.200471</ele>
        <time>2023-07-04T07:32:35.388Z</time>
      </trkpt>
      <trkpt lat="48.793124" lon="2.177594">
        <ele>146.220843</ele>
        <time>2023-07-04T07:32:42.186Z</time>
      </trkpt>
      <trkpt lat="48.792742" lon="2.177612">
        <ele>148.823711</ele>
        <time>2023-07-04T07:32:59.437Z</time>
      </trkpt>
      <trkpt lat="48.792592" lon="2.177664">
        <ele>149.932645</ele>
        <time>2023-07-04T07:33:06.347Z</time>
      </trkpt>
      <trkpt lat="48.792211" lon="2.177945">
        <ele>152.985612</ele>
        <time>2023-07-04T07:33:24.375Z</time>
      </trkpt>
      <trkpt lat="48.791955" lon="2.178292">
        <ele>155.459253</ele>
        <time>2023-07-04T07:33:39.289Z</time>
      </trkpt>
      <trkpt lat="48.791693" lon="2.178989">
        <ele>159.269547</ele>
        <time>2023-07-04T07:34:02.876Z</time>
      </trkpt>
      <trkpt lat="48.791521" lon="2.179283">
        <ele>161.079274</ele>
        <time>2023-07-04T07:34:14.545Z</time>
      </trkpt>
      <trkpt lat="48.791316" lon="2.179502">
        <ele>162.421187</ele>
        <time>2023-07-04T07:34:25.304Z</time>
      </trkpt>
      <trkpt lat="48.791167" lon="2.179612">
        <ele>163.308129</ele>
        <time>2023-07-04T07:34:32.172Z</time>
      </trkpt>
      <trkpt lat="48.790792" lon="2.179781">
        <ele>165.402139</ele>
        <time>2023-07-04T07:34:47.117Z</time>
      </trkpt>
      <trkpt lat="48.790515" lon="2.179818">
        <ele>166.890670</ele>
        <time>2023-07-04T07:34:56.845Z</time>
      </trkpt>
      <trkpt lat="48.790165" lon="2.179791">
        <ele>168.766662</ele>
        <time>2023-07-04T07:35:08.341Z</time>
      </trkpt>
      <trkpt lat="48.789703" lon="2.179636">
        <ele>170.873994</ele>
        <time>2023-07-04T07:35:22.795Z</time>
      </trkpt>
      <trkpt lat="48.788876" lon="2.179258">
        <ele>172.899159</ele>
        <time>2023-07-04T07:35:45.470Z</time>
      </trkpt>
      <trkpt lat="48.788559" lon="2.179113">
        <ele>173.675480</ele>
        <time>2023-07-04T07:35:52.585Z</time>
      </trkpt>
      <trkpt lat="48.788440" lon="2.179090">
        <ele>173.956765</ele>
        <time>2023-07-04T07:35:54.991Z</time>
      </trkpt>
      <trkpt lat="48.788359" lon="2.179069">
        <ele>174.149445</ele>
        <time>2023-07-04T07:35:56.627Z</time>
      </trkpt>
      <trkpt lat="48.788269" lon="2.179047">
        <ele>174.363196</ele>
        <time>2023-07-04T07:35:58.342Z</time>
      </trkpt>
      <trkpt lat="48.788049" lon="2.179058">
        <ele>174.818903</ele>
        <time>2023-07-04T07:36:02.326Z</time>
      </trkpt>
      <trkpt lat="48.787742" lon="2.179145">
        <ele>175.180943</ele>
        <time>2023-07-04T07:36:08.005Z</time>
      </trkpt>
      <trkpt lat="48.787195" lon="2.179220">
        <ele>175.817636</ele>
        <time>2023-07-04T07:36:18.373Z</time>
      </trkpt>
      <trkpt lat="48.786472" lon="2.179325">
        <ele>176.659603</ele>
        <time>2023-07-04T07:36:33.099Z</time>
      </trkpt>
      <trkpt lat="48.786053" lon="2.179375">
        <ele>176.997515</ele>
        <time>2023-07-04T07:36:41.582Z</time>
      </trkpt>
      <trkpt lat="48.785856" lon="2.179400">
        <ele>177.113354</ele>
        <time>2023-07-04T07:36:45.341Z</time>
      </trkpt>
      <trkpt lat="48.785705" lon="2.179366">
        <ele>177.202805</ele>
        <time>2023-07-04T07:36:48.166Z</time>
      </trkpt>
      <trkpt lat="48.785625" lon="2.179348">
        <ele>177.250195</ele>
        <time>2023-07-04T07:36:49.635Z</time>
      </trkpt>
      <trkpt lat="48.785566" lon="2.179238">
        <ele>177.304957</ele>
        <time>2023-07-04T07:36:51.232Z</time>
      </trkpt>
      <trkpt lat="48.785477" lon="2.179195">
        <ele>177.359687</ele>
        <time>2023-07-04T07:36:52.834Z</time>
      </trkpt>
      <trkpt lat="48.785415" lon="2.179100">
        <ele>177.411313</ele>
        <time>2023-07-04T07:36:54.333Z</time>
      </trkpt>
      <trkpt lat="48.785394" lon="2.179078">
        <ele>177.426265</ele>
        <time>2023-07-04T07:36:54.755Z</time>
      </trkpt>
      <trkpt lat="48.784993" lon="2.178385">
        <ele>177.782357</ele>
        <time>2023-07-04T07:37:04.390Z</time>
      </trkpt>
      <trkpt lat="48.784878" lon="2.178180">
        <ele>177.886306</ele>
        <time>2023-07-04T07:37:07.195Z</time>
      </trkpt>
      <trkpt lat="48.784447" lon="2.177426">
        <ele>177.530117</ele>
        <time>2023-07-04T07:37:16.414Z</time>
      </trkpt>
      <trkpt lat="48.784350" lon="2.177258">
        <ele>177.444825</ele>
        <time>2023-07-04T07:37:18.251Z</time>
      </trkpt>
      <trkpt lat="48.784268" lon="2.177122">
        <ele>177.374435</ele>
        <time>2023-07-04T07:37:19.756Z</time>
      </trkpt>
      <trkpt lat="48.784120" lon="2.176874">
        <ele>177.246674</ele>
        <time>2023-07-04T07:37:22.499Z</time>
      </trkpt>
      <trkpt lat="48.784044" lon="2.176754">
        <ele>177.183120</ele>
        <time>2023-07-04T07:37:23.809Z</time>
      </trkpt>
      <trkpt lat="48.783997" lon="2.176674">
        <ele>177.142194</ele>
        <time>2023-07-04T07:37:24.663Z</time>
      </trkpt>
      <trkpt lat="48.783577" lon="2.175979">
        <ele>176.797750</ele>
        <time>2023-07-04T07:37:32.242Z</time>
      </trkpt>
      <trkpt lat="48.783493" lon="2.175836">
        <ele>176.739976</ele>
        <time>2023-07-04T07:37:33.946Z</time>
      </trkpt>
      <trkpt lat="48.783380" lon="2.175644">
        <ele>176.662338</ele>
        <time>2023-07-04T07:37:36.295Z</time>
      </trkpt>
      <trkpt lat="48.783117" lon="2.175209">
        <ele>176.484295</ele>
        <time>2023-07-04T07:37:42.048Z</time>
      </trkpt>
      <trkpt lat="48.782923" lon="2.174860">
        <ele>176.346593</ele>
        <time>2023-07-04T07:37:46.205Z</time>
      </trkpt>
      <trkpt lat="48.782795" lon="2.174630">
        <ele>176.255800</ele>
        <time>2023-07-04T07:37:48.916Z</time>
      </trkpt>
      <trkpt lat="48.782691" lon="2.174389">
        <ele>176.168919</ele>
        <time>2023-07-04T07:37:51.378Z</time>
      </trkpt>
      <trkpt lat="48.782598" lon="2.174133">
        <ele>176.080758</ele>
        <time>2023-07-04T07:37:53.940Z</time>
      </trkpt>
      <trkpt lat="48.782422" lon="2.173665">
        <ele>175.909997</ele>
        <time>2023-07-04T07:37:58.579Z</time>
      </trkpt>
      <trkpt lat="48.782038" lon="2.172719">
        <ele>175.550880</ele>
        <time>2023-07-04T07:38:08.219Z</time>
      </trkpt>
      <trkpt lat="48.781754" lon="2.172112">
        <ele>175.310264</ele>
        <time>2023-07-04T07:38:14.616Z</time>
      </trkpt>
      <trkpt lat="48.781567" lon="2.171881">
        <ele>175.191993</ele>
        <time>2023-07-04T07:38:17.851Z</time>
      </trkpt>
      <trkpt lat="48.781474" lon="2.171812">
        <ele>175.154578</ele>
        <time>2023-07-04T07:38:19.167Z</time>
      </trkpt>
      <trkpt lat="48.781275" lon="2.171752">
        <ele>175.190223</ele>
        <time>2023-07-04T07:38:21.915Z</time>
      </trkpt>
      <trkpt lat="48.780670" lon="2.171676">
        <ele>175.296879</ele>
        <time>2023-07-04T07:38:30.687Z</time>
      </trkpt>
      <trkpt lat="48.780473" lon="2.171691">
        <ele>175.331534</ele>
        <time>2023-07-04T07:38:33.591Z</time>
      </trkpt>
      <trkpt lat="48.780307" lon="2.171795">
        <ele>175.363086</ele>
        <time>2023-07-04T07:38:36.479Z</time>
      </trkpt>
      <trkpt lat="48.780211" lon="2.171887">
        <ele>175.383033</ele>
        <time>2023-07-04T07:38:38.365Z</time>
      </trkpt>
      <trkpt lat="48.780060" lon="2.172138">
        <ele>175.422380</ele>
        <time>2023-07-04T07:38:42.066Z</time>
      </trkpt>
      <trkpt lat="48.779973" lon="2.172458">
        <ele>175.462456</ele>
        <time>2023-07-04T07:38:45.941Z</time>
      </trkpt>
      <trkpt lat="48.779962" lon="2.172639">
        <ele>175.573943</ele>
        <time>2023-07-04T07:38:48.175Z</time>
      </trkpt>
      <trkpt lat="48.779972" lon="2.172809">
        <ele>175.702388</ele>
        <time>2023-07-04T07:38:50.437Z</time>
      </trkpt>
      <trkpt lat="48.780056" lon="2.173253">
        <ele>176.050025</ele>
        <time>2023-07-04T07:38:56.802Z</time>
      </trkpt>
      <trkpt lat="48.780026" lon="2.173585">
        <ele>176.302214</ele>
        <time>2023-07-04T07:39:01.491Z</time>
      </trkpt>
      <trkpt lat="48.779995" lon="2.173709">
        <ele>176.402022</ele>
        <time>2023-07-04T07:39:03.439Z</time>
      </trkpt>
      <trkpt lat="48.779698" lon="2.174507">
        <ele>177.091738</ele>
        <time>2023-07-04T07:39:15.509Z</time>
      </trkpt>
      <trkpt lat="48.779572" lon="2.174649">
        <ele>177.270979</ele>
        <time>2023-07-04T07:39:18.467Z</time>
      </trkpt>
      <trkpt lat="48.779393" lon="2.174675">
        <ele>177.476342</ele>
        <time>2023-07-04T07:39:21.723Z</time>
      </trkpt>
      <trkpt lat="48.779282" lon="2.174710">
        <ele>177.499747</ele>
        <time>2023-07-04T07:39:23.861Z</time>
      </trkpt>
      <trkpt lat="48.779314" lon="2.173950">
        <ele>177.354298</ele>
        <time>2023-07-04T07:39:32.712Z</time>
      </trkpt>
      <trkpt lat="48.779307" lon="2.172756">
        <ele>177.126246</ele>
        <time>2023-07-04T07:39:43.787Z</time>
      </trkpt>
      <trkpt lat="48.779372" lon="2.172246">
        <ele>177.027035</ele>
        <time>2023-07-04T07:39:47.729Z</time>
      </trkpt>
      <trkpt lat="48.779485" lon="2.171921">
        <ele>176.708661</ele>
        <time>2023-07-04T07:39:50.347Z</time>
      </trkpt>
      <trkpt lat="48.779614" lon="2.171707">
        <ele>176.333931</ele>
        <time>2023-07-04T07:39:52.463Z</time>
      </trkpt>
      <trkpt lat="48.779879" lon="2.171414">
        <ele>175.691063</ele>
        <time>2023-07-04T07:39:56.043Z</time>
      </trkpt>
      <trkpt lat="48.780016" lon="2.171194">
        <ele>175.299976</ele>
        <time>2023-07-04T07:39:58.233Z</time>
      </trkpt>
      <trkpt lat="48.780113" lon="2.171023">
        <ele>175.008456</ele>
        <time>2023-07-04T07:39:59.905Z</time>
      </trkpt>
      <trkpt lat="48.780428" lon="2.170320">
        <ele>173.910080</ele>
        <time>2023-07-04T07:40:05.973Z</time>
      </trkpt>
      <trkpt lat="48.780547" lon="2.169817">
        <ele>173.284874</ele>
        <time>2023-07-04T07:40:09.764Z</time>
      </trkpt>
      <trkpt lat="48.780549" lon="2.169625">
        <ele>173.100622</ele>
        <time>2023-07-04T07:40:11.156Z</time>
      </trkpt>
      <trkpt lat="48.780523" lon="2.169447">
        <ele>172.925680</ele>
        <time>2023-07-04T07:40:12.503Z</time>
      </trkpt>
      <trkpt lat="48.780470" lon="2.169198">
        <ele>172.674601</ele>
        <time>2023-07-04T07:40:14.412Z</time>
      </trkpt>
      <trkpt lat="48.780510" lon="2.169047">
        <ele>172.518443</ele>
        <time>2023-07-04T07:40:15.684Z</time>
      </trkpt>
      <trkpt lat="48.780470" lon="2.168935">
        <ele>172.396206</ele>
        <time>2023-07-04T07:40:16.670Z</time>
      </trkpt>
      <trkpt lat="48.780410" lon="2.168897">
        <ele>172.301533</ele>
        <time>2023-07-04T07:40:17.411Z</time>
      </trkpt>
      <trkpt lat="48.780320" lon="2.168946">
        <ele>172.162300</ele>
        <time>2023-07-04T07:40:18.531Z</time>
      </trkpt>
      <trkpt lat="48.780287" lon="2.169071">
        <ele>172.033090</ele>
        <time>2023-07-04T07:40:19.649Z</time>
      </trkpt>
      <trkpt lat="48.779747" lon="2.169091">
        <ele>171.246530</ele>
        <time>2023-07-04T07:40:26.273Z</time>
      </trkpt>
      <trkpt lat="48.779035" lon="2.169112">
        <ele>170.010072</ele>
        <time>2023-07-04T07:40:34.629Z</time>
      </trkpt>
      <trkpt lat="48.778836" lon="2.169171">
        <ele>169.623453</ele>
        <time>2023-07-04T07:40:36.896Z</time>
      </trkpt>
      <trkpt lat="48.778706" lon="2.169275">
        <ele>169.343239</ele>
        <time>2023-07-04T07:40:38.555Z</time>
      </trkpt>
      <trkpt lat="48.776925" lon="2.171148">
        <ele>163.526247</ele>
        <time>2023-07-04T07:41:01.806Z</time>
      </trkpt>
      <trkpt lat="48.776752" lon="2.171222">
        <ele>162.922538</ele>
        <time>2023-07-04T07:41:03.557Z</time>
      </trkpt>
      <trkpt lat="48.776620" lon="2.171212">
        <ele>162.478630</ele>
        <time>2023-07-04T07:41:04.823Z</time>
      </trkpt>
      <trkpt lat="48.776012" lon="2.170997">
        <ele>159.519474</ele>
        <time>2023-07-04T07:41:10.623Z</time>
      </trkpt>
      <trkpt lat="48.775773" lon="2.170990">
        <ele>158.025348</ele>
        <time>2023-07-04T07:41:12.788Z</time>
      </trkpt>
      <trkpt lat="48.775660" lon="2.171030">
        <ele>157.300088</ele>
        <time>2023-07-04T07:41:13.852Z</time>
      </trkpt>
      <trkpt lat="48.775298" lon="2.171255">
        <ele>154.854984</ele>
        <time>2023-07-04T07:41:17.387Z</time>
      </trkpt>
      <trkpt lat="48.775030" lon="2.171481">
        <ele>152.938579</ele>
        <time>2023-07-04T07:41:20.157Z</time>
      </trkpt>
      <trkpt lat="48.774892" lon="2.171654">
        <ele>151.819732</ele>
        <time>2023-07-04T07:41:21.768Z</time>
      </trkpt>
      <trkpt lat="48.774440" lon="2.172499">
        <ele>147.565443</ele>
        <time>2023-07-04T07:41:28.299Z</time>
      </trkpt>
      <trkpt lat="48.774358" lon="2.172604">
        <ele>146.949485</ele>
        <time>2023-07-04T07:41:29.288Z</time>
      </trkpt>
      <trkpt lat="48.774180" lon="2.172764">
        <ele>145.761793</ele>
        <time>2023-07-04T07:41:31.176Z</time>
      </trkpt>
      <trkpt lat="48.773834" lon="2.172979">
        <ele>143.615390</ele>
        <time>2023-07-04T07:41:34.600Z</time>
      </trkpt>
      <trkpt lat="48.773645" lon="2.173033">
        <ele>142.511319</ele>
        <time>2023-07-04T07:41:36.383Z</time>
      </trkpt>
      <trkpt lat="48.773454" lon="2.173034">
        <ele>141.414828</ele>
        <time>2023-07-04T07:41:38.168Z</time>
      </trkpt>
      <trkpt lat="48.772704" lon="2.172736">
        <ele>137.767896</ele>
        <time>2023-07-04T07:41:45.587Z</time>
      </trkpt>
      <trkpt lat="48.772435" lon="2.172663">
        <ele>136.641351</ele>
        <time>2023-07-04T07:41:48.284Z</time>
      </trkpt>
      <trkpt lat="48.772255" lon="2.172675">
        <ele>135.898589</ele>
        <time>2023-07-04T07:41:50.032Z</time>
      </trkpt>
      <trkpt lat="48.772080" lon="2.172770">
        <ele>135.132372</ele>
        <time>2023-07-04T07:41:51.870Z</time>
      </trkpt>
      <trkpt lat="48.771923" lon="2.172926">
        <ele>134.358711</ele>
        <time>2023-07-04T07:41:53.675Z</time>
      </trkpt>
      <trkpt lat="48.771875" lon="2.173009">
        <ele>134.058695</ele>
        <time>2023-07-04T07:41:54.387Z</time>
      </trkpt>
      <trkpt lat="48.771667" lon="2.173542">
        <ele>132.376636</ele>
        <time>2023-07-04T07:41:58.399Z</time>
      </trkpt>
      <trkpt lat="48.771599" lon="2.173713">
        <ele>131.853772</ele>
        <time>2023-07-04T07:41:59.703Z</time>
      </trkpt>
      <trkpt lat="48.771521" lon="2.173816">
        <ele>131.443018</ele>
        <time>2023-07-04T07:42:00.715Z</time>
      </trkpt>
      <trkpt lat="48.771421" lon="2.173887">
        <ele>131.004443</ele>
        <time>2023-07-04T07:42:01.835Z</time>
      </trkpt>
      <trkpt lat="48.771279" lon="2.173910">
        <ele>130.437162</ele>
        <time>2023-07-04T07:42:03.269Z</time>
      </trkpt>
      <trkpt lat="48.771122" lon="2.173830">
        <ele>129.779271</ele>
        <time>2023-07-04T07:42:04.959Z</time>
      </trkpt>
      <trkpt lat="48.769372" lon="2.172669">
        <ele>120.546303</ele>
        <time>2023-07-04T07:42:23.462Z</time>
      </trkpt>
      <trkpt lat="48.767363" lon="2.171332">
        <ele>105.522992</ele>
        <time>2023-07-04T07:42:42.984Z</time>
      </trkpt>
      <trkpt lat="48.767024" lon="2.170924">
        <ele>102.276969</ele>
        <time>2023-07-04T07:42:46.812Z</time>
      </trkpt>
      <trkpt lat="48.766658" lon="2.170360">
        <ele>99.144268</ele>
        <time>2023-07-04T07:42:51.476Z</time>
      </trkpt>
      <trkpt lat="48.766451" lon="2.170076">
        <ele>97.727089</ele>
        <time>2023-07-04T07:42:54.009Z</time>
      </trkpt>
      <trkpt lat="48.766301" lon="2.169945">
        <ele>96.848222</ele>
        <time>2023-07-04T07:42:55.606Z</time>
      </trkpt>
      <trkpt lat="48.766220" lon="2.169871">
        <ele>96.368097</ele>
        <time>2023-07-04T07:42:56.484Z</time>
      </trkpt>
      <trkpt lat="48.765851" lon="2.169551">
        <ele>94.209844</ele>
        <time>2023-07-04T07:43:00.558Z</time>
      </trkpt>
      <trkpt lat="48.765432" lon="2.169181">
        <ele>91.748037</ele>
        <time>2023-07-04T07:43:05.436Z</time>
      </trkpt>
      <trkpt lat="48.764970" lon="2.168800">
        <ele>91.142667</ele>
        <time>2023-07-04T07:43:11.054Z</time>
      </trkpt>
      <trkpt lat="48.764865" lon="2.168755">
        <ele>91.033963</ele>
        <time>2023-07-04T07:43:12.304Z</time>
      </trkpt>
      <trkpt lat="48.764886" lon="2.168079">
        <ele>90.589541</ele>
        <time>2023-07-04T07:43:17.921Z</time>
      </trkpt>
      <trkpt lat="48.764893" lon="2.167819">
        <ele>90.418656</ele>
        <time>2023-07-04T07:43:20.451Z</time>
      </trkpt>
      <trkpt lat="48.764902" lon="2.167502">
        <ele>90.210289</ele>
        <time>2023-07-04T07:43:23.560Z</time>
      </trkpt>
      <trkpt lat="48.764905" lon="2.167395">
        <ele>90.139958</ele>
        <time>2023-07-04T07:43:24.750Z</time>
      </trkpt>
      <trkpt lat="48.764973" lon="2.166422">
        <ele>89.952185</ele>
        <time>2023-07-04T07:43:35.602Z</time>
      </trkpt>
      <trkpt lat="48.765026" lon="2.165778">
        <ele>90.068454</ele>
        <time>2023-07-04T07:43:42.681Z</time>
      </trkpt>
      <trkpt lat="48.765030" lon="2.165725">
        <ele>90.078011</ele>
        <time>2023-07-04T07:43:43.270Z</time>
      </trkpt>
      <trkpt lat="48.765076" lon="2.165181">
        <ele>90.176269</ele>
        <time>2023-07-04T07:43:48.703Z</time>
      </trkpt>
      <trkpt lat="48.765112" lon="2.164795">
        <ele>90.246110</ele>
        <time>2023-07-04T07:43:52.663Z</time>
      </trkpt>
      <trkpt lat="48.765149" lon="2.164309">
        <ele>90.333756</ele>
        <time>2023-07-04T07:43:57.591Z</time>
      </trkpt>
      <trkpt lat="48.765167" lon="2.164150">
        <ele>90.398056</ele>
        <time>2023-07-04T07:43:59.310Z</time>
      </trkpt>
      <trkpt lat="48.765178" lon="2.164044">
        <ele>90.452926</ele>
        <time>2023-07-04T07:44:00.459Z</time>
      </trkpt>
      <trkpt lat="48.765189" lon="2.163778">
        <ele>90.589210</ele>
        <time>2023-07-04T07:44:03.278Z</time>
      </trkpt>
      <trkpt lat="48.765191" lon="2.163604">
        <ele>90.678196</ele>
        <time>2023-07-04T07:44:05.220Z</time>
      </trkpt>
      <trkpt lat="48.765192" lon="2.163347">
        <ele>90.809613</ele>
        <time>2023-07-04T07:44:08.041Z</time>
      </trkpt>
      <trkpt lat="48.765194" lon="2.163130">
        <ele>90.920585</ele>
        <time>2023-07-04T07:44:10.425Z</time>
      </trkpt>
      <trkpt lat="48.765197" lon="2.162545">
        <ele>91.219728</ele>
        <time>2023-07-04T07:44:17.088Z</time>
      </trkpt>
      <trkpt lat="48.765237" lon="2.162280">
        <ele>91.358741</ele>
        <time>2023-07-04T07:44:20.334Z</time>
      </trkpt>
      <trkpt lat="48.765237" lon="2.162131">
        <ele>91.434930</ele>
        <time>2023-07-04T07:44:22.079Z</time>
      </trkpt>
      <trkpt lat="48.765237" lon="2.162068">
        <ele>91.467145</ele>
        <time>2023-07-04T07:44:22.831Z</time>
      </trkpt>
      <trkpt lat="48.765206" lon="2.161878">
        <ele>91.567231</ele>
        <time>2023-07-04T07:44:25.292Z</time>
      </trkpt>
      <trkpt lat="48.765212" lon="2.161254">
        <ele>92.541819</ele>
        <time>2023-07-04T07:44:33.743Z</time>
      </trkpt>
      <trkpt lat="48.765213" lon="2.161057">
        <ele>93.090357</ele>
        <time>2023-07-04T07:44:36.698Z</time>
      </trkpt>
      <trkpt lat="48.765207" lon="2.160934">
        <ele>93.433772</ele>
        <time>2023-07-04T07:44:38.610Z</time>
      </trkpt>
      <trkpt lat="48.765222" lon="2.160809">
        <ele>93.787540</ele>
        <time>2023-07-04T07:44:40.622Z</time>
      </trkpt>
      <trkpt lat="48.765154" lon="2.160712">
        <ele>94.181819</ele>
        <time>2023-07-04T07:44:43.034Z</time>
      </trkpt>
      <trkpt lat="48.765103" lon="2.160716">
        <ele>94.397542</ele>
        <time>2023-07-04T07:44:44.364Z</time>
      </trkpt>
      <trkpt lat="48.765055" lon="2.160776">
        <ele>94.660264</ele>
        <time>2023-07-04T07:44:45.986Z</time>
      </trkpt>
      <trkpt lat="48.764831" lon="2.160928">
        <ele>95.696826</ele>
        <time>2023-07-04T07:44:53.023Z</time>
      </trkpt>
      <trkpt lat="48.764697" lon="2.161029">
        <ele>96.328882</ele>
        <time>2023-07-04T07:44:57.781Z</time>
      </trkpt>
      <trkpt lat="48.764572" lon="2.161129">
        <ele>96.925826</ele>
        <time>2023-07-04T07:45:02.727Z</time>
      </trkpt>
      <trkpt lat="48.764374" lon="2.161212">
        <ele>97.793562</ele>
        <time>2023-07-04T07:45:10.541Z</time>
      </trkpt>
      <trkpt lat="48.764342" lon="2.161137">
        <ele>98.042325</ele>
        <time>2023-07-04T07:45:12.849Z</time>
      </trkpt>
      <trkpt lat="48.764300" lon="2.161105">
        <ele>98.240860</ele>
        <time>2023-07-04T07:45:14.712Z</time>
      </trkpt>
      <trkpt lat="48.764230" lon="2.161113">
        <ele>98.537393</ele>
        <time>2023-07-04T07:45:17.643Z</time>
      </trkpt>
      <trkpt lat="48.763802" lon="2.160389">
        <ele>102.667835</ele>
        <time>2023-07-04T07:45:47.416Z</time>
      </trkpt>
      <trkpt lat="48.763726" lon="2.160308">
        <ele>103.352618</ele>
        <time>2023-07-04T07:45:52.183Z</time>
      </trkpt>
      <trkpt lat="48.763695" lon="2.160173">
        <ele>104.047369</ele>
        <time>2023-07-04T07:45:56.796Z</time>
      </trkpt>
      <trkpt lat="48.763752" lon="2.158637">
        <ele>111.523932</ele>
        <time>2023-07-04T07:46:44.516Z</time>
      </trkpt>
      <trkpt lat="48.763750" lon="2.158576">
        <ele>111.820750</ele>
        <time>2023-07-04T07:46:46.174Z</time>
      </trkpt>
      <trkpt lat="48.763794" lon="2.158102">
        <ele>113.186949</ele>
        <time>2023-07-04T07:46:58.627Z</time>
      </trkpt>
      <trkpt lat="48.764190" lon="2.156761">
        <ele>115.902935</ele>
        <time>2023-07-04T07:47:25.129Z</time>
      </trkpt>
      <trkpt lat="48.765016" lon="2.155141">
        <ele>119.209488</ele>
        <time>2023-07-04T07:47:45.695Z</time>
      </trkpt>
      <trkpt lat="48.765136" lon="2.154768">
        <ele>119.797153</ele>
        <time>2023-07-04T07:47:51.731Z</time>
      </trkpt>
      <trkpt lat="48.765205" lon="2.154247">
        <ele>120.549561</ele>
        <time>2023-07-04T07:48:00.754Z</time>
      </trkpt>
      <trkpt lat="48.765237" lon="2.153430">
        <ele>122.074915</ele>
        <time>2023-07-04T07:48:18.017Z</time>
      </trkpt>
      <trkpt lat="48.765250" lon="2.152823">
        <ele>124.482684</ele>
        <time>2023-07-04T07:48:33.085Z</time>
      </trkpt>
      <trkpt lat="48.765220" lon="2.150917">
        <ele>132.041327</ele>
        <time>2023-07-04T07:49:25.241Z</time>
      </trkpt>
      <trkpt lat="48.765241" lon="2.150770">
        <ele>132.575973</ele>
        <time>2023-07-04T07:49:29.279Z</time>
      </trkpt>
      <trkpt lat="48.765363" lon="2.150351">
        <ele>134.035927</ele>
        <time>2023-07-04T07:49:41.057Z</time>
      </trkpt>
      <trkpt lat="48.765382" lon="2.150063">
        <ele>134.958441</ele>
        <time>2023-07-04T07:49:48.140Z</time>
      </trkpt>
      <trkpt lat="48.765369" lon="2.149934">
        <ele>135.374374</ele>
        <time>2023-07-04T07:49:51.243Z</time>
      </trkpt>
      <trkpt lat="48.765294" lon="2.149732">
        <ele>136.113314</ele>
        <time>2023-07-04T07:49:56.702Z</time>
      </trkpt>
      <trkpt lat="48.765234" lon="2.149638">
        <ele>136.530369</ele>
        <time>2023-07-04T07:49:59.709Z</time>
      </trkpt>
      <trkpt lat="48.764620" lon="2.149189">
        <ele>139.826236</ele>
        <time>2023-07-04T07:50:21.821Z</time>
      </trkpt>
      <trkpt lat="48.764328" lon="2.148828">
        <ele>141.298357</ele>
        <time>2023-07-04T07:50:32.787Z</time>
      </trkpt>
      <trkpt lat="48.763904" lon="2.148240">
        <ele>142.529523</ele>
        <time>2023-07-04T07:50:47.547Z</time>
      </trkpt>
      <trkpt lat="48.763608" lon="2.147655">
        <ele>143.571369</ele>
        <time>2023-07-04T07:50:58.457Z</time>
      </trkpt>
      <trkpt lat="48.763486" lon="2.147275">
        <ele>144.168492</ele>
        <time>2023-07-04T07:51:03.912Z</time>
      </trkpt>
      <trkpt lat="48.763135" lon="2.146285">
        <ele>145.398273</ele>
        <time>2023-07-04T07:51:17.921Z</time>
      </trkpt>
      <trkpt lat="48.763029" lon="2.146224">
        <ele>145.542481</ele>
        <time>2023-07-04T07:51:20.095Z</time>
      </trkpt>
      <trkpt lat="48.762962" lon="2.146130">
        <ele>145.658563</ele>
        <time>2023-07-04T07:51:21.885Z</time>
      </trkpt>
      <trkpt lat="48.762914" lon="2.145956">
        <ele>145.816719</ele>
        <time>2023-07-04T07:51:24.228Z</time>
      </trkpt>
      <trkpt lat="48.762886" lon="2.145381">
        <ele>146.300156</ele>
        <time>2023-07-04T07:51:31.482Z</time>
      </trkpt>
      <trkpt lat="48.762671" lon="2.143743">
        <ele>147.909237</ele>
        <time>2023-07-04T07:51:54.465Z</time>
      </trkpt>
      <trkpt lat="48.762676" lon="2.143528">
        <ele>148.159656</ele>
        <time>2023-07-04T07:51:57.762Z</time>
      </trkpt>
      <trkpt lat="48.762439" lon="2.143235">
        <ele>148.699534</ele>
        <time>2023-07-04T07:52:04.626Z</time>
      </trkpt>
      <trkpt lat="48.762427" lon="2.143111">
        <ele>148.845419</ele>
        <time>2023-07-04T07:52:06.536Z</time>
      </trkpt>
      <trkpt lat="48.762473" lon="2.142981">
        <ele>149.017165</ele>
        <time>2023-07-04T07:52:08.729Z</time>
      </trkpt>
      <trkpt lat="48.762562" lon="2.142928">
        <ele>149.186001</ele>
        <time>2023-07-04T07:52:10.786Z</time>
      </trkpt>
      <trkpt lat="48.762533" lon="2.142428">
        <ele>149.770258</ele>
        <time>2023-07-04T07:52:18.239Z</time>
      </trkpt>
      <trkpt lat="48.762475" lon="2.141533">
        <ele>150.707005</ele>
        <time>2023-07-04T07:52:31.460Z</time>
      </trkpt>
      <trkpt lat="48.762461" lon="2.141436">
        <ele>150.795969</ele>
        <time>2023-07-04T07:52:32.872Z</time>
      </trkpt>
      <trkpt lat="48.762365" lon="2.140935">
        <ele>151.263410</ele>
        <time>2023-07-04T07:52:40.013Z</time>
      </trkpt>
      <trkpt lat="48.762157" lon="2.139974">
        <ele>152.169626</ele>
        <time>2023-07-04T07:52:53.174Z</time>
      </trkpt>
      <trkpt lat="48.762163" lon="2.139877">
        <ele>152.256914</ele>
        <time>2023-07-04T07:52:54.415Z</time>
      </trkpt>
      <trkpt lat="48.762074" lon="2.139653">
        <ele>152.491240</ele>
        <time>2023-07-04T07:52:57.807Z</time>
      </trkpt>
      <trkpt lat="48.761949" lon="2.139056">
        <ele>152.900769</ele>
        <time>2023-07-04T07:53:05.682Z</time>
      </trkpt>
      <trkpt lat="48.761964" lon="2.138635">
        <ele>153.065247</ele>
        <time>2023-07-04T07:53:10.672Z</time>
      </trkpt>
      <trkpt lat="48.762039" lon="2.138126">
        <ele>153.268715</ele>
        <time>2023-07-04T07:53:16.645Z</time>
      </trkpt>
      <trkpt lat="48.762197" lon="2.136989">
        <ele>153.722022</ele>
        <time>2023-07-04T07:53:29.106Z</time>
      </trkpt>
      <trkpt lat="48.762281" lon="2.136401">
        <ele>153.906709</ele>
        <time>2023-07-04T07:53:35.362Z</time>
      </trkpt>
      <trkpt lat="48.762407" lon="2.135578">
        <ele>154.084338</ele>
        <time>2023-07-04T07:53:44.414Z</time>
      </trkpt>
      <trkpt lat="48.762476" lon="2.135348">
        <ele>154.137464</ele>
        <time>2023-07-04T07:53:47.205Z</time>
      </trkpt>
      <trkpt lat="48.762548" lon="2.135354">
        <ele>154.160462</ele>
        <time>2023-07-04T07:53:48.330Z</time>
      </trkpt>
      <trkpt lat="48.762578" lon="2.135323">
        <ele>154.172039</ele>
        <time>2023-07-04T07:53:48.912Z</time>
      </trkpt>
      <trkpt lat="48.762591" lon="2.135292">
        <ele>154.179763</ele>
        <time>2023-07-04T07:53:49.309Z</time>
      </trkpt>
      <trkpt lat="48.762559" lon="2.135030">
        <ele>154.235782</ele>
        <time>2023-07-04T07:53:52.197Z</time>
      </trkpt>
      <trkpt lat="48.762534" lon="2.134986">
        <ele>154.247995</ele>
        <time>2023-07-04T07:53:52.786Z</time>
      </trkpt>
      <trkpt lat="48.762461" lon="2.134997">
        <ele>154.271392</ele>
        <time>2023-07-04T07:53:53.894Z</time>
      </trkpt>
      <trkpt lat="48.762383" lon="2.134957">
        <ele>154.297651</ele>
        <time>2023-07-04T07:53:55.165Z</time>
      </trkpt>
      <trkpt lat="48.762023" lon="2.134552">
        <ele>154.446440</ele>
        <time>2023-07-04T07:54:02.396Z</time>
      </trkpt>
      <trkpt lat="48.761493" lon="2.133932">
        <ele>154.726611</ele>
        <time>2023-07-04T07:54:13.417Z</time>
      </trkpt>
      <trkpt lat="48.761260" lon="2.133566">
        <ele>154.867018</ele>
        <time>2023-07-04T07:54:18.845Z</time>
      </trkpt>
      <trkpt lat="48.761221" lon="2.133495">
        <ele>154.892521</ele>
        <time>2023-07-04T07:54:19.813Z</time>
      </trkpt>
      <trkpt lat="48.761056" lon="2.133175">
        <ele>155.004630</ele>
        <time>2023-07-04T07:54:24.252Z</time>
      </trkpt>
      <trkpt lat="48.760672" lon="2.132417">
        <ele>155.300829</ele>
        <time>2023-07-04T07:54:35.067Z</time>
      </trkpt>
      <trkpt lat="48.760452" lon="2.131998">
        <ele>155.499804</ele>
        <time>2023-07-04T07:54:41.261Z</time>
      </trkpt>
      <trkpt lat="48.760113" lon="2.131347">
        <ele>155.807967</ele>
        <time>2023-07-04T07:54:50.625Z</time>
      </trkpt>
      <trkpt lat="48.759852" lon="2.130827">
        <ele>156.050741</ele>
        <time>2023-07-04T07:54:57.543Z</time>
      </trkpt>
      <trkpt lat="48.759788" lon="2.130636">
        <ele>156.130329</ele>
        <time>2023-07-04T07:54:59.985Z</time>
      </trkpt>
      <trkpt lat="48.759622" lon="2.130083">
        <ele>156.356992</ele>
        <time>2023-07-04T07:55:06.920Z</time>
      </trkpt>
      <trkpt lat="48.759514" lon="2.129480">
        <ele>156.590419</ele>
        <time>2023-07-04T07:55:14.336Z</time>
      </trkpt>
      <trkpt lat="48.759503" lon="2.129297">
        <ele>156.659066</ele>
        <time>2023-07-04T07:55:16.411Z</time>
      </trkpt>
      <trkpt lat="48.759509" lon="2.128897">
        <ele>156.808532</ele>
        <time>2023-07-04T07:55:21.130Z</time>
      </trkpt>
      <trkpt lat="48.759519" lon="2.128650">
        <ele>156.900977</ele>
        <time>2023-07-04T07:55:23.873Z</time>
      </trkpt>
      <trkpt lat="48.759536" lon="2.128462">
        <ele>156.971865</ele>
        <time>2023-07-04T07:55:26.128Z</time>
      </trkpt>
      <trkpt lat="48.759650" lon="2.127213">
        <ele>157.307532</ele>
        <time>2023-07-04T07:55:39.494Z</time>
      </trkpt>
      <trkpt lat="48.759659" lon="2.127124">
        <ele>157.321817</ele>
        <time>2023-07-04T07:55:40.370Z</time>
      </trkpt>
      <trkpt lat="48.759678" lon="2.126863">
        <ele>157.363479</ele>
        <time>2023-07-04T07:55:43.146Z</time>
      </trkpt>
      <trkpt lat="48.759816" lon="2.125026">
        <ele>157.615491</ele>
        <time>2023-07-04T07:56:02.554Z</time>
      </trkpt>
      <trkpt lat="48.759863" lon="2.124886">
        <ele>157.577354</ele>
        <time>2023-07-04T07:56:04.119Z</time>
      </trkpt>
      <trkpt lat="48.759951" lon="2.124813">
        <ele>157.540422</ele>
        <time>2023-07-04T07:56:05.545Z</time>
      </trkpt>
      <trkpt lat="48.760046" lon="2.124802">
        <ele>157.505339</ele>
        <time>2023-07-04T07:56:06.929Z</time>
      </trkpt>
      <trkpt lat="48.760153" lon="2.124854">
        <ele>157.463966</ele>
        <time>2023-07-04T07:56:08.644Z</time>
      </trkpt>
      <trkpt lat="48.760398" lon="2.125190">
        <ele>157.342348</ele>
        <time>2023-07-04T07:56:13.294Z</time>
      </trkpt>
      <trkpt lat="48.760587" lon="2.125222">
        <ele>157.272322</ele>
        <time>2023-07-04T07:56:15.850Z</time>
      </trkpt>
      <trkpt lat="48.760663" lon="2.125157">
        <ele>157.240195</ele>
        <time>2023-07-04T07:56:17.020Z</time>
      </trkpt>
      <trkpt lat="48.760739" lon="2.125072">
        <ele>157.205426</ele>
        <time>2023-07-04T07:56:18.330Z</time>
      </trkpt>
      <trkpt lat="48.760817" lon="2.124969">
        <ele>157.167347</ele>
        <time>2023-07-04T07:56:19.706Z</time>
      </trkpt>
      <trkpt lat="48.760865" lon="2.124969">
        <ele>157.149673</ele>
        <time>2023-07-04T07:56:20.298Z</time>
      </trkpt>
      <trkpt lat="48.760948" lon="2.124902">
        <ele>157.115052</ele>
        <time>2023-07-04T07:56:21.491Z</time>
      </trkpt>
      <trkpt lat="48.760988" lon="2.124770">
        <ele>157.079788</ele>
        <time>2023-07-04T07:56:22.776Z</time>
      </trkpt>
      <trkpt lat="48.760971" lon="2.124640">
        <ele>157.047618</ele>
        <time>2023-07-04T07:56:23.902Z</time>
      </trkpt>
      <trkpt lat="48.760942" lon="2.124582">
        <ele>157.029947</ele>
        <time>2023-07-04T07:56:24.504Z</time>
      </trkpt>
      <trkpt lat="48.760856" lon="2.124522">
        <ele>156.995091</ele>
        <time>2023-07-04T07:56:25.649Z</time>
      </trkpt>
      <trkpt lat="48.760753" lon="2.124564">
        <ele>156.893246</ele>
        <time>2023-07-04T07:56:27.027Z</time>
      </trkpt>
      <trkpt lat="48.760624" lon="2.124499">
        <ele>156.703134</ele>
        <time>2023-07-04T07:56:28.728Z</time>
      </trkpt>
      <trkpt lat="48.759325" lon="2.123569">
        <ele>154.694182</ele>
        <time>2023-07-04T07:56:45.367Z</time>
      </trkpt>
      <trkpt lat="48.759319" lon="2.123565">
        <ele>154.685016</ele>
        <time>2023-07-04T07:56:45.438Z</time>
      </trkpt>
      <trkpt lat="48.758797" lon="2.123252">
        <ele>153.733520</ele>
        <time>2023-07-04T07:56:51.535Z</time>
      </trkpt>
      <trkpt lat="48.757677" lon="2.122429">
        <ele>151.478002</ele>
        <time>2023-07-04T07:57:05.408Z</time>
      </trkpt>
      <trkpt lat="48.757451" lon="2.122269">
        <ele>151.047899</ele>
        <time>2023-07-04T07:57:08.258Z</time>
      </trkpt>
      <trkpt lat="48.756062" lon="2.121255">
        <ele>148.600491</ele>
        <time>2023-07-04T07:57:25.848Z</time>
      </trkpt>
      <trkpt lat="48.755657" lon="2.120980">
        <ele>147.997374</ele>
        <time>2023-07-04T07:57:30.958Z</time>
      </trkpt>
      <trkpt lat="48.755353" lon="2.120815">
        <ele>147.599968</ele>
        <time>2023-07-04T07:57:34.683Z</time>
      </trkpt>
      <trkpt lat="48.754863" lon="2.120647">
        <ele>146.981645</ele>
        <time>2023-07-04T07:57:40.446Z</time>
      </trkpt>
      <trkpt lat="48.753285" lon="2.120392">
        <ele>146.176457</ele>
        <time>2023-07-04T07:58:00.660Z</time>
      </trkpt>
      <trkpt lat="48.751540" lon="2.120149">
        <ele>146.957098</ele>
        <time>2023-07-04T07:58:32.121Z</time>
      </trkpt>
      <trkpt lat="48.750659" lon="2.120026">
        <ele>147.723274</ele>
        <time>2023-07-04T07:58:48.256Z</time>
      </trkpt>
      <trkpt lat="48.750350" lon="2.119985">
        <ele>148.145096</ele>
        <time>2023-07-04T07:58:54.261Z</time>
      </trkpt>
      <trkpt lat="48.750159" lon="2.119991">
        <ele>148.428754</ele>
        <time>2023-07-04T07:58:58.067Z</time>
      </trkpt>
      <trkpt lat="48.750096" lon="2.119962">
        <ele>148.526509</ele>
        <time>2023-07-04T07:58:59.421Z</time>
      </trkpt>
      <trkpt lat="48.749966" lon="2.119980">
        <ele>148.720336</ele>
        <time>2023-07-04T07:59:02.080Z</time>
      </trkpt>
      <trkpt lat="48.749923" lon="2.120012">
        <ele>148.791454</ele>
        <time>2023-07-04T07:59:03.064Z</time>
      </trkpt>
      <trkpt lat="48.749819" lon="2.120201">
        <ele>149.032455</ele>
        <time>2023-07-04T07:59:06.478Z</time>
      </trkpt>
      <trkpt lat="48.749803" lon="2.120289">
        <ele>149.121822</ele>
        <time>2023-07-04T07:59:07.747Z</time>
      </trkpt>
      <trkpt lat="48.749817" lon="2.120470">
        <ele>149.300236</ele>
        <time>2023-07-04T07:59:10.247Z</time>
      </trkpt>
      <trkpt lat="48.749752" lon="2.120716">
        <ele>149.559689</ele>
        <time>2023-07-04T07:59:13.991Z</time>
      </trkpt>
      <trkpt lat="48.749607" lon="2.120980">
        <ele>149.896069</ele>
        <time>2023-07-04T07:59:18.850Z</time>
      </trkpt>
      <trkpt lat="48.749442" lon="2.121171">
        <ele>150.204267</ele>
        <time>2023-07-04T07:59:23.360Z</time>
      </trkpt>
      <trkpt lat="48.749431" lon="2.121226">
        <ele>150.260535</ele>
        <time>2023-07-04T07:59:24.175Z</time>
      </trkpt>
      <trkpt lat="48.748944" lon="2.121637">
        <ele>151.219025</ele>
        <time>2023-07-04T07:59:36.600Z</time>
      </trkpt>
      <trkpt lat="48.748358" lon="2.121958">
        <ele>152.333477</ele>
        <time>2023-07-04T07:59:51.039Z</time>
      </trkpt>
      <trkpt lat="48.747894" lon="2.122133">
        <ele>153.188711</ele>
        <time>2023-07-04T08:00:01.754Z</time>
      </trkpt>
      <trkpt lat="48.747335" lon="2.122283">
        <ele>153.869990</ele>
        <time>2023-07-04T08:00:13.198Z</time>
      </trkpt>
      <trkpt lat="48.746877" lon="2.122357">
        <ele>154.182932</ele>
        <time>2023-07-04T08:00:21.618Z</time>
      </trkpt>
      <trkpt lat="48.745919" lon="2.122370">
        <ele>154.833855</ele>
        <time>2023-07-04T08:00:37.375Z</time>
      </trkpt>
      <trkpt lat="48.745593" lon="2.122323">
        <ele>154.816169</ele>
        <time>2023-07-04T08:00:42.323Z</time>
      </trkpt>
      <trkpt lat="48.744920" lon="2.122148">
        <ele>154.620614</ele>
        <time>2023-07-04T08:00:51.972Z</time>
      </trkpt>
      <trkpt lat="48.744308" lon="2.121855">
        <ele>154.436814</ele>
        <time>2023-07-04T08:01:00.561Z</time>
      </trkpt>
      <trkpt lat="48.743841" lon="2.121560">
        <ele>154.243540</ele>
        <time>2023-07-04T08:01:07.078Z</time>
      </trkpt>
      <trkpt lat="48.743588" lon="2.121354">
        <ele>154.111765</ele>
        <time>2023-07-04T08:01:10.751Z</time>
      </trkpt>
      <trkpt lat="48.743223" lon="2.120954">
        <ele>153.905112</ele>
        <time>2023-07-04T08:01:16.565Z</time>
      </trkpt>
      <trkpt lat="48.742977" lon="2.120578">
        <ele>153.744833</ele>
        <time>2023-07-04T08:01:21.168Z</time>
      </trkpt>
      <trkpt lat="48.742798" lon="2.120148">
        <ele>153.590955</ele>
        <time>2023-07-04T08:01:25.817Z</time>
      </trkpt>
      <trkpt lat="48.742795" lon="2.120137">
        <ele>153.587352</ele>
        <time>2023-07-04T08:01:25.925Z</time>
      </trkpt>
      <trkpt lat="48.742671" lon="2.119727">
        <ele>153.664338</ele>
        <time>2023-07-04T08:01:30.362Z</time>
      </trkpt>
      <trkpt lat="48.742703" lon="2.119505">
        <ele>153.748428</ele>
        <time>2023-07-04T08:01:32.532Z</time>
      </trkpt>
      <trkpt lat="48.742653" lon="2.119290">
        <ele>153.832791</ele>
        <time>2023-07-04T08:01:35.035Z</time>
      </trkpt>
      <trkpt lat="48.742734" lon="2.119001">
        <ele>153.948994</ele>
        <time>2023-07-04T08:01:39.406Z</time>
      </trkpt>
      <trkpt lat="48.742861" lon="2.118716">
        <ele>154.076279</ele>
        <time>2023-07-04T08:01:44.624Z</time>
      </trkpt>
      <trkpt lat="48.742949" lon="2.118576">
        <ele>154.147851</ele>
        <time>2023-07-04T08:01:47.448Z</time>
      </trkpt>
      <trkpt lat="48.743186" lon="2.118212">
        <ele>154.337141</ele>
        <time>2023-07-04T08:01:55.535Z</time>
      </trkpt>
      <trkpt lat="48.743246" lon="2.118159">
        <ele>154.376106</ele>
        <time>2023-07-04T08:01:57.296Z</time>
      </trkpt>
      <trkpt lat="48.743336" lon="2.118109">
        <ele>154.429892</ele>
        <time>2023-07-04T08:01:59.731Z</time>
      </trkpt>
      <trkpt lat="48.743359" lon="2.118065">
        <ele>154.450669</ele>
        <time>2023-07-04T08:02:00.676Z</time>
      </trkpt>
      <trkpt lat="48.743428" lon="2.118045">
        <ele>154.490090</ele>
        <time>2023-07-04T08:02:02.404Z</time>
      </trkpt>
      <trkpt lat="48.743482" lon="2.118147">
        <ele>154.538493</ele>
        <time>2023-07-04T08:02:04.437Z</time>
      </trkpt>
      <trkpt lat="48.743502" lon="2.118116">
        <ele>154.554541</ele>
        <time>2023-07-04T08:02:04.998Z</time>
      </trkpt>
      <trkpt lat="48.743493" lon="2.117918">
        <ele>154.667963</ele>
        <time>2023-07-04T08:02:07.723Z</time>
      </trkpt>
      <trkpt lat="48.744194" lon="2.116760">
        <ele>155.573672</ele>
        <time>2023-07-04T08:02:27.196Z</time>
      </trkpt>
      <trkpt lat="48.744145" lon="2.116663">
        <ele>155.644074</ele>
        <time>2023-07-04T08:02:29.060Z</time>
      </trkpt>
      <trkpt lat="48.744725" lon="2.115726">
        <ele>156.275750</ele>
        <time>2023-07-04T08:02:48.250Z</time>
      </trkpt>
      <trkpt lat="48.744726" lon="2.115725">
        <ele>156.276354</ele>
        <time>2023-07-04T08:02:48.274Z</time>
      </trkpt>
      <trkpt lat="48.744906" lon="2.115587">
        <ele>156.377924</ele>
        <time>2023-07-04T08:02:52.868Z</time>
      </trkpt>
      <trkpt lat="48.744960" lon="2.115684">
        <ele>156.420079</ele>
        <time>2023-07-04T08:02:54.721Z</time>
      </trkpt>
      <trkpt lat="48.744988" lon="2.115637">
        <ele>156.441112</ele>
        <time>2023-07-04T08:02:55.271Z</time>
      </trkpt>
      <trkpt lat="48.745000" lon="2.115468">
        <ele>156.497557</ele>
        <time>2023-07-04T08:02:57.219Z</time>
      </trkpt>
      <trkpt lat="48.745066" lon="2.115331">
        <ele>156.553898</ele>
        <time>2023-07-04T08:02:59.126Z</time>
      </trkpt>
      <trkpt lat="48.745360" lon="2.114854">
        <ele>156.770715</ele>
        <time>2023-07-04T08:03:06.136Z</time>
      </trkpt>
      <trkpt lat="48.745624" lon="2.114403">
        <ele>156.970973</ele>
        <time>2023-07-04T08:03:12.739Z</time>
      </trkpt>
      <trkpt lat="48.745624" lon="2.114403">
        <ele>156.970973</ele>
        <time>2023-07-04T08:03:12.752Z</time>
      </trkpt>
      <trkpt lat="48.745580" lon="2.114340">
        <ele>157.001446</ele>
        <time>2023-07-04T08:03:13.873Z</time>
      </trkpt>
      <trkpt lat="48.745850" lon="2.113960">
        <ele>157.239314</ele>
        <time>2023-07-04T08:03:20.700Z</time>
      </trkpt>
      <trkpt lat="48.745905" lon="2.113045">
        <ele>157.648563</ele>
        <time>2023-07-04T08:03:31.928Z</time>
      </trkpt>
      <trkpt lat="48.745960" lon="2.112130">
        <ele>158.057811</ele>
        <time>2023-07-04T08:03:43.157Z</time>
      </trkpt>
      <trkpt lat="48.746020" lon="2.111810">
        <ele>158.205995</ele>
        <time>2023-07-04T08:03:47.222Z</time>
      </trkpt>
      <trkpt lat="48.746004" lon="2.111914">
        <ele>158.251608</ele>
        <time>2023-07-04T08:03:48.524Z</time>
      </trkpt>
      <trkpt lat="48.746026" lon="2.111818">
        <ele>158.279388</ele>
        <time>2023-07-04T08:03:49.608Z</time>
      </trkpt>
      <trkpt lat="48.746016" lon="2.111782">
        <ele>158.290065</ele>
        <time>2023-07-04T08:03:50.045Z</time>
      </trkpt>
      <trkpt lat="48.746069" lon="2.111648">
        <ele>158.332776</ele>
        <time>2023-07-04T08:03:51.710Z</time>
      </trkpt>
      <trkpt lat="48.746065" lon="2.111569">
        <ele>158.354433</ele>
        <time>2023-07-04T08:03:52.575Z</time>
      </trkpt>
      <trkpt lat="48.746097" lon="2.111037">
        <ele>158.500451</ele>
        <time>2023-07-04T08:03:58.537Z</time>
      </trkpt>
      <trkpt lat="48.746070" lon="2.108658">
        <ele>159.127501</ele>
        <time>2023-07-04T08:04:23.832Z</time>
      </trkpt>
      <trkpt lat="48.746044" lon="2.108082">
        <ele>159.261840</ele>
        <time>2023-07-04T08:04:30.059Z</time>
      </trkpt>
      <trkpt lat="48.745936" lon="2.107663">
        <ele>159.366518</ele>
        <time>2023-07-04T08:04:34.930Z</time>
      </trkpt>
      <trkpt lat="48.745723" lon="2.107287">
        <ele>159.481860</ele>
        <time>2023-07-04T08:04:40.251Z</time>
      </trkpt>
      <trkpt lat="48.745072" lon="2.106413">
        <ele>159.683481</ele>
        <time>2023-07-04T08:04:54.343Z</time>
      </trkpt>
      <trkpt lat="48.742879" lon="2.103468">
        <ele>159.808869</ele>
        <time>2023-07-04T08:05:38.270Z</time>
      </trkpt>
      <trkpt lat="48.741755" lon="2.101950">
        <ele>159.341462</ele>
        <time>2023-07-04T08:05:59.149Z</time>
      </trkpt>
      <trkpt lat="48.741510" lon="2.101529">
        <ele>159.208769</ele>
        <time>2023-07-04T08:06:03.984Z</time>
      </trkpt>
      <trkpt lat="48.741219" lon="2.100791">
        <ele>158.826516</ele>
        <time>2023-07-04T08:06:11.254Z</time>
      </trkpt>
      <trkpt lat="48.740877" lon="2.099546">
        <ele>158.136516</ele>
        <time>2023-07-04T08:06:22.418Z</time>
      </trkpt>
      <trkpt lat="48.740747" lon="2.098858">
        <ele>157.770366</ele>
        <time>2023-07-04T08:06:28.244Z</time>
      </trkpt>
      <trkpt lat="48.740681" lon="2.098333">
        <ele>157.688609</ele>
        <time>2023-07-04T08:06:32.653Z</time>
      </trkpt>
      <trkpt lat="48.740677" lon="2.098158">
        <ele>157.663344</ele>
        <time>2023-07-04T08:06:34.140Z</time>
      </trkpt>
      <trkpt lat="48.740678" lon="2.098154">
        <ele>157.662727</ele>
        <time>2023-07-04T08:06:34.178Z</time>
      </trkpt>
      <trkpt lat="48.740759" lon="2.097793">
        <ele>157.607707</ele>
        <time>2023-07-04T08:06:37.503Z</time>
      </trkpt>
      <trkpt lat="48.740756" lon="2.097756">
        <ele>157.602329</ele>
        <time>2023-07-04T08:06:37.850Z</time>
      </trkpt>
      <trkpt lat="48.740820" lon="2.097768">
        <ele>157.588219</ele>
        <time>2023-07-04T08:06:38.728Z</time>
      </trkpt>
      <trkpt lat="48.741394" lon="2.097959">
        <ele>157.459645</ele>
        <time>2023-07-04T08:06:47.310Z</time>
      </trkpt>
      <trkpt lat="48.741731" lon="2.098035">
        <ele>157.385101</ele>
        <time>2023-07-04T08:06:52.709Z</time>
      </trkpt>
      <trkpt lat="48.742019" lon="2.098052">
        <ele>157.485394</ele>
        <time>2023-07-04T08:06:57.472Z</time>
      </trkpt>
      <trkpt lat="48.742455" lon="2.097901">
        <ele>157.718265</ele>
        <time>2023-07-04T08:07:05.151Z</time>
      </trkpt>
      <trkpt lat="48.742728" lon="2.097869">
        <ele>157.860840</ele>
        <time>2023-07-04T08:07:09.964Z</time>
      </trkpt>
      <trkpt lat="48.745252" lon="2.098221">
        <ele>159.294804</ele>
        <time>2023-07-04T08:07:53.302Z</time>
      </trkpt>
      <trkpt lat="48.745619" lon="2.098354">
        <ele>159.510098</ele>
        <time>2023-07-04T08:07:59.789Z</time>
      </trkpt>
      <trkpt lat="48.745903" lon="2.098540">
        <ele>159.683960</ele>
        <time>2023-07-04T08:08:05.142Z</time>
      </trkpt>
      <trkpt lat="48.746184" lon="2.098794">
        <ele>159.867813</ele>
        <time>2023-07-04T08:08:10.822Z</time>
      </trkpt>
      <trkpt lat="48.746255" lon="2.098826">
        <ele>159.909441</ele>
        <time>2023-07-04T08:08:12.138Z</time>
      </trkpt>
      <trkpt lat="48.746364" lon="2.098673">
        <ele>159.992915</ele>
        <time>2023-07-04T08:08:14.730Z</time>
      </trkpt>
      <trkpt lat="48.747282" lon="2.096946">
        <ele>160.546213</ele>
        <time>2023-07-04T08:08:39.309Z</time>
      </trkpt>
      <trkpt lat="48.747996" lon="2.095768">
        <ele>160.762912</ele>
        <time>2023-07-04T08:08:55.051Z</time>
      </trkpt>
      <trkpt lat="48.748314" lon="2.095063">
        <ele>160.689079</ele>
        <time>2023-07-04T08:09:03.079Z</time>
      </trkpt>
      <trkpt lat="48.748374" lon="2.094775">
        <ele>160.662972</ele>
        <time>2023-07-04T08:09:05.873Z</time>
      </trkpt>
      <trkpt lat="48.748382" lon="2.094641">
        <ele>160.651342</ele>
        <time>2023-07-04T08:09:07.145Z</time>
      </trkpt>
      <trkpt lat="48.748343" lon="2.094242">
        <ele>160.616476</ele>
        <time>2023-07-04T08:09:10.924Z</time>
      </trkpt>
      <trkpt lat="48.748006" lon="2.092685">
        <ele>160.499967</ele>
        <time>2023-07-04T08:09:26.383Z</time>
      </trkpt>
      <trkpt lat="48.748024" lon="2.092316">
        <ele>160.482080</ele>
        <time>2023-07-04T08:09:29.914Z</time>
      </trkpt>
      <trkpt lat="48.748136" lon="2.091955">
        <ele>160.462794</ele>
        <time>2023-07-04T08:09:33.752Z</time>
      </trkpt>
      <trkpt lat="48.748275" lon="2.091744">
        <ele>160.448376</ele>
        <time>2023-07-04T08:09:36.628Z</time>
      </trkpt>
      <trkpt lat="48.748466" lon="2.091601">
        <ele>160.432759</ele>
        <time>2023-07-04T08:09:39.733Z</time>
      </trkpt>
      <trkpt lat="48.751125" lon="2.090231">
        <ele>160.516243</ele>
        <time>2023-07-04T08:10:21.493Z</time>
      </trkpt>
      <trkpt lat="48.751612" lon="2.089992">
        <ele>160.610777</ele>
        <time>2023-07-04T08:10:29.779Z</time>
      </trkpt>
      <trkpt lat="48.751802" lon="2.089934">
        <ele>160.646571</ele>
        <time>2023-07-04T08:10:32.895Z</time>
      </trkpt>
      <trkpt lat="48.752018" lon="2.089974">
        <ele>160.686759</ele>
        <time>2023-07-04T08:10:36.394Z</time>
      </trkpt>
      <trkpt lat="48.752171" lon="2.090039">
        <ele>160.716104</ele>
        <time>2023-07-04T08:10:38.871Z</time>
      </trkpt>
      <trkpt lat="48.752188" lon="2.090048">
        <ele>160.719430</ele>
        <time>2023-07-04T08:10:39.148Z</time>
      </trkpt>
      <trkpt lat="48.752801" lon="2.090627">
        <ele>160.540705</ele>
        <time>2023-07-04T08:10:50.123Z</time>
      </trkpt>
      <trkpt lat="48.753100" lon="2.090911">
        <ele>160.418116</ele>
        <time>2023-07-04T08:10:55.219Z</time>
      </trkpt>
      <trkpt lat="48.753811" lon="2.091624">
        <ele>160.121940</ele>
        <time>2023-07-04T08:11:06.226Z</time>
      </trkpt>
      <trkpt lat="48.754040" lon="2.091782">
        <ele>159.902161</ele>
        <time>2023-07-04T08:11:09.279Z</time>
      </trkpt>
      <trkpt lat="48.754147" lon="2.091803">
        <ele>159.806271</ele>
        <time>2023-07-04T08:11:10.559Z</time>
      </trkpt>
      <trkpt lat="48.754255" lon="2.091752">
        <ele>159.705741</ele>
        <time>2023-07-04T08:11:11.928Z</time>
      </trkpt>
      <trkpt lat="48.754338" lon="2.091645">
        <ele>159.608929</ele>
        <time>2023-07-04T08:11:13.223Z</time>
      </trkpt>
      <trkpt lat="48.754480" lon="2.091260">
        <ele>159.350437</ele>
        <time>2023-07-04T08:11:16.662Z</time>
      </trkpt>
      <trkpt lat="48.754677" lon="2.091073">
        <ele>159.143892</ele>
        <time>2023-07-04T08:11:19.485Z</time>
      </trkpt>
      <trkpt lat="48.754818" lon="2.091006">
        <ele>159.012572</ele>
        <time>2023-07-04T08:11:21.305Z</time>
      </trkpt>
      <trkpt lat="48.755325" lon="2.090898">
        <ele>158.557550</ele>
        <time>2023-07-04T08:11:27.892Z</time>
      </trkpt>
      <trkpt lat="48.755524" lon="2.090727">
        <ele>158.507972</ele>
        <time>2023-07-04T08:11:30.901Z</time>
      </trkpt>
      <trkpt lat="48.755771" lon="2.090471">
        <ele>158.487293</ele>
        <time>2023-07-04T08:11:34.859Z</time>
      </trkpt>
      <trkpt lat="48.755578" lon="2.089870">
        <ele>158.456828</ele>
        <time>2023-07-04T08:11:40.854Z</time>
      </trkpt>
      <trkpt lat="48.755535" lon="2.089618">
        <ele>158.444966</ele>
        <time>2023-07-04T08:11:43.371Z</time>
      </trkpt>
      <trkpt lat="48.754670" lon="2.082467">
        <ele>160.093774</ele>
        <time>2023-07-04T08:13:02.511Z</time>
      </trkpt>
      <trkpt lat="48.754663" lon="2.082018">
        <ele>160.214719</ele>
        <time>2023-07-04T08:13:07.497Z</time>
      </trkpt>
      <trkpt lat="48.754705" lon="2.081680">
        <ele>160.307342</ele>
        <time>2023-07-04T08:13:11.382Z</time>
      </trkpt>
      <trkpt lat="48.754878" lon="2.081202">
        <ele>160.454184</ele>
        <time>2023-07-04T08:13:17.580Z</time>
      </trkpt>
      <trkpt lat="48.755144" lon="2.080875">
        <ele>160.594037</ele>
        <time>2023-07-04T08:13:23.090Z</time>
      </trkpt>
      <trkpt lat="48.755481" lon="2.080687">
        <ele>160.539730</ele>
        <time>2023-07-04T08:13:28.488Z</time>
      </trkpt>
      <trkpt lat="48.755836" lon="2.080554">
        <ele>160.427992</ele>
        <time>2023-07-04T08:13:33.752Z</time>
      </trkpt>
      <trkpt lat="48.755990" lon="2.080440">
        <ele>160.375628</ele>
        <time>2023-07-04T08:13:36.242Z</time>
      </trkpt>
      <trkpt lat="48.756197" lon="2.080139">
        <ele>160.288005</ele>
        <time>2023-07-04T08:13:40.047Z</time>
      </trkpt>
      <trkpt lat="48.756368" lon="2.079729">
        <ele>160.190268</ele>
        <time>2023-07-04T08:13:44.189Z</time>
      </trkpt>
      <trkpt lat="48.756774" lon="2.079279">
        <ele>160.038465</ele>
        <time>2023-07-04T08:13:50.786Z</time>
      </trkpt>
      <trkpt lat="48.756842" lon="2.079203">
        <ele>160.013864</ele>
        <time>2023-07-04T08:13:51.806Z</time>
      </trkpt>
      <trkpt lat="48.756881" lon="2.079244">
        <ele>160.000043</ele>
        <time>2023-07-04T08:13:52.459Z</time>
      </trkpt>
      <trkpt lat="48.756963" lon="2.079258">
        <ele>159.976009</ele>
        <time>2023-07-04T08:13:53.593Z</time>
      </trkpt>
      <trkpt lat="48.757014" lon="2.079228">
        <ele>159.960077</ele>
        <time>2023-07-04T08:13:54.371Z</time>
      </trkpt>
      <trkpt lat="48.757070" lon="2.079105">
        <ele>159.931374</ele>
        <time>2023-07-04T08:13:55.596Z</time>
      </trkpt>
      <trkpt lat="48.757060" lon="2.078964">
        <ele>159.904144</ele>
        <time>2023-07-04T08:13:56.742Z</time>
      </trkpt>
      <trkpt lat="48.756964" lon="2.078852">
        <ele>159.868869</ele>
        <time>2023-07-04T08:13:58.348Z</time>
      </trkpt>
      <trkpt lat="48.756871" lon="2.078874">
        <ele>159.841455</ele>
        <time>2023-07-04T08:13:59.573Z</time>
      </trkpt>
      <trkpt lat="48.756831" lon="2.078787">
        <ele>159.821088</ele>
        <time>2023-07-04T08:14:00.404Z</time>
      </trkpt>
      <trkpt lat="48.756062" lon="2.077141">
        <ele>159.797846</ele>
        <time>2023-07-04T08:14:19.939Z</time>
      </trkpt>
      <trkpt lat="48.755317" lon="2.075544">
        <ele>160.576193</ele>
        <time>2023-07-04T08:14:43.160Z</time>
      </trkpt>
      <trkpt lat="48.755272" lon="2.075447">
        <ele>160.623382</ele>
        <time>2023-07-04T08:14:44.618Z</time>
      </trkpt>
      <trkpt lat="48.755315" lon="2.075251">
        <ele>160.745308</ele>
        <time>2023-07-04T08:14:47.120Z</time>
      </trkpt>
      <trkpt lat="48.755275" lon="2.075054">
        <ele>160.875330</ele>
        <time>2023-07-04T08:14:49.764Z</time>
      </trkpt>
      <trkpt lat="48.755227" lon="2.074980">
        <ele>160.940811</ele>
        <time>2023-07-04T08:14:51.095Z</time>
      </trkpt>
      <trkpt lat="48.755251" lon="2.074871">
        <ele>161.013298</ele>
        <time>2023-07-04T08:14:52.465Z</time>
      </trkpt>
      <trkpt lat="48.755952" lon="2.071761">
        <ele>162.910933</ele>
        <time>2023-07-04T08:15:33.062Z</time>
      </trkpt>
      <trkpt lat="48.756015" lon="2.071781">
        <ele>162.957664</ele>
        <time>2023-07-04T08:15:34.164Z</time>
      </trkpt>
      <trkpt lat="48.756296" lon="2.071676">
        <ele>163.167781</ele>
        <time>2023-07-04T08:15:39.205Z</time>
      </trkpt>
      <trkpt lat="48.756330" lon="2.071594">
        <ele>163.214147</ele>
        <time>2023-07-04T08:15:40.250Z</time>
      </trkpt>
      <trkpt lat="48.758488" lon="2.073211">
        <ele>164.633234</ele>
        <time>2023-07-04T08:16:21.229Z</time>
      </trkpt>
      <trkpt lat="48.758823" lon="2.073397">
        <ele>164.735118</ele>
        <time>2023-07-04T08:16:27.139Z</time>
      </trkpt>
      <trkpt lat="48.759156" lon="2.073521">
        <ele>164.830006</ele>
        <time>2023-07-04T08:16:32.676Z</time>
      </trkpt>
      <trkpt lat="48.759655" lon="2.073565">
        <ele>164.968329</ele>
        <time>2023-07-04T08:16:40.660Z</time>
      </trkpt>
      <trkpt lat="48.759976" lon="2.073526">
        <ele>165.057446</ele>
        <time>2023-07-04T08:16:45.632Z</time>
      </trkpt>
      <trkpt lat="48.760356" lon="2.073399">
        <ele>165.115546</ele>
        <time>2023-07-04T08:16:51.660Z</time>
      </trkpt>
      <trkpt lat="48.760864" lon="2.073142">
        <ele>164.998358</ele>
        <time>2023-07-04T08:16:59.482Z</time>
      </trkpt>
      <trkpt lat="48.761506" lon="2.072818">
        <ele>164.850295</ele>
        <time>2023-07-04T08:17:08.671Z</time>
      </trkpt>
      <trkpt lat="48.761635" lon="2.072801">
        <ele>164.821959</ele>
        <time>2023-07-04T08:17:10.425Z</time>
      </trkpt>
      <trkpt lat="48.761763" lon="2.072909">
        <ele>164.789907</ele>
        <time>2023-07-04T08:17:12.528Z</time>
      </trkpt>
      <trkpt lat="48.761937" lon="2.072930">
        <ele>164.751710</ele>
        <time>2023-07-04T08:17:14.907Z</time>
      </trkpt>
      <trkpt lat="48.762003" lon="2.073014">
        <ele>164.709698</ele>
        <time>2023-07-04T08:17:16.146Z</time>
      </trkpt>
      <trkpt lat="48.762231" lon="2.073404">
        <ele>164.475844</ele>
        <time>2023-07-04T08:17:20.817Z</time>
      </trkpt>
      <trkpt lat="48.762665" lon="2.074012">
        <ele>164.073805</ele>
        <time>2023-07-04T08:17:28.583Z</time>
      </trkpt>
      <trkpt lat="48.763356" lon="2.075425">
        <ele>163.169937</ele>
        <time>2023-07-04T08:17:42.904Z</time>
      </trkpt>
      <trkpt lat="48.765235" lon="2.078976">
        <ele>160.268598</ele>
        <time>2023-07-04T08:18:19.341Z</time>
      </trkpt>
      <trkpt lat="48.765716" lon="2.079885">
        <ele>159.935456</ele>
        <time>2023-07-04T08:18:29.479Z</time>
      </trkpt>
      <trkpt lat="48.765754" lon="2.080047">
        <ele>159.913132</ele>
        <time>2023-07-04T08:18:31.082Z</time>
      </trkpt>
      <trkpt lat="48.765793" lon="2.080110">
        <ele>159.901912</ele>
        <time>2023-07-04T08:18:31.852Z</time>
      </trkpt>
      <trkpt lat="48.765756" lon="2.080232">
        <ele>159.884477</ele>
        <time>2023-07-04T08:18:33.061Z</time>
      </trkpt>
      <trkpt lat="48.765746" lon="2.080366">
        <ele>159.866969</ele>
        <time>2023-07-04T08:18:34.348Z</time>
      </trkpt>
      <trkpt lat="48.765766" lon="2.080498">
        <ele>159.849385</ele>
        <time>2023-07-04T08:18:35.659Z</time>
      </trkpt>
      <trkpt lat="48.765811" lon="2.080614">
        <ele>159.831911</ele>
        <time>2023-07-04T08:18:36.911Z</time>
      </trkpt>
      <trkpt lat="48.765870" lon="2.080693">
        <ele>159.816412</ele>
        <time>2023-07-04T08:18:38.018Z</time>
      </trkpt>
      <trkpt lat="48.766020" lon="2.080761">
        <ele>159.785577</ele>
        <time>2023-07-04T08:18:40.372Z</time>
      </trkpt>
      <trkpt lat="48.766098" lon="2.080744">
        <ele>159.770056</ele>
        <time>2023-07-04T08:18:41.574Z</time>
      </trkpt>
      <trkpt lat="48.766229" lon="2.080616">
        <ele>159.739366</ele>
        <time>2023-07-04T08:18:43.851Z</time>
      </trkpt>
      <trkpt lat="48.766409" lon="2.080612">
        <ele>159.703909</ele>
        <time>2023-07-04T08:18:46.728Z</time>
      </trkpt>
      <trkpt lat="48.769967" lon="2.082167">
        <ele>160.592926</ele>
        <time>2023-07-04T08:19:45.964Z</time>
      </trkpt>
      <trkpt lat="48.770303" lon="2.082314">
        <ele>160.623528</ele>
        <time>2023-07-04T08:19:50.965Z</time>
      </trkpt>
      <trkpt lat="48.770455" lon="2.082402">
        <ele>160.637766</ele>
        <time>2023-07-04T08:19:53.361Z</time>
      </trkpt>
      <trkpt lat="48.770528" lon="2.082471">
        <ele>160.645292</ele>
        <time>2023-07-04T08:19:54.588Z</time>
      </trkpt>
      <trkpt lat="48.770663" lon="2.082598">
        <ele>160.659193</ele>
        <time>2023-07-04T08:19:56.784Z</time>
      </trkpt>
      <trkpt lat="48.770761" lon="2.082811">
        <ele>160.674176</ele>
        <time>2023-07-04T08:19:59.314Z</time>
      </trkpt>
      <trkpt lat="48.770896" lon="2.082898">
        <ele>160.687011</ele>
        <time>2023-07-04T08:20:01.325Z</time>
      </trkpt>
      <trkpt lat="48.770969" lon="2.082900">
        <ele>160.693401</ele>
        <time>2023-07-04T08:20:02.414Z</time>
      </trkpt>
      <trkpt lat="48.771064" lon="2.082860">
        <ele>160.702029</ele>
        <time>2023-07-04T08:20:03.964Z</time>
      </trkpt>
      <trkpt lat="48.771144" lon="2.082774">
        <ele>160.710609</ele>
        <time>2023-07-04T08:20:05.405Z</time>
      </trkpt>
      <trkpt lat="48.771317" lon="2.082755">
        <ele>160.725788</ele>
        <time>2023-07-04T08:20:08.019Z</time>
      </trkpt>
      <trkpt lat="48.772276" lon="2.083169">
        <ele>161.293208</ele>
        <time>2023-07-04T08:20:24.670Z</time>
      </trkpt>
      <trkpt lat="48.772529" lon="2.083360">
        <ele>161.507124</ele>
        <time>2023-07-04T08:20:29.835Z</time>
      </trkpt>
      <trkpt lat="48.772740" lon="2.083572">
        <ele>161.698694</ele>
        <time>2023-07-04T08:20:34.674Z</time>
      </trkpt>
      <trkpt lat="48.772957" lon="2.083867">
        <ele>161.919249</ele>
        <time>2023-07-04T08:20:40.358Z</time>
      </trkpt>
      <trkpt lat="48.773134" lon="2.084154">
        <ele>162.113016</ele>
        <time>2023-07-04T08:20:45.311Z</time>
      </trkpt>
      <trkpt lat="48.773274" lon="2.084461">
        <ele>162.175273</ele>
        <time>2023-07-04T08:20:49.977Z</time>
      </trkpt>
      <trkpt lat="48.773435" lon="2.084956">
        <ele>162.267326</ele>
        <time>2023-07-04T08:20:56.683Z</time>
      </trkpt>
      <trkpt lat="48.773577" lon="2.085536">
        <ele>162.370506</ele>
        <time>2023-07-04T08:21:03.738Z</time>
      </trkpt>
      <trkpt lat="48.774411" lon="2.089470">
        <ele>161.356190</ele>
        <time>2023-07-04T08:21:39.514Z</time>
      </trkpt>
      <trkpt lat="48.774411" lon="2.089474">
        <ele>161.353956</ele>
        <time>2023-07-04T08:21:39.547Z</time>
      </trkpt>
      <trkpt lat="48.774633" lon="2.090284">
        <ele>160.864085</ele>
        <time>2023-07-04T08:21:46.409Z</time>
      </trkpt>
      <trkpt lat="48.774693" lon="2.090424">
        <ele>160.770830</ele>
        <time>2023-07-04T08:21:47.713Z</time>
      </trkpt>
      <trkpt lat="48.774665" lon="2.090568">
        <ele>160.686991</ele>
        <time>2023-07-04T08:21:48.955Z</time>
      </trkpt>
      <trkpt lat="48.774380" lon="2.092043">
        <ele>159.967164</ele>
        <time>2023-07-04T08:22:01.562Z</time>
      </trkpt>
      <trkpt lat="48.774300" lon="2.092452">
        <ele>159.984278</ele>
        <time>2023-07-04T08:22:05.440Z</time>
      </trkpt>
      <trkpt lat="48.774207" lon="2.092894">
        <ele>160.002890</ele>
        <time>2023-07-04T08:22:10.147Z</time>
      </trkpt>
      <trkpt lat="48.773936" lon="2.094023">
        <ele>160.051090</ele>
        <time>2023-07-04T08:22:22.649Z</time>
      </trkpt>
      <trkpt lat="48.773723" lon="2.094994">
        <ele>160.236594</ele>
        <time>2023-07-04T08:22:34.640Z</time>
      </trkpt>
      <trkpt lat="48.773518" lon="2.095736">
        <ele>160.457014</ele>
        <time>2023-07-04T08:22:43.836Z</time>
      </trkpt>
      <trkpt lat="48.771483" lon="2.101795">
        <ele>161.326864</ele>
        <time>2023-07-04T08:23:52.884Z</time>
      </trkpt>
      <trkpt lat="48.771158" lon="2.102764">
        <ele>161.356465</ele>
        <time>2023-07-04T08:24:04.168Z</time>
      </trkpt>
      <trkpt lat="48.771059" lon="2.103153">
        <ele>161.367818</ele>
        <time>2023-07-04T08:24:08.336Z</time>
      </trkpt>
      <trkpt lat="48.771002" lon="2.103565">
        <ele>161.379280</ele>
        <time>2023-07-04T08:24:12.389Z</time>
      </trkpt>
      <trkpt lat="48.770920" lon="2.104598">
        <ele>161.306871</ele>
        <time>2023-07-04T08:24:22.195Z</time>
      </trkpt>
      <trkpt lat="48.770845" lon="2.105147">
        <ele>161.114400</ele>
        <time>2023-07-04T08:24:27.416Z</time>
      </trkpt>
      <trkpt lat="48.770753" lon="2.105593">
        <ele>160.953969</ele>
        <time>2023-07-04T08:24:31.633Z</time>
      </trkpt>
      <trkpt lat="48.770820" lon="2.105646">
        <ele>160.914613</ele>
        <time>2023-07-04T08:24:32.613Z</time>
      </trkpt>
      <trkpt lat="48.770781" lon="2.106249">
        <ele>160.706615</ele>
        <time>2023-07-04T08:24:37.790Z</time>
      </trkpt>
      <trkpt lat="48.770722" lon="2.107027">
        <ele>160.414490</ele>
        <time>2023-07-04T08:24:44.303Z</time>
      </trkpt>
      <trkpt lat="48.770706" lon="2.108891">
        <ele>159.191995</ele>
        <time>2023-07-04T08:24:59.061Z</time>
      </trkpt>
      <trkpt lat="48.770677" lon="2.110292">
        <ele>158.390432</ele>
        <time>2023-07-04T08:25:10.530Z</time>
      </trkpt>
      <trkpt lat="48.770650" lon="2.110754">
        <ele>158.175533</ele>
        <time>2023-07-04T08:25:14.463Z</time>
      </trkpt>
      <trkpt lat="48.770602" lon="2.111386">
        <ele>157.880769</ele>
        <time>2023-07-04T08:25:19.835Z</time>
      </trkpt>
      <trkpt lat="48.770493" lon="2.112554">
        <ele>157.381983</ele>
        <time>2023-07-04T08:25:29.866Z</time>
      </trkpt>
      <trkpt lat="48.770416" lon="2.113065">
        <ele>157.293813</ele>
        <time>2023-07-04T08:25:34.378Z</time>
      </trkpt>
      <trkpt lat="48.770377" lon="2.113268">
        <ele>157.258247</ele>
        <time>2023-07-04T08:25:36.283Z</time>
      </trkpt>
      <trkpt lat="48.769969" lon="2.115250">
        <ele>156.996665</ele>
        <time>2023-07-04T08:25:55.803Z</time>
      </trkpt>
      <trkpt lat="48.769792" lon="2.116078">
        <ele>157.161840</ele>
        <time>2023-07-04T08:26:04.642Z</time>
      </trkpt>
      <trkpt lat="48.769691" lon="2.116563">
        <ele>157.258357</ele>
        <time>2023-07-04T08:26:10.091Z</time>
      </trkpt>
      <trkpt lat="48.769345" lon="2.118311">
        <ele>157.260331</ele>
        <time>2023-07-04T08:26:30.830Z</time>
      </trkpt>
      <trkpt lat="48.769134" lon="2.119415">
        <ele>156.928825</ele>
        <time>2023-07-04T08:26:40.948Z</time>
      </trkpt>
      <trkpt lat="48.769068" lon="2.119637">
        <ele>156.858589</ele>
        <time>2023-07-04T08:26:42.911Z</time>
      </trkpt>
      <trkpt lat="48.769010" lon="2.119614">
        <ele>156.832358</ele>
        <time>2023-07-04T08:26:43.657Z</time>
      </trkpt>
      <trkpt lat="48.768978" lon="2.119660">
        <ele>156.813069</ele>
        <time>2023-07-04T08:26:44.191Z</time>
      </trkpt>
      <trkpt lat="48.769016" lon="2.119893">
        <ele>156.743846</ele>
        <time>2023-07-04T08:26:46.095Z</time>
      </trkpt>
      <trkpt lat="48.769049" lon="2.119924">
        <ele>156.726863</ele>
        <time>2023-07-04T08:26:46.541Z</time>
      </trkpt>
      <trkpt lat="48.769030" lon="2.120430">
        <ele>156.278652</ele>
        <time>2023-07-04T08:26:50.444Z</time>
      </trkpt>
      <trkpt lat="48.769009" lon="2.120926">
        <ele>155.703690</ele>
        <time>2023-07-04T08:26:54.157Z</time>
      </trkpt>
      <trkpt lat="48.768991" lon="2.121313">
        <ele>155.254889</ele>
        <time>2023-07-04T08:26:57.012Z</time>
      </trkpt>
      <trkpt lat="48.768985" lon="2.121533">
        <ele>155.000172</ele>
        <time>2023-07-04T08:26:58.664Z</time>
      </trkpt>
      <trkpt lat="48.768942" lon="2.122590">
        <ele>153.775090</ele>
        <time>2023-07-04T08:27:06.302Z</time>
      </trkpt>
      <trkpt lat="48.768909" lon="2.123426">
        <ele>152.955438</ele>
        <time>2023-07-04T08:27:12.267Z</time>
      </trkpt>
      <trkpt lat="48.768883" lon="2.124096">
        <ele>152.340376</ele>
        <time>2023-07-04T08:27:17.321Z</time>
      </trkpt>
      <trkpt lat="48.768864" lon="2.124536">
        <ele>151.936289</ele>
        <time>2023-07-04T08:27:20.686Z</time>
      </trkpt>
      <trkpt lat="48.768854" lon="2.124831">
        <ele>151.665589</ele>
        <time>2023-07-04T08:27:22.980Z</time>
      </trkpt>
      <trkpt lat="48.768842" lon="2.125150">
        <ele>151.372776</ele>
        <time>2023-07-04T08:27:25.569Z</time>
      </trkpt>
      <trkpt lat="48.768838" lon="2.125278">
        <ele>151.255343</ele>
        <time>2023-07-04T08:27:26.616Z</time>
      </trkpt>
      <trkpt lat="48.768832" lon="2.125463">
        <ele>151.085601</ele>
        <time>2023-07-04T08:27:28.152Z</time>
      </trkpt>
      <trkpt lat="48.768778" lon="2.127034">
        <ele>150.919969</ele>
        <time>2023-07-04T08:27:42.617Z</time>
      </trkpt>
      <trkpt lat="48.768743" lon="2.127930">
        <ele>150.858370</ele>
        <time>2023-07-04T08:27:52.040Z</time>
      </trkpt>
      <trkpt lat="48.768743" lon="2.127931">
        <ele>150.858301</ele>
        <time>2023-07-04T08:27:52.047Z</time>
      </trkpt>
      <trkpt lat="48.768760" lon="2.128152">
        <ele>150.843032</ele>
        <time>2023-07-04T08:27:54.339Z</time>
      </trkpt>
      <trkpt lat="48.768777" lon="2.128286">
        <ele>150.814005</ele>
        <time>2023-07-04T08:27:55.785Z</time>
      </trkpt>
      <trkpt lat="48.768804" lon="2.128437">
        <ele>150.711986</ele>
        <time>2023-07-04T08:27:57.525Z</time>
      </trkpt>
      <trkpt lat="48.768830" lon="2.128553">
        <ele>150.632093</ele>
        <time>2023-07-04T08:27:58.791Z</time>
      </trkpt>
      <trkpt lat="48.768854" lon="2.128876">
        <ele>150.420145</ele>
        <time>2023-07-04T08:28:02.154Z</time>
      </trkpt>
      <trkpt lat="48.768833" lon="2.128983">
        <ele>150.347348</ele>
        <time>2023-07-04T08:28:03.398Z</time>
      </trkpt>
      <trkpt lat="48.768874" lon="2.129084">
        <ele>150.270001</ele>
        <time>2023-07-04T08:28:04.600Z</time>
      </trkpt>
      <trkpt lat="48.768949" lon="2.129103">
        <ele>150.194776</ele>
        <time>2023-07-04T08:28:05.741Z</time>
      </trkpt>
      <trkpt lat="48.768993" lon="2.129062">
        <ele>150.143692</ele>
        <time>2023-07-04T08:28:06.501Z</time>
      </trkpt>
      <trkpt lat="48.769386" lon="2.129252">
        <ele>149.735631</ele>
        <time>2023-07-04T08:28:12.539Z</time>
      </trkpt>
      <trkpt lat="48.770303" lon="2.130072">
        <ele>146.822439</ele>
        <time>2023-07-04T08:28:23.882Z</time>
      </trkpt>
      <trkpt lat="48.770428" lon="2.130254">
        <ele>145.798516</ele>
        <time>2023-07-04T08:28:25.501Z</time>
      </trkpt>
      <trkpt lat="48.770525" lon="2.130479">
        <ele>144.751216</ele>
        <time>2023-07-04T08:28:27.128Z</time>
      </trkpt>
      <trkpt lat="48.770773" lon="2.131228">
        <ele>141.486129</ele>
        <time>2023-07-04T08:28:32.063Z</time>
      </trkpt>
      <trkpt lat="48.770852" lon="2.131406">
        <ele>140.650208</ele>
        <time>2023-07-04T08:28:33.327Z</time>
      </trkpt>
      <trkpt lat="48.771090" lon="2.131716">
        <ele>138.796343</ele>
        <time>2023-07-04T08:28:36.110Z</time>
      </trkpt>
      <trkpt lat="48.771561" lon="2.132179">
        <ele>135.754105</ele>
        <time>2023-07-04T08:28:41.055Z</time>
      </trkpt>
      <trkpt lat="48.771619" lon="2.132229">
        <ele>135.396596</ele>
        <time>2023-07-04T08:28:41.640Z</time>
      </trkpt>
      <trkpt lat="48.771656" lon="2.132260">
        <ele>135.170077</ele>
        <time>2023-07-04T08:28:42.003Z</time>
      </trkpt>
      <trkpt lat="48.774447" lon="2.133549">
        <ele>122.725203</ele>
        <time>2023-07-04T08:29:10.627Z</time>
      </trkpt>
      <trkpt lat="48.774644" lon="2.133586">
        <ele>122.135777</ele>
        <time>2023-07-04T08:29:13.098Z</time>
      </trkpt>
      <trkpt lat="48.774736" lon="2.133566">
        <ele>121.888675</ele>
        <time>2023-07-04T08:29:14.245Z</time>
      </trkpt>
      <trkpt lat="48.774955" lon="2.133389">
        <ele>121.228966</ele>
        <time>2023-07-04T08:29:17.014Z</time>
      </trkpt>
      <trkpt lat="48.775049" lon="2.133273">
        <ele>120.906829</ele>
        <time>2023-07-04T08:29:18.369Z</time>
      </trkpt>
      <trkpt lat="48.775250" lon="2.132852">
        <ele>119.995933</ele>
        <time>2023-07-04T08:29:22.050Z</time>
      </trkpt>
      <trkpt lat="48.775903" lon="2.130692">
        <ele>117.214630</ele>
        <time>2023-07-04T08:29:38.013Z</time>
      </trkpt>
      <trkpt lat="48.775954" lon="2.130484">
        <ele>117.115280</ele>
        <time>2023-07-04T08:29:39.502Z</time>
      </trkpt>
      <trkpt lat="48.776006" lon="2.130434">
        <ele>117.073461</ele>
        <time>2023-07-04T08:29:40.172Z</time>
      </trkpt>
      <trkpt lat="48.775993" lon="2.130360">
        <ele>117.039177</ele>
        <time>2023-07-04T08:29:40.727Z</time>
      </trkpt>
      <trkpt lat="48.776186" lon="2.129990">
        <ele>116.827934</ele>
        <time>2023-07-04T08:29:44.510Z</time>
      </trkpt>
      <trkpt lat="48.776275" lon="2.129872">
        <ele>116.747649</ele>
        <time>2023-07-04T08:29:46.415Z</time>
      </trkpt>
      <trkpt lat="48.776472" lon="2.129689">
        <ele>116.590742</ele>
        <time>2023-07-04T08:29:50.607Z</time>
      </trkpt>
      <trkpt lat="48.776608" lon="2.129646">
        <ele>116.496373</ele>
        <time>2023-07-04T08:29:53.858Z</time>
      </trkpt>
      <trkpt lat="48.777986" lon="2.129558">
        <ele>124.988064</ele>
        <time>2023-07-04T08:30:50.473Z</time>
      </trkpt>
      <trkpt lat="48.778151" lon="2.129610">
        <ele>126.062563</ele>
        <time>2023-07-04T08:30:58.798Z</time>
      </trkpt>
      <trkpt lat="48.778318" lon="2.129726">
        <ele>127.233613</ele>
        <time>2023-07-04T08:31:07.886Z</time>
      </trkpt>
      <trkpt lat="48.778412" lon="2.129834">
        <ele>127.979407</ele>
        <time>2023-07-04T08:31:13.618Z</time>
      </trkpt>
      <trkpt lat="48.778838" lon="2.130475">
        <ele>131.346936</ele>
        <time>2023-07-04T08:31:41.064Z</time>
      </trkpt>
      <trkpt lat="48.778929" lon="2.130573">
        <ele>131.973306</ele>
        <time>2023-07-04T08:31:46.017Z</time>
      </trkpt>
      <trkpt lat="48.779255" lon="2.130800">
        <ele>133.986703</ele>
        <time>2023-07-04T08:31:59.831Z</time>
      </trkpt>
      <trkpt lat="48.780257" lon="2.131522">
        <ele>138.764999</ele>
        <time>2023-07-04T08:32:31.947Z</time>
      </trkpt>
      <trkpt lat="48.780413" lon="2.131540">
        <ele>139.060152</ele>
        <time>2023-07-04T08:32:34.907Z</time>
      </trkpt>
      <trkpt lat="48.780760" lon="2.131469">
        <ele>139.720712</ele>
        <time>2023-07-04T08:32:41.800Z</time>
      </trkpt>
      <trkpt lat="48.780884" lon="2.131511">
        <ele>139.960402</ele>
        <time>2023-07-04T08:32:44.295Z</time>
      </trkpt>
      <trkpt lat="48.781597" lon="2.131957">
        <ele>141.415304</ele>
        <time>2023-07-04T08:33:03.248Z</time>
      </trkpt>
      <trkpt lat="48.782668" lon="2.132204">
        <ele>144.077534</ele>
        <time>2023-07-04T08:33:34.582Z</time>
      </trkpt>
      <trkpt lat="48.782773" lon="2.132221">
        <ele>144.337332</ele>
        <time>2023-07-04T08:33:38.021Z</time>
      </trkpt>
      <trkpt lat="48.782882" lon="2.132241">
        <ele>144.607458</ele>
        <time>2023-07-04T08:33:41.073Z</time>
      </trkpt>
      <trkpt lat="48.783569" lon="2.132376">
        <ele>146.418536</ele>
        <time>2023-07-04T08:34:00.086Z</time>
      </trkpt>
      <trkpt lat="48.784236" lon="2.132482">
        <ele>148.450243</ele>
        <time>2023-07-04T08:34:19.131Z</time>
      </trkpt>
      <trkpt lat="48.784344" lon="2.132537">
        <ele>148.795354</ele>
        <time>2023-07-04T08:34:22.395Z</time>
      </trkpt>
      <trkpt lat="48.784549" lon="2.132577">
        <ele>149.421508</ele>
        <time>2023-07-04T08:34:28.006Z</time>
      </trkpt>
      <trkpt lat="48.785186" lon="2.132724">
        <ele>151.372821</ele>
        <time>2023-07-04T08:34:44.450Z</time>
      </trkpt>
      <trkpt lat="48.785586" lon="2.132798">
        <ele>152.583000</ele>
        <time>2023-07-04T08:34:54.309Z</time>
      </trkpt>
      <trkpt lat="48.785863" lon="2.132761">
        <ele>153.418108</ele>
        <time>2023-07-04T08:35:01.414Z</time>
      </trkpt>
      <trkpt lat="48.786123" lon="2.132801">
        <ele>154.202947</ele>
        <time>2023-07-04T08:35:08.135Z</time>
      </trkpt>
      <trkpt lat="48.786189" lon="2.132817">
        <ele>154.403672</ele>
        <time>2023-07-04T08:35:10.060Z</time>
      </trkpt>
      <trkpt lat="48.786294" lon="2.132841">
        <ele>154.722566</ele>
        <time>2023-07-04T08:35:12.954Z</time>
      </trkpt>
      <trkpt lat="48.786806" lon="2.132988">
        <ele>156.287485</ele>
        <time>2023-07-04T08:35:27.547Z</time>
      </trkpt>
      <trkpt lat="48.786859" lon="2.133034">
        <ele>156.470843</ele>
        <time>2023-07-04T08:35:29.427Z</time>
      </trkpt>
      <trkpt lat="48.786995" lon="2.133090">
        <ele>156.935657</ele>
        <time>2023-07-04T08:35:33.578Z</time>
      </trkpt>
      <trkpt lat="48.787000" lon="2.133091">
        <ele>156.954069</ele>
        <time>2023-07-04T08:35:33.714Z</time>
      </trkpt>
      <trkpt lat="48.787123" lon="2.133120">
        <ele>157.408506</ele>
        <time>2023-07-04T08:35:37.244Z</time>
      </trkpt>
      <trkpt lat="48.787458" lon="2.133202">
        <ele>158.647333</ele>
        <time>2023-07-04T08:35:47.488Z</time>
      </trkpt>
      <trkpt lat="48.787602" lon="2.133245">
        <ele>159.183129</ele>
        <time>2023-07-04T08:35:51.967Z</time>
      </trkpt>
      <trkpt lat="48.787679" lon="2.133268">
        <ele>159.469635</ele>
        <time>2023-07-04T08:35:54.322Z</time>
      </trkpt>
      <trkpt lat="48.787808" lon="2.133319">
        <ele>159.956305</ele>
        <time>2023-07-04T08:35:58.465Z</time>
      </trkpt>
      <trkpt lat="48.788143" lon="2.133491">
        <ele>161.247410</ele>
        <time>2023-07-04T08:36:09.534Z</time>
      </trkpt>
      <trkpt lat="48.788430" lon="2.133690">
        <ele>162.399351</ele>
        <time>2023-07-04T08:36:19.359Z</time>
      </trkpt>
      <trkpt lat="48.788702" lon="2.133923">
        <ele>163.287973</ele>
        <time>2023-07-04T08:36:28.515Z</time>
      </trkpt>
      <trkpt lat="48.788751" lon="2.133984">
        <ele>163.305307</ele>
        <time>2023-07-04T08:36:30.382Z</time>
      </trkpt>
      <trkpt lat="48.788771" lon="2.134008">
        <ele>163.312280</ele>
        <time>2023-07-04T08:36:31.108Z</time>
      </trkpt>
      <trkpt lat="48.789451" lon="2.134825">
        <ele>163.549494</ele>
        <time>2023-07-04T08:36:49.378Z</time>
      </trkpt>
      <trkpt lat="48.789917" lon="2.135246">
        <ele>163.697826</ele>
        <time>2023-07-04T08:36:55.832Z</time>
      </trkpt>
      <trkpt lat="48.790164" lon="2.135387">
        <ele>163.538276</ele>
        <time>2023-07-04T08:36:58.583Z</time>
      </trkpt>
      <trkpt lat="48.790338" lon="2.135448">
        <ele>162.503151</ele>
        <time>2023-07-04T08:37:00.357Z</time>
      </trkpt>
      <trkpt lat="48.790866" lon="2.135509">
        <ele>159.433800</ele>
        <time>2023-07-04T08:37:05.363Z</time>
      </trkpt>
      <trkpt lat="48.791004" lon="2.135557">
        <ele>158.613164</ele>
        <time>2023-07-04T08:37:06.663Z</time>
      </trkpt>
      <trkpt lat="48.791568" lon="2.135845">
        <ele>155.163963</ele>
        <time>2023-07-04T08:37:12.005Z</time>
      </trkpt>
      <trkpt lat="48.792621" lon="2.136463">
        <ele>147.459798</ele>
        <time>2023-07-04T08:37:21.992Z</time>
      </trkpt>
      <trkpt lat="48.793273" lon="2.136957">
        <ele>142.196307</ele>
        <time>2023-07-04T08:37:28.496Z</time>
      </trkpt>
      <trkpt lat="48.793566" lon="2.137179">
        <ele>140.016707</ele>
        <time>2023-07-04T08:37:31.484Z</time>
      </trkpt>
      <trkpt lat="48.793880" lon="2.137423">
        <ele>138.394467</ele>
        <time>2023-07-04T08:37:34.765Z</time>
      </trkpt>
      <trkpt lat="48.794031" lon="2.137518">
        <ele>137.642765</ele>
        <time>2023-07-04T08:37:36.331Z</time>
      </trkpt>
      <trkpt lat="48.794072" lon="2.137551">
        <ele>137.429348</ele>
        <time>2023-07-04T08:37:36.780Z</time>
      </trkpt>
      <trkpt lat="48.794261" lon="2.137715">
        <ele>136.428187</ele>
        <time>2023-07-04T08:37:38.862Z</time>
      </trkpt>
      <trkpt lat="48.794439" lon="2.137857">
        <ele>135.503440</ele>
        <time>2023-07-04T08:37:40.806Z</time>
      </trkpt>
      <trkpt lat="48.794515" lon="2.137914">
        <ele>135.113597</ele>
        <time>2023-07-04T08:37:41.617Z</time>
      </trkpt>
      <trkpt lat="48.794576" lon="2.137966">
        <ele>134.791863</ele>
        <time>2023-07-04T08:37:42.293Z</time>
      </trkpt>
      <trkpt lat="48.794606" lon="2.137992">
        <ele>134.632996</ele>
        <time>2023-07-04T08:37:42.623Z</time>
      </trkpt>
      <trkpt lat="48.794816" lon="2.138182">
        <ele>133.508718</ele>
        <time>2023-07-04T08:37:45.003Z</time>
      </trkpt>
      <trkpt lat="48.794826" lon="2.138191">
        <ele>133.455254</ele>
        <time>2023-07-04T08:37:45.113Z</time>
      </trkpt>
      <trkpt lat="48.795405" lon="2.138742">
        <ele>131.062944</ele>
        <time>2023-07-04T08:37:51.973Z</time>
      </trkpt>
      <trkpt lat="48.795655" lon="2.138980">
        <ele>130.285107</ele>
        <time>2023-07-04T08:37:55.046Z</time>
      </trkpt>
      <trkpt lat="48.795870" lon="2.139277">
        <ele>129.518868</ele>
        <time>2023-07-04T08:37:58.194Z</time>
      </trkpt>
      <trkpt lat="48.796128" lon="2.139739">
        <ele>128.467195</ele>
        <time>2023-07-04T08:38:02.546Z</time>
      </trkpt>
      <trkpt lat="48.796258" lon="2.140235">
        <ele>127.540291</ele>
        <time>2023-07-04T08:38:06.314Z</time>
      </trkpt>
      <trkpt lat="48.796486" lon="2.141162">
        <ele>126.538661</ele>
        <time>2023-07-04T08:38:13.180Z</time>
      </trkpt>
      <trkpt lat="48.796530" lon="2.141342">
        <ele>126.363753</ele>
        <time>2023-07-04T08:38:14.562Z</time>
      </trkpt>
      <trkpt lat="48.796611" lon="2.141721">
        <ele>126.000764</ele>
        <time>2023-07-04T08:38:17.529Z</time>
      </trkpt>
      <trkpt lat="48.796589" lon="2.142020">
        <ele>125.726679</ele>
        <time>2023-07-04T08:38:19.956Z</time>
      </trkpt>
      <trkpt lat="48.796532" lon="2.142354">
        <ele>125.412357</ele>
        <time>2023-07-04T08:38:22.791Z</time>
      </trkpt>
      <trkpt lat="48.796551" lon="2.142648">
        <ele>125.143235</ele>
        <time>2023-07-04T08:38:25.417Z</time>
      </trkpt>
      <trkpt lat="48.796649" lon="2.142921">
        <ele>124.859999</ele>
        <time>2023-07-04T08:38:28.197Z</time>
      </trkpt>
      <trkpt lat="48.796729" lon="2.143046">
        <ele>124.961219</ele>
        <time>2023-07-04T08:38:29.922Z</time>
      </trkpt>
      <trkpt lat="48.796886" lon="2.143177">
        <ele>125.170796</ele>
        <time>2023-07-04T08:38:32.548Z</time>
      </trkpt>
      <trkpt lat="48.797235" lon="2.143240">
        <ele>125.581942</ele>
        <time>2023-07-04T08:38:38.439Z</time>
      </trkpt>
      <trkpt lat="48.797287" lon="2.143255">
        <ele>125.643861</ele>
        <time>2023-07-04T08:38:39.472Z</time>
      </trkpt>
      <trkpt lat="48.797324" lon="2.143276">
        <ele>125.690071</ele>
        <time>2023-07-04T08:38:40.231Z</time>
      </trkpt>
      <trkpt lat="48.797616" lon="2.143466">
        <ele>126.061716</ele>
        <time>2023-07-04T08:38:46.491Z</time>
      </trkpt>
      <trkpt lat="48.797975" lon="2.143698">
        <ele>126.518152</ele>
        <time>2023-07-04T08:38:55.053Z</time>
      </trkpt>
      <trkpt lat="48.798134" lon="2.143800">
        <ele>126.720079</ele>
        <time>2023-07-04T08:38:59.152Z</time>
      </trkpt>
      <trkpt lat="48.798263" lon="2.143868">
        <ele>126.879825</ele>
        <time>2023-07-04T08:39:02.461Z</time>
      </trkpt>
      <trkpt lat="48.798339" lon="2.143876">
        <ele>126.984737</ele>
        <time>2023-07-04T08:39:04.444Z</time>
      </trkpt>
      <trkpt lat="48.798416" lon="2.143922">
        <ele>127.148676</ele>
        <time>2023-07-04T08:39:06.523Z</time>
      </trkpt>
      <trkpt lat="48.798541" lon="2.143990">
        <ele>127.411745</ele>
        <time>2023-07-04T08:39:09.844Z</time>
      </trkpt>
      <trkpt lat="48.798576" lon="2.143853">
        <ele>127.603510</ele>
        <time>2023-07-04T08:39:12.296Z</time>
      </trkpt>
      <trkpt lat="48.798685" lon="2.143467">
        <ele>128.151587</ele>
        <time>2023-07-04T08:39:19.198Z</time>
      </trkpt>
      <trkpt lat="48.798728" lon="2.143318">
        <ele>128.363879</ele>
        <time>2023-07-04T08:39:21.769Z</time>
      </trkpt>
      <trkpt lat="48.798914" lon="2.142627">
        <ele>129.338037</ele>
        <time>2023-07-04T08:39:32.997Z</time>
      </trkpt>
      <trkpt lat="48.798971" lon="2.142418">
        <ele>129.633240</ele>
        <time>2023-07-04T08:39:36.341Z</time>
      </trkpt>
      <trkpt lat="48.799215" lon="2.141474">
        <ele>130.810928</ele>
        <time>2023-07-04T08:39:50.014Z</time>
      </trkpt>
      <trkpt lat="48.799377" lon="2.140847">
        <ele>131.403371</ele>
        <time>2023-07-04T08:39:58.634Z</time>
      </trkpt>
      <trkpt lat="48.799403" lon="2.140751">
        <ele>131.494675</ele>
        <time>2023-07-04T08:39:59.939Z</time>
      </trkpt>
      <trkpt lat="48.799435" lon="2.140638">
        <ele>131.602870</ele>
        <time>2023-07-04T08:40:01.496Z</time>
      </trkpt>
      <trkpt lat="48.799884" lon="2.138968">
        <ele>133.212218</ele>
        <time>2023-07-04T08:40:25.286Z</time>
      </trkpt>
      <trkpt lat="48.800043" lon="2.138354">
        <ele>133.839960</ele>
        <time>2023-07-04T08:40:34.839Z</time>
      </trkpt>
      <trkpt lat="48.800066" lon="2.138264">
        <ele>133.931813</ele>
        <time>2023-07-04T08:40:36.305Z</time>
      </trkpt>
      <trkpt lat="48.800127" lon="2.138030">
        <ele>134.171264</ele>
        <time>2023-07-04T08:40:39.889Z</time>
      </trkpt>
      <trkpt lat="48.800150" lon="2.137945">
        <ele>134.258698</ele>
        <time>2023-07-04T08:40:41.294Z</time>
      </trkpt>
      <trkpt lat="48.800250" lon="2.137592">
        <ele>134.624319</ele>
        <time>2023-07-04T08:40:46.886Z</time>
      </trkpt>
      <trkpt lat="48.800271" lon="2.137517">
        <ele>134.701860</ele>
        <time>2023-07-04T08:40:47.939Z</time>
      </trkpt>
      <trkpt lat="48.800556" lon="2.136457">
        <ele>135.712714</ele>
        <time>2023-07-04T08:41:02.653Z</time>
      </trkpt>
      <trkpt lat="48.800605" lon="2.136275">
        <ele>135.847613</ele>
        <time>2023-07-04T08:41:05.133Z</time>
      </trkpt>
      <trkpt lat="48.800777" lon="2.135634">
        <ele>136.322496</ele>
        <time>2023-07-04T08:41:12.862Z</time>
      </trkpt>
      <trkpt lat="48.801052" lon="2.134610">
        <ele>137.081211</ele>
        <time>2023-07-04T08:41:26.478Z</time>
      </trkpt>
      <trkpt lat="48.801140" lon="2.134284">
        <ele>137.322932</ele>
        <time>2023-07-04T08:41:31.144Z</time>
      </trkpt>
      <trkpt lat="48.801187" lon="2.134108">
        <ele>137.526455</ele>
        <time>2023-07-04T08:41:33.707Z</time>
      </trkpt>
      <trkpt lat="48.801229" lon="2.133953">
        <ele>137.761794</ele>
        <time>2023-07-04T08:41:35.918Z</time>
      </trkpt>
      <trkpt lat="48.801304" lon="2.133691">
        <ele>138.162921</ele>
        <time>2023-07-04T08:41:39.823Z</time>
      </trkpt>
      <trkpt lat="48.801488" lon="2.133803">
        <ele>138.585520</ele>
        <time>2023-07-04T08:41:44.252Z</time>
      </trkpt>
      <trkpt lat="48.801502" lon="2.133812">
        <ele>138.617930</ele>
        <time>2023-07-04T08:41:44.596Z</time>
      </trkpt>
      <trkpt lat="48.801589" lon="2.133865">
        <ele>138.817768</ele>
        <time>2023-07-04T08:41:46.659Z</time>
      </trkpt>
      <trkpt lat="48.801613" lon="2.133880">
        <ele>138.873097</ele>
        <time>2023-07-04T08:41:47.215Z</time>
      </trkpt>
      <trkpt lat="48.802683" lon="2.134533">
        <ele>141.307245</ele>
        <time>2023-07-04T08:42:16.008Z</time>
      </trkpt>
      <trkpt lat="48.802708" lon="2.134549">
        <ele>141.352775</ele>
        <time>2023-07-04T08:42:16.728Z</time>
      </trkpt>
      <trkpt lat="48.802737" lon="2.134567">
        <ele>141.405352</ele>
        <time>2023-07-04T08:42:17.532Z</time>
      </trkpt>
      <trkpt lat="48.802752" lon="2.134577">
        <ele>141.432845</ele>
        <time>2023-07-04T08:42:17.977Z</time>
      </trkpt>
      <trkpt lat="48.802805" lon="2.134607">
        <ele>141.527769</ele>
        <time>2023-07-04T08:42:19.453Z</time>
      </trkpt>
      <trkpt lat="48.802846" lon="2.134634">
        <ele>141.602769</ele>
        <time>2023-07-04T08:42:20.615Z</time>
      </trkpt>
      <trkpt lat="48.803169" lon="2.134839">
        <ele>142.190278</ele>
        <time>2023-07-04T08:42:29.099Z</time>
      </trkpt>
      <trkpt lat="48.803496" lon="2.135057">
        <ele>142.789618</ele>
        <time>2023-07-04T08:42:36.956Z</time>
      </trkpt>
      <trkpt lat="48.803556" lon="2.135093">
        <ele>142.897887</ele>
        <time>2023-07-04T08:42:38.248Z</time>
      </trkpt>
      <trkpt lat="48.804100" lon="2.135421">
        <ele>143.880173</ele>
        <time>2023-07-04T08:42:49.616Z</time>
      </trkpt>
      <trkpt lat="48.804545" lon="2.135688">
        <ele>144.414633</ele>
        <time>2023-07-04T08:42:58.351Z</time>
      </trkpt>
      <trkpt lat="48.804806" lon="2.135844">
        <ele>144.602657</ele>
        <time>2023-07-04T08:43:03.944Z</time>
      </trkpt>
      <trkpt lat="48.804991" lon="2.135964">
        <ele>144.737510</ele>
        <time>2023-07-04T08:43:07.270Z</time>
      </trkpt>
      <trkpt lat="48.805141" lon="2.136041">
        <ele>144.843651</ele>
        <time>2023-07-04T08:43:09.731Z</time>
      </trkpt>
      <trkpt lat="48.805182" lon="2.136056">
        <ele>144.871921</ele>
        <time>2023-07-04T08:43:10.219Z</time>
      </trkpt>
      <trkpt lat="48.805188" lon="2.136144">
        <ele>144.910980</ele>
        <time>2023-07-04T08:43:11.166Z</time>
      </trkpt>
      <trkpt lat="48.805160" lon="2.136283">
        <ele>144.975153</ele>
        <time>2023-07-04T08:43:13.041Z</time>
      </trkpt>
      <trkpt lat="48.805160" lon="2.136448">
        <ele>145.047999</ele>
        <time>2023-07-04T08:43:15.105Z</time>
      </trkpt>
      <trkpt lat="48.805243" lon="2.136445">
        <ele>145.103652</ele>
        <time>2023-07-04T08:43:16.075Z</time>
      </trkpt>
      <trkpt lat="48.805277" lon="2.136442">
        <ele>145.126482</ele>
        <time>2023-07-04T08:43:16.484Z</time>
      </trkpt>
      <trkpt lat="48.805349" lon="2.136743">
        <ele>145.267864</ele>
        <time>2023-07-04T08:43:20.927Z</time>
      </trkpt>
      <trkpt lat="48.805390" lon="2.137362">
        <ele>145.260218</ele>
        <time>2023-07-04T08:43:28.721Z</time>
      </trkpt>
      <trkpt lat="48.805427" lon="2.137916">
        <ele>144.817621</ele>
        <time>2023-07-04T08:43:34.584Z</time>
      </trkpt>
      <trkpt lat="48.805403" lon="2.138056">
        <ele>144.702637</ele>
        <time>2023-07-04T08:43:35.650Z</time>
      </trkpt>
      <trkpt lat="48.805418" lon="2.138352">
        <ele>144.466670</ele>
        <time>2023-07-04T08:43:39.058Z</time>
      </trkpt>
      <trkpt lat="48.805437" lon="2.138597">
        <ele>144.270590</ele>
        <time>2023-07-04T08:43:40.926Z</time>
      </trkpt>
      <trkpt lat="48.805498" lon="2.139384">
        <ele>143.640739</ele>
        <time>2023-07-04T08:43:46.698Z</time>
      </trkpt>
      <trkpt lat="48.805510" lon="2.139585">
        <ele>143.480323</ele>
        <time>2023-07-04T08:43:48.083Z</time>
      </trkpt>
      <trkpt lat="48.805599" lon="2.139570">
        <ele>143.372256</ele>
        <time>2023-07-04T08:43:48.949Z</time>
      </trkpt>
      <trkpt lat="48.805718" lon="2.139556">
        <ele>143.127567</ele>
        <time>2023-07-04T08:43:50.126Z</time>
      </trkpt>
      <trkpt lat="48.805834" lon="2.139544">
        <ele>142.657743</ele>
        <time>2023-07-04T08:43:51.279Z</time>
      </trkpt>
      <trkpt lat="48.807024" lon="2.139743">
        <ele>137.820063</ele>
        <time>2023-07-04T08:44:02.921Z</time>
      </trkpt>
      <trkpt lat="48.807409" lon="2.139802">
        <ele>136.256435</ele>
        <time>2023-07-04T08:44:06.603Z</time>
      </trkpt>
      <trkpt lat="48.807700" lon="2.139846">
        <ele>135.227303</ele>
        <time>2023-07-04T08:44:09.421Z</time>
      </trkpt>
      <trkpt lat="48.808260" lon="2.139930">
        <ele>133.327135</ele>
        <time>2023-07-04T08:44:14.935Z</time>
      </trkpt>
      <trkpt lat="48.808318" lon="2.139939">
        <ele>133.130265</ele>
        <time>2023-07-04T08:44:15.517Z</time>
      </trkpt>
      <trkpt lat="48.808406" lon="2.139968">
        <ele>132.826196</ele>
        <time>2023-07-04T08:44:16.425Z</time>
      </trkpt>
      <trkpt lat="48.808501" lon="2.139983">
        <ele>132.503677</ele>
        <time>2023-07-04T08:44:17.401Z</time>
      </trkpt>
      <trkpt lat="48.808555" lon="2.139992">
        <ele>132.320239</ele>
        <time>2023-07-04T08:44:17.955Z</time>
      </trkpt>
      <trkpt lat="48.809104" lon="2.140094">
        <ele>130.452594</ele>
        <time>2023-07-04T08:44:23.693Z</time>
      </trkpt>
      <trkpt lat="48.809351" lon="2.140140">
        <ele>129.769962</ele>
        <time>2023-07-04T08:44:26.324Z</time>
      </trkpt>
      <trkpt lat="48.810153" lon="2.140278">
        <ele>128.399101</ele>
        <time>2023-07-04T08:44:35.016Z</time>
      </trkpt>
      <trkpt lat="48.811070" lon="2.140446">
        <ele>126.903445</ele>
        <time>2023-07-04T08:44:45.724Z</time>
      </trkpt>
      <trkpt lat="48.811425" lon="2.140509">
        <ele>127.298034</ele>
        <time>2023-07-04T08:44:50.918Z</time>
      </trkpt>
      <trkpt lat="48.811740" lon="2.140567">
        <ele>127.648343</ele>
        <time>2023-07-04T08:44:56.518Z</time>
      </trkpt>
      <trkpt lat="48.812442" lon="2.140679">
        <ele>128.427619</ele>
        <time>2023-07-04T08:45:11.752Z</time>
      </trkpt>
      <trkpt lat="48.812603" lon="2.140704">
        <ele>128.606291</ele>
        <time>2023-07-04T08:45:15.593Z</time>
      </trkpt>
      <trkpt lat="48.813126" lon="2.140790">
        <ele>129.667737</ele>
        <time>2023-07-04T08:45:28.577Z</time>
      </trkpt>
      <trkpt lat="48.813681" lon="2.140883">
        <ele>131.191143</ele>
        <time>2023-07-04T08:45:42.404Z</time>
      </trkpt>
      <trkpt lat="48.813826" lon="2.140909">
        <ele>131.589498</ele>
        <time>2023-07-04T08:45:46.059Z</time>
      </trkpt>
      <trkpt lat="48.813890" lon="2.141097">
        <ele>131.969726</ele>
        <time>2023-07-04T08:45:49.448Z</time>
      </trkpt>
      <trkpt lat="48.814011" lon="2.141451">
        <ele>132.686302</ele>
        <time>2023-07-04T08:45:56.540Z</time>
      </trkpt>
      <trkpt lat="48.814586" lon="2.143041">
        <ele>137.477062</ele>
        <time>2023-07-04T08:46:30.244Z</time>
      </trkpt>
      <trkpt lat="48.815333" lon="2.145158">
        <ele>146.833470</ele>
        <time>2023-07-04T08:47:29.262Z</time>
      </trkpt>
      <trkpt lat="48.815529" lon="2.145683">
        <ele>150.052441</ele>
        <time>2023-07-04T08:47:49.817Z</time>
      </trkpt>
      <trkpt lat="48.815672" lon="2.146108">
        <ele>152.598075</ele>
        <time>2023-07-04T08:48:07.239Z</time>
      </trkpt>
      <trkpt lat="48.815857" lon="2.146627">
        <ele>155.745851</ele>
        <time>2023-07-04T08:48:28.832Z</time>
      </trkpt>
      <trkpt lat="48.816333" lon="2.147932">
        <ele>162.298427</ele>
        <time>2023-07-04T08:49:15.711Z</time>
      </trkpt>
      <trkpt lat="48.816446" lon="2.148132">
        <ele>163.422305</ele>
        <time>2023-07-04T08:49:22.310Z</time>
      </trkpt>
      <trkpt lat="48.816520" lon="2.148209">
        <ele>164.003278</ele>
        <time>2023-07-04T08:49:25.632Z</time>
      </trkpt>
      <trkpt lat="48.816805" lon="2.148366">
        <ele>165.966786</ele>
        <time>2023-07-04T08:49:35.658Z</time>
      </trkpt>
      <trkpt lat="48.816900" lon="2.148388">
        <ele>166.589173</ele>
        <time>2023-07-04T08:49:38.497Z</time>
      </trkpt>
      <trkpt lat="48.817125" lon="2.148351">
        <ele>168.054921</ele>
        <time>2023-07-04T08:49:45.627Z</time>
      </trkpt>
      <trkpt lat="48.817317" lon="2.148207">
        <ele>168.858260</ele>
        <time>2023-07-04T08:49:52.072Z</time>
      </trkpt>
      <trkpt lat="48.817381" lon="2.148110">
        <ele>169.132392</ele>
        <time>2023-07-04T08:49:54.901Z</time>
      </trkpt>
      <trkpt lat="48.817677" lon="2.147433">
        <ele>170.754719</ele>
        <time>2023-07-04T08:50:10.111Z</time>
      </trkpt>
      <trkpt lat="48.817826" lon="2.147277">
        <ele>171.303404</ele>
        <time>2023-07-04T08:50:14.466Z</time>
      </trkpt>
      <trkpt lat="48.818011" lon="2.147191">
        <ele>171.889976</ele>
        <time>2023-07-04T08:50:19.163Z</time>
      </trkpt>
      <trkpt lat="48.818115" lon="2.147185">
        <ele>172.205512</ele>
        <time>2023-07-04T08:50:21.439Z</time>
      </trkpt>
      <trkpt lat="48.818316" lon="2.147237">
        <ele>172.823685</ele>
        <time>2023-07-04T08:50:26.352Z</time>
      </trkpt>
      <trkpt lat="48.818432" lon="2.147311">
        <ele>173.205142</ele>
        <time>2023-07-04T08:50:29.300Z</time>
      </trkpt>
      <trkpt lat="48.818676" lon="2.147526">
        <ele>173.987454</ele>
        <time>2023-07-04T08:50:36.518Z</time>
      </trkpt>
      <trkpt lat="48.818881" lon="2.147854">
        <ele>174.639439</ele>
        <time>2023-07-04T08:50:44.489Z</time>
      </trkpt>
      <trkpt lat="48.818975" lon="2.148093">
        <ele>175.040793</ele>
        <time>2023-07-04T08:50:49.413Z</time>
      </trkpt>
      <trkpt lat="48.819067" lon="2.148461">
        <ele>175.608288</ele>
        <time>2023-07-04T08:50:56.718Z</time>
      </trkpt>
      <trkpt lat="48.819089" lon="2.148934">
        <ele>176.291904</ele>
        <time>2023-07-04T08:51:05.693Z</time>
      </trkpt>
      <trkpt lat="48.819039" lon="2.149475">
        <ele>177.079501</ele>
        <time>2023-07-04T08:51:14.128Z</time>
      </trkpt>
      <trkpt lat="48.819012" lon="2.149750">
        <ele>177.480348</ele>
        <time>2023-07-04T08:51:17.075Z</time>
      </trkpt>
      <trkpt lat="48.818993" lon="2.149963">
        <ele>177.718127</ele>
        <time>2023-07-04T08:51:19.385Z</time>
      </trkpt>
      <trkpt lat="48.818983" lon="2.150094">
        <ele>177.655243</ele>
        <time>2023-07-04T08:51:20.521Z</time>
      </trkpt>
      <trkpt lat="48.818913" lon="2.150170">
        <ele>177.592929</ele>
        <time>2023-07-04T08:51:21.614Z</time>
      </trkpt>
      <trkpt lat="48.818892" lon="2.150289">
        <ele>177.534184</ele>
        <time>2023-07-04T08:51:22.665Z</time>
      </trkpt>
      <trkpt lat="48.818869" lon="2.150492">
        <ele>177.435965</ele>
        <time>2023-07-04T08:51:24.446Z</time>
      </trkpt>
      <trkpt lat="48.818871" lon="2.150620">
        <ele>177.374913</ele>
        <time>2023-07-04T08:51:25.450Z</time>
      </trkpt>
      <trkpt lat="48.818903" lon="2.150678">
        <ele>177.338831</ele>
        <time>2023-07-04T08:51:26.042Z</time>
      </trkpt>
      <trkpt lat="48.818977" lon="2.150742">
        <ele>177.277162</ele>
        <time>2023-07-04T08:51:27.087Z</time>
      </trkpt>
      <trkpt lat="48.819123" lon="2.150685">
        <ele>177.167994</ele>
        <time>2023-07-04T08:51:28.950Z</time>
      </trkpt>
      <trkpt lat="48.819121" lon="2.150828">
        <ele>177.099792</ele>
        <time>2023-07-04T08:51:30.507Z</time>
      </trkpt>
      <trkpt lat="48.819163" lon="2.150879">
        <ele>177.060850</ele>
        <time>2023-07-04T08:51:31.428Z</time>
      </trkpt>
      <trkpt lat="48.819579" lon="2.150941">
        <ele>176.758143</ele>
        <time>2023-07-04T08:51:38.506Z</time>
      </trkpt>
      <trkpt lat="48.819725" lon="2.151041">
        <ele>176.642158</ele>
        <time>2023-07-04T08:51:41.224Z</time>
      </trkpt>
      <trkpt lat="48.820076" lon="2.151368">
        <ele>176.425441</ele>
        <time>2023-07-04T08:51:48.244Z</time>
      </trkpt>
      <trkpt lat="48.820616" lon="2.151821">
        <ele>176.385216</ele>
        <time>2023-07-04T08:51:59.502Z</time>
      </trkpt>
      <trkpt lat="48.820980" lon="2.152097">
        <ele>176.358688</ele>
        <time>2023-07-04T08:52:07.757Z</time>
      </trkpt>
      <trkpt lat="48.821214" lon="2.152400">
        <ele>176.338637</ele>
        <time>2023-07-04T08:52:14.534Z</time>
      </trkpt>
      <trkpt lat="48.821571" lon="2.153088">
        <ele>176.658372</ele>
        <time>2023-07-04T08:52:28.102Z</time>
      </trkpt>
      <trkpt lat="48.821720" lon="2.153529">
        <ele>177.137618</ele>
        <time>2023-07-04T08:52:36.105Z</time>
      </trkpt>
      <trkpt lat="48.821757" lon="2.153721">
        <ele>177.331041</ele>
        <time>2023-07-04T08:52:39.390Z</time>
      </trkpt>
      <trkpt lat="48.821918" lon="2.155238">
        <ele>178.816684</ele>
        <time>2023-07-04T08:53:06.969Z</time>
      </trkpt>
      <trkpt lat="48.822116" lon="2.157099">
        <ele>180.662595</ele>
        <time>2023-07-04T08:53:42.342Z</time>
      </trkpt>
      <trkpt lat="48.822148" lon="2.157353">
        <ele>180.916088</ele>
        <time>2023-07-04T08:53:46.864Z</time>
      </trkpt>
      <trkpt lat="48.822178" lon="2.157596">
        <ele>181.158433</ele>
        <time>2023-07-04T08:53:50.920Z</time>
      </trkpt>
      <trkpt lat="48.822229" lon="2.157966">
        <ele>181.528977</ele>
        <time>2023-07-04T08:53:56.630Z</time>
      </trkpt>
      <trkpt lat="48.822356" lon="2.158464">
        <ele>181.339494</ele>
        <time>2023-07-04T08:54:03.870Z</time>
      </trkpt>
      <trkpt lat="48.822476" lon="2.158823">
        <ele>181.059654</ele>
        <time>2023-07-04T08:54:08.790Z</time>
      </trkpt>
      <trkpt lat="48.822887" lon="2.159467">
        <ele>180.436268</ele>
        <time>2023-07-04T08:54:18.836Z</time>
      </trkpt>
      <trkpt lat="48.823172" lon="2.160097">
        <ele>179.904987</ele>
        <time>2023-07-04T08:54:27.186Z</time>
      </trkpt>
      <trkpt lat="48.823445" lon="2.160809">
        <ele>178.542607</ele>
        <time>2023-07-04T08:54:35.388Z</time>
      </trkpt>
      <trkpt lat="48.823607" lon="2.161461">
        <ele>177.111917</ele>
        <time>2023-07-04T08:54:41.992Z</time>
      </trkpt>
      <trkpt lat="48.823692" lon="2.161804">
        <ele>176.359517</ele>
        <time>2023-07-04T08:54:45.377Z</time>
      </trkpt>
      <trkpt lat="48.823732" lon="2.161901">
        <ele>176.124541</ele>
        <time>2023-07-04T08:54:46.117Z</time>
      </trkpt>
      <trkpt lat="48.823737" lon="2.162085">
        <ele>175.746473</ele>
        <time>2023-07-04T08:54:47.315Z</time>
      </trkpt>
      <trkpt lat="48.823709" lon="2.162111">
        <ele>175.644139</ele>
        <time>2023-07-04T08:54:47.632Z</time>
      </trkpt>
      <trkpt lat="48.823691" lon="2.162179">
        <ele>175.493676</ele>
        <time>2023-07-04T08:54:48.309Z</time>
      </trkpt>
      <trkpt lat="48.823469" lon="2.163017">
        <ele>173.820798</ele>
        <time>2023-07-04T08:54:56.902Z</time>
      </trkpt>
      <trkpt lat="48.823156" lon="2.164343">
        <ele>172.003287</ele>
        <time>2023-07-04T08:55:11.270Z</time>
      </trkpt>
      <trkpt lat="48.823158" lon="2.164836">
        <ele>171.367179</ele>
        <time>2023-07-04T08:55:16.531Z</time>
      </trkpt>
      <trkpt lat="48.823246" lon="2.165876">
        <ele>170.531372</ele>
        <time>2023-07-04T08:55:28.675Z</time>
      </trkpt>
      <trkpt lat="48.823352" lon="2.167034">
        <ele>170.347651</ele>
        <time>2023-07-04T08:55:44.466Z</time>
      </trkpt>
      <trkpt lat="48.823943" lon="2.171206">
        <ele>169.918538</ele>
        <time>2023-07-04T08:56:40.690Z</time>
      </trkpt>
      <trkpt lat="48.823986" lon="2.171470">
        <ele>169.802478</ele>
        <time>2023-07-04T08:56:44.332Z</time>
      </trkpt>
      <trkpt lat="48.824220" lon="2.172033">
        <ele>169.518346</ele>
        <time>2023-07-04T08:56:52.994Z</time>
      </trkpt>
      <trkpt lat="48.824378" lon="2.172313">
        <ele>169.360971</ele>
        <time>2023-07-04T08:56:57.571Z</time>
      </trkpt>
      <trkpt lat="48.824590" lon="2.172589">
        <ele>169.179985</ele>
        <time>2023-07-04T08:57:02.749Z</time>
      </trkpt>
      <trkpt lat="48.826157" lon="2.173857">
        <ele>165.864576</ele>
        <time>2023-07-04T08:57:30.799Z</time>
      </trkpt>
      <trkpt lat="48.826861" lon="2.174427">
        <ele>163.348258</ele>
        <time>2023-07-04T08:57:42.669Z</time>
      </trkpt>
      <trkpt lat="48.826957" lon="2.174505">
        <ele>162.899985</ele>
        <time>2023-07-04T08:57:44.174Z</time>
      </trkpt>
      <trkpt lat="48.827380" lon="2.174839">
        <ele>160.937033</ele>
        <time>2023-07-04T08:57:50.602Z</time>
      </trkpt>
      <trkpt lat="48.827736" lon="2.175126">
        <ele>159.277559</ele>
        <time>2023-07-04T08:57:56.090Z</time>
      </trkpt>
      <trkpt lat="48.827866" lon="2.175078">
        <ele>158.726701</ele>
        <time>2023-07-04T08:57:57.999Z</time>
      </trkpt>
      <trkpt lat="48.827867" lon="2.175255">
        <ele>158.246901</ele>
        <time>2023-07-04T08:57:59.118Z</time>
      </trkpt>
      <trkpt lat="48.827870" lon="2.175822">
        <ele>156.821066</ele>
        <time>2023-07-04T08:58:02.734Z</time>
      </trkpt>
      <trkpt lat="48.827864" lon="2.176118">
        <ele>156.120791</ele>
        <time>2023-07-04T08:58:04.620Z</time>
      </trkpt>
      <trkpt lat="48.827797" lon="2.178529">
        <ele>150.519445</ele>
        <time>2023-07-04T08:58:20.507Z</time>
      </trkpt>
      <trkpt lat="48.827740" lon="2.180517">
        <ele>146.513963</ele>
        <time>2023-07-04T08:58:34.428Z</time>
      </trkpt>
      <trkpt lat="48.827628" lon="2.184499">
        <ele>134.794519</ele>
        <time>2023-07-04T08:58:59.661Z</time>
      </trkpt>
      <trkpt lat="48.827427" lon="2.184659">
        <ele>133.473243</ele>
        <time>2023-07-04T08:59:01.799Z</time>
      </trkpt>
      <trkpt lat="48.827292" lon="2.184840">
        <ele>132.424818</ele>
        <time>2023-07-04T08:59:03.448Z</time>
      </trkpt>
      <trkpt lat="48.827208" lon="2.185103">
        <ele>131.304332</ele>
        <time>2023-07-04T08:59:05.218Z</time>
      </trkpt>
      <trkpt lat="48.827169" lon="2.185516">
        <ele>129.705051</ele>
        <time>2023-07-04T08:59:07.708Z</time>
      </trkpt>
      <trkpt lat="48.827124" lon="2.186178">
        <ele>127.098261</ele>
        <time>2023-07-04T08:59:11.617Z</time>
      </trkpt>
      <trkpt lat="48.826972" lon="2.188502">
        <ele>116.305516</ele>
        <time>2023-07-04T08:59:25.306Z</time>
      </trkpt>
      <trkpt lat="48.826907" lon="2.188495">
        <ele>115.848092</ele>
        <time>2023-07-04T08:59:25.913Z</time>
      </trkpt>
      <trkpt lat="48.826876" lon="2.188555">
        <ele>115.495619</ele>
        <time>2023-07-04T08:59:26.383Z</time>
      </trkpt>
      <trkpt lat="48.826878" lon="2.188614">
        <ele>115.222601</ele>
        <time>2023-07-04T08:59:26.739Z</time>
      </trkpt>
      <trkpt lat="48.826981" lon="2.188819">
        <ele>114.478197</ele>
        <time>2023-07-04T08:59:28.277Z</time>
      </trkpt>
      <trkpt lat="48.827055" lon="2.188821">
        <ele>114.261065</ele>
        <time>2023-07-04T08:59:28.974Z</time>
      </trkpt>
      <trkpt lat="48.827077" lon="2.188746">
        <ele>114.102482</ele>
        <time>2023-07-04T08:59:29.497Z</time>
      </trkpt>
      <trkpt lat="48.827401" lon="2.188820">
        <ele>113.141263</ele>
        <time>2023-07-04T08:59:32.634Z</time>
      </trkpt>
      <trkpt lat="48.827520" lon="2.188849">
        <ele>112.787682</ele>
        <time>2023-07-04T08:59:33.847Z</time>
      </trkpt>
      <trkpt lat="48.827661" lon="2.188919">
        <ele>112.352491</ele>
        <time>2023-07-04T08:59:35.308Z</time>
      </trkpt>
      <trkpt lat="48.827737" lon="2.189004">
        <ele>112.075609</ele>
        <time>2023-07-04T08:59:36.349Z</time>
      </trkpt>
      <trkpt lat="48.827810" lon="2.189109">
        <ele>111.780667</ele>
        <time>2023-07-04T08:59:37.457Z</time>
      </trkpt>
      <trkpt lat="48.827950" lon="2.189313">
        <ele>111.211520</ele>
        <time>2023-07-04T08:59:39.524Z</time>
      </trkpt>
      <trkpt lat="48.828065" lon="2.189501">
        <ele>110.715876</ele>
        <time>2023-07-04T08:59:41.847Z</time>
      </trkpt>
      <trkpt lat="48.828279" lon="2.190010">
        <ele>109.549447</ele>
        <time>2023-07-04T08:59:46.981Z</time>
      </trkpt>
      <trkpt lat="48.828465" lon="2.191373">
        <ele>109.854025</ele>
        <time>2023-07-04T08:59:59.503Z</time>
      </trkpt>
      <trkpt lat="48.828648" lon="2.192658">
        <ele>110.170180</ele>
        <time>2023-07-04T09:00:14.402Z</time>
      </trkpt>
      <trkpt lat="48.828743" lon="2.192935">
        <ele>110.952256</ele>
        <time>2023-07-04T09:00:19.140Z</time>
      </trkpt>
      <trkpt lat="48.828831" lon="2.193106">
        <ele>111.566603</ele>
        <time>2023-07-04T09:00:22.851Z</time>
      </trkpt>
      <trkpt lat="48.829051" lon="2.193431">
        <ele>112.886054</ele>
        <time>2023-07-04T09:00:31.616Z</time>
      </trkpt>
      <trkpt lat="48.829259" lon="2.193664">
        <ele>113.997236</ele>
        <time>2023-07-04T09:00:39.992Z</time>
      </trkpt>
      <trkpt lat="48.829420" lon="2.193843">
        <ele>114.855068</ele>
        <time>2023-07-04T09:00:47.310Z</time>
      </trkpt>
      <trkpt lat="48.829453" lon="2.193886">
        <ele>115.042003</ele>
        <time>2023-07-04T09:00:48.928Z</time>
      </trkpt>
      <trkpt lat="48.829573" lon="2.194042">
        <ele>115.721095</ele>
        <time>2023-07-04T09:00:54.638Z</time>
      </trkpt>
      <trkpt lat="48.830328" lon="2.195020">
        <ele>119.917257</ele>
        <time>2023-07-04T09:01:33.140Z</time>
      </trkpt>
      <trkpt lat="48.830526" lon="2.195273">
        <ele>120.992147</ele>
        <time>2023-07-04T09:01:43.338Z</time>
      </trkpt>
      <trkpt lat="48.830597" lon="2.195365">
        <ele>121.379845</ele>
        <time>2023-07-04T09:01:47.086Z</time>
      </trkpt>
      <trkpt lat="48.832009" lon="2.197209">
        <ele>124.886128</ele>
        <time>2023-07-04T09:02:33.851Z</time>
      </trkpt>
      <trkpt lat="48.832174" lon="2.197424">
        <ele>124.765240</ele>
        <time>2023-07-04T09:02:36.282Z</time>
      </trkpt>
      <trkpt lat="48.834368" lon="2.200289">
        <ele>114.514565</ele>
        <time>2023-07-04T09:03:04.166Z</time>
      </trkpt>
      <trkpt lat="48.835840" lon="2.201831">
        <ele>105.831260</ele>
        <time>2023-07-04T09:03:20.955Z</time>
      </trkpt>
      <trkpt lat="48.836107" lon="2.202071">
        <ele>104.395244</ele>
        <time>2023-07-04T09:03:23.906Z</time>
      </trkpt>
      <trkpt lat="48.836500" lon="2.202442">
        <ele>102.253531</ele>
        <time>2023-07-04T09:03:28.323Z</time>
      </trkpt>
      <trkpt lat="48.837004" lon="2.202907">
        <ele>99.524116</ele>
        <time>2023-07-04T09:03:33.976Z</time>
      </trkpt>
      <trkpt lat="48.837516" lon="2.203384">
        <ele>97.501815</ele>
        <time>2023-07-04T09:03:39.909Z</time>
      </trkpt>
      <trkpt lat="48.837933" lon="2.203860">
        <ele>95.787026</ele>
        <time>2023-07-04T09:03:45.099Z</time>
      </trkpt>
      <trkpt lat="48.838587" lon="2.204706">
        <ele>93.303949</ele>
        <time>2023-07-04T09:03:54.022Z</time>
      </trkpt>
      <trkpt lat="48.838999" lon="2.205395">
        <ele>92.711356</ele>
        <time>2023-07-04T09:04:00.914Z</time>
      </trkpt>
      <trkpt lat="48.839177" lon="2.205773">
        <ele>92.415482</ele>
        <time>2023-07-04T09:04:04.692Z</time>
      </trkpt>
      <trkpt lat="48.839261" lon="2.205950">
        <ele>92.276572</ele>
        <time>2023-07-04T09:04:06.505Z</time>
      </trkpt>
      <trkpt lat="48.839297" lon="2.206018">
        <ele>92.221018</ele>
        <time>2023-07-04T09:04:07.309Z</time>
      </trkpt>
      <trkpt lat="48.839535" lon="2.206473">
        <ele>91.851043</ele>
        <time>2023-07-04T09:04:12.842Z</time>
      </trkpt>
      <trkpt lat="48.839639" lon="2.206576">
        <ele>91.730972</ele>
        <time>2023-07-04T09:04:14.847Z</time>
      </trkpt>
      <trkpt lat="48.839776" lon="2.206784">
        <ele>92.104286</ele>
        <time>2023-07-04T09:04:18.326Z</time>
      </trkpt>
      <trkpt lat="48.839879" lon="2.206892">
        <ele>92.400272</ele>
        <time>2023-07-04T09:04:20.812Z</time>
      </trkpt>
      <trkpt lat="48.840072" lon="2.207043">
        <ele>92.913703</ele>
        <time>2023-07-04T09:04:25.355Z</time>
      </trkpt>
      <trkpt lat="48.840115" lon="2.207076">
        <ele>93.027639</ele>
        <time>2023-07-04T09:04:26.490Z</time>
      </trkpt>
      <trkpt lat="48.840162" lon="2.207102">
        <ele>93.145938</ele>
        <time>2023-07-04T09:04:27.646Z</time>
      </trkpt>
      <trkpt lat="48.840283" lon="2.207159">
        <ele>93.445556</ele>
        <time>2023-07-04T09:04:30.600Z</time>
      </trkpt>
      <trkpt lat="48.840389" lon="2.207184">
        <ele>93.699260</ele>
        <time>2023-07-04T09:04:33.188Z</time>
      </trkpt>
      <trkpt lat="48.840670" lon="2.207189">
        <ele>94.363903</ele>
        <time>2023-07-04T09:04:40.491Z</time>
      </trkpt>
      <trkpt lat="48.841847" lon="2.207070">
        <ele>97.990171</ele>
        <time>2023-07-04T09:05:14.826Z</time>
      </trkpt>
      <trkpt lat="48.842068" lon="2.207091">
        <ele>98.880907</ele>
        <time>2023-07-04T09:05:22.036Z</time>
      </trkpt>
      <trkpt lat="48.842263" lon="2.207120">
        <ele>99.669067</ele>
        <time>2023-07-04T09:05:28.416Z</time>
      </trkpt>
      <trkpt lat="48.842301" lon="2.207141">
        <ele>99.831723</ele>
        <time>2023-07-04T09:05:29.734Z</time>
      </trkpt>
      <trkpt lat="48.842357" lon="2.207106">
        <ele>100.075302</ele>
        <time>2023-07-04T09:05:31.673Z</time>
      </trkpt>
      <trkpt lat="48.842765" lon="2.206998">
        <ele>101.741251</ele>
        <time>2023-07-04T09:05:44.869Z</time>
      </trkpt>
      <trkpt lat="48.843695" lon="2.206936">
        <ele>104.852415</ele>
        <time>2023-07-04T09:06:13.607Z</time>
      </trkpt>
      <trkpt lat="48.843827" lon="2.206996">
        <ele>105.253351</ele>
        <time>2023-07-04T09:06:17.521Z</time>
      </trkpt>
      <trkpt lat="48.844046" lon="2.207163">
        <ele>105.966387</ele>
        <time>2023-07-04T09:06:24.194Z</time>
      </trkpt>
      <trkpt lat="48.844295" lon="2.207540">
        <ele>106.989271</ele>
        <time>2023-07-04T09:06:32.865Z</time>
      </trkpt>
      <trkpt lat="48.844374" lon="2.207921">
        <ele>107.754276</ele>
        <time>2023-07-04T09:06:38.794Z</time>
      </trkpt>
      <trkpt lat="48.844399" lon="2.208165">
        <ele>108.227185</ele>
        <time>2023-07-04T09:06:42.298Z</time>
      </trkpt>
      <trkpt lat="48.844409" lon="2.208631">
        <ele>108.696215</ele>
        <time>2023-07-04T09:06:48.999Z</time>
      </trkpt>
      <trkpt lat="48.844419" lon="2.209188">
        <ele>109.108196</ele>
        <time>2023-07-04T09:06:56.670Z</time>
      </trkpt>
      <trkpt lat="48.844433" lon="2.209881">
        <ele>109.620820</ele>
        <time>2023-07-04T09:07:04.905Z</time>
      </trkpt>
      <trkpt lat="48.844443" lon="2.210362">
        <ele>109.976634</ele>
        <time>2023-07-04T09:07:10.314Z</time>
      </trkpt>
      <trkpt lat="48.844444" lon="2.210390">
        <ele>109.997367</ele>
        <time>2023-07-04T09:07:10.597Z</time>
      </trkpt>
      <trkpt lat="48.844457" lon="2.211021">
        <ele>110.477657</ele>
        <time>2023-07-04T09:07:17.736Z</time>
      </trkpt>
      <trkpt lat="48.844479" lon="2.211329">
        <ele>110.932066</ele>
        <time>2023-07-04T09:07:21.591Z</time>
      </trkpt>
      <trkpt lat="48.844557" lon="2.211698">
        <ele>111.500526</ele>
        <time>2023-07-04T09:07:26.624Z</time>
      </trkpt>
      <trkpt lat="48.844635" lon="2.211947">
        <ele>111.905007</ele>
        <time>2023-07-04T09:07:30.458Z</time>
      </trkpt>
      <trkpt lat="48.844901" lon="2.212529">
        <ele>112.944315</ele>
        <time>2023-07-04T09:07:42.232Z</time>
      </trkpt>
      <trkpt lat="48.845233" lon="2.213028">
        <ele>113.985074</ele>
        <time>2023-07-04T09:07:55.181Z</time>
      </trkpt>
      <trkpt lat="48.845493" lon="2.213316">
        <ele>114.725133</ele>
        <time>2023-07-04T09:08:03.719Z</time>
      </trkpt>
      <trkpt lat="48.845646" lon="2.213497">
        <ele>115.198119</ele>
        <time>2023-07-04T09:08:09.009Z</time>
      </trkpt>
      <trkpt lat="48.845710" lon="2.213574">
        <ele>115.397245</ele>
        <time>2023-07-04T09:08:11.226Z</time>
      </trkpt>
      <trkpt lat="48.846245" lon="2.213952">
        <ele>116.836458</ele>
        <time>2023-07-04T09:08:27.790Z</time>
      </trkpt>
      <trkpt lat="48.846485" lon="2.214068">
        <ele>117.450797</ele>
        <time>2023-07-04T09:08:34.161Z</time>
      </trkpt>
      <trkpt lat="48.846899" lon="2.214200">
        <ele>118.482669</ele>
        <time>2023-07-04T09:08:43.835Z</time>
      </trkpt>
      <trkpt lat="48.847251" lon="2.214274">
        <ele>118.645005</ele>
        <time>2023-07-04T09:08:50.389Z</time>
      </trkpt>
      <trkpt lat="48.847517" lon="2.214280">
        <ele>118.384924</ele>
        <time>2023-07-04T09:08:54.268Z</time>
      </trkpt>
      <trkpt lat="48.847797" lon="2.214277">
        <ele>118.111178</ele>
        <time>2023-07-04T09:08:57.746Z</time>
      </trkpt>
      <trkpt lat="48.848201" lon="2.214175">
        <ele>117.710798</ele>
        <time>2023-07-04T09:09:02.401Z</time>
      </trkpt>
      <trkpt lat="48.849397" lon="2.213765">
        <ele>115.948287</ele>
        <time>2023-07-04T09:09:15.656Z</time>
      </trkpt>
      <trkpt lat="48.850217" lon="2.213483">
        <ele>114.321699</ele>
        <time>2023-07-04T09:09:24.918Z</time>
      </trkpt>
      <trkpt lat="48.850517" lon="2.213382">
        <ele>113.727210</ele>
        <time>2023-07-04T09:09:28.468Z</time>
      </trkpt>
      <trkpt lat="48.851824" lon="2.212932">
        <ele>111.309309</ele>
        <time>2023-07-04T09:09:43.837Z</time>
      </trkpt>
      <trkpt lat="48.852509" lon="2.212677">
        <ele>109.877644</ele>
        <time>2023-07-04T09:09:51.457Z</time>
      </trkpt>
      <trkpt lat="48.852964" lon="2.212530">
        <ele>108.630371</ele>
        <time>2023-07-04T09:09:56.329Z</time>
      </trkpt>
      <trkpt lat="48.853993" lon="2.212194">
        <ele>105.808306</ele>
        <time>2023-07-04T09:10:07.136Z</time>
      </trkpt>
      <trkpt lat="48.854293" lon="2.212091">
        <ele>105.137947</ele>
        <time>2023-07-04T09:10:10.315Z</time>
      </trkpt>
      <trkpt lat="48.854688" lon="2.211955">
        <ele>104.347036</ele>
        <time>2023-07-04T09:10:14.628Z</time>
      </trkpt>
      <trkpt lat="48.855857" lon="2.211550">
        <ele>102.003903</ele>
        <time>2023-07-04T09:10:28.499Z</time>
      </trkpt>
      <trkpt lat="48.856781" lon="2.211238">
        <ele>100.060508</ele>
        <time>2023-07-04T09:10:38.973Z</time>
      </trkpt>
      <trkpt lat="48.856932" lon="2.211236">
        <ele>99.750465</ele>
        <time>2023-07-04T09:10:40.576Z</time>
      </trkpt>
      <trkpt lat="48.856976" lon="2.211225">
        <ele>99.658911</ele>
        <time>2023-07-04T09:10:41.075Z</time>
      </trkpt>
      <trkpt lat="48.857525" lon="2.211047">
        <ele>98.506353</ele>
        <time>2023-07-04T09:10:47.164Z</time>
      </trkpt>
      <trkpt lat="48.857863" lon="2.211015">
        <ele>97.366208</ele>
        <time>2023-07-04T09:10:50.753Z</time>
      </trkpt>
      <trkpt lat="48.857941" lon="2.211028">
        <ele>97.071193</ele>
        <time>2023-07-04T09:10:51.558Z</time>
      </trkpt>
      <trkpt lat="48.858038" lon="2.211054">
        <ele>96.700875</ele>
        <time>2023-07-04T09:10:52.593Z</time>
      </trkpt>
      <trkpt lat="48.858388" lon="2.211223">
        <ele>95.320173</ele>
        <time>2023-07-04T09:10:56.258Z</time>
      </trkpt>
      <trkpt lat="48.858586" lon="2.211420">
        <ele>94.430442</ele>
        <time>2023-07-04T09:10:58.520Z</time>
      </trkpt>
      <trkpt lat="48.858758" lon="2.211695">
        <ele>93.491880</ele>
        <time>2023-07-04T09:11:00.884Z</time>
      </trkpt>
      <trkpt lat="48.858839" lon="2.211839">
        <ele>93.023248</ele>
        <time>2023-07-04T09:11:02.068Z</time>
      </trkpt>
      <trkpt lat="48.858887" lon="2.211956">
        <ele>92.682184</ele>
        <time>2023-07-04T09:11:02.947Z</time>
      </trkpt>
      <trkpt lat="48.859050" lon="2.212519">
        <ele>91.017943</ele>
        <time>2023-07-04T09:11:06.850Z</time>
      </trkpt>
      <trkpt lat="48.859063" lon="2.212560">
        <ele>90.867387</ele>
        <time>2023-07-04T09:11:07.138Z</time>
      </trkpt>
      <trkpt lat="48.859170" lon="2.212937">
        <ele>89.509188</ele>
        <time>2023-07-04T09:11:09.787Z</time>
      </trkpt>
      <trkpt lat="48.859348" lon="2.213507">
        <ele>87.422028</ele>
        <time>2023-07-04T09:11:13.752Z</time>
      </trkpt>
      <trkpt lat="48.859375" lon="2.213607">
        <ele>87.064460</ele>
        <time>2023-07-04T09:11:14.412Z</time>
      </trkpt>
      <trkpt lat="48.859411" lon="2.213734">
        <ele>86.607015</ele>
        <time>2023-07-04T09:11:15.247Z</time>
      </trkpt>
      <trkpt lat="48.859450" lon="2.213888">
        <ele>86.061154</ele>
        <time>2023-07-04T09:11:16.270Z</time>
      </trkpt>
      <trkpt lat="48.859672" lon="2.214604">
        <ele>83.442826</ele>
        <time>2023-07-04T09:11:21.072Z</time>
      </trkpt>
      <trkpt lat="48.859766" lon="2.214769">
        <ele>82.720825</ele>
        <time>2023-07-04T09:11:22.395Z</time>
      </trkpt>
      <trkpt lat="48.859879" lon="2.214893">
        <ele>82.026716</ele>
        <time>2023-07-04T09:11:23.684Z</time>
      </trkpt>
      <trkpt lat="48.860562" lon="2.215354">
        <ele>78.317245</ele>
        <time>2023-07-04T09:11:30.748Z</time>
      </trkpt>
      <trkpt lat="48.861402" lon="2.215898">
        <ele>73.785019</ele>
        <time>2023-07-04T09:11:39.484Z</time>
      </trkpt>
      <trkpt lat="48.862256" lon="2.216483">
        <ele>68.735766</ele>
        <time>2023-07-04T09:11:48.208Z</time>
      </trkpt>
      <trkpt lat="48.862352" lon="2.216578">
        <ele>68.116405</ele>
        <time>2023-07-04T09:11:49.266Z</time>
      </trkpt>
      <trkpt lat="48.862460" lon="2.216781">
        <ele>67.187764</ele>
        <time>2023-07-04T09:11:50.856Z</time>
      </trkpt>
      <trkpt lat="48.862505" lon="2.216959">
        <ele>66.509478</ele>
        <time>2023-07-04T09:11:52.023Z</time>
      </trkpt>
      <trkpt lat="48.862571" lon="2.217305">
        <ele>65.228066</ele>
        <time>2023-07-04T09:11:54.225Z</time>
      </trkpt>
      <trkpt lat="48.862624" lon="2.217595">
        <ele>64.157474</ele>
        <time>2023-07-04T09:11:56.065Z</time>
      </trkpt>
      <trkpt lat="48.862671" lon="2.217831">
        <ele>63.325209</ele>
        <time>2023-07-04T09:11:57.567Z</time>
      </trkpt>
      <trkpt lat="48.862766" lon="2.218040">
        <ele>62.488317</ele>
        <time>2023-07-04T09:11:59.120Z</time>
      </trkpt>
      <trkpt lat="48.862956" lon="2.218348">
        <ele>61.097336</ele>
        <time>2023-07-04T09:12:01.692Z</time>
      </trkpt>
      <trkpt lat="48.863179" lon="2.218529">
        <ele>59.831398</ele>
        <time>2023-07-04T09:12:04.014Z</time>
      </trkpt>
      <trkpt lat="48.863361" lon="2.218606">
        <ele>58.885357</ele>
        <time>2023-07-04T09:12:05.775Z</time>
      </trkpt>
      <trkpt lat="48.863981" lon="2.218716">
        <ele>55.759515</ele>
        <time>2023-07-04T09:12:11.704Z</time>
      </trkpt>
      <trkpt lat="48.864122" lon="2.218747">
        <ele>55.046084</ele>
        <time>2023-07-04T09:12:13.115Z</time>
      </trkpt>
      <trkpt lat="48.864512" lon="2.218906">
        <ele>53.835256</ele>
        <time>2023-07-04T09:12:17.143Z</time>
      </trkpt>
      <trkpt lat="48.864915" lon="2.219143">
        <ele>52.617044</ele>
        <time>2023-07-04T09:12:21.564Z</time>
      </trkpt>
      <trkpt lat="48.865256" lon="2.219419">
        <ele>51.527906</ele>
        <time>2023-07-04T09:12:25.622Z</time>
      </trkpt>
      <trkpt lat="48.865521" lon="2.219680">
        <ele>50.637706</ele>
        <time>2023-07-04T09:12:29.047Z</time>
      </trkpt>
      <trkpt lat="48.866097" lon="2.220420">
        <ele>49.170757</ele>
        <time>2023-07-04T09:12:37.321Z</time>
      </trkpt>
      <trkpt lat="48.866511" lon="2.220857">
        <ele>48.471495</ele>
        <time>2023-07-04T09:12:43.111Z</time>
      </trkpt>
      <trkpt lat="48.866733" lon="2.221035">
        <ele>48.123281</ele>
        <time>2023-07-04T09:12:46.193Z</time>
      </trkpt>
      <trkpt lat="48.866944" lon="2.221195">
        <ele>47.796147</ele>
        <time>2023-07-04T09:12:49.169Z</time>
      </trkpt>
      <trkpt lat="48.867108" lon="2.221325">
        <ele>47.539542</ele>
        <time>2023-07-04T09:12:51.565Z</time>
      </trkpt>
      <trkpt lat="48.867130" lon="2.221344">
        <ele>47.504438</ele>
        <time>2023-07-04T09:12:51.881Z</time>
      </trkpt>
      <trkpt lat="48.867208" lon="2.221411">
        <ele>47.380142</ele>
        <time>2023-07-04T09:12:53.033Z</time>
      </trkpt>
      <trkpt lat="48.867412" lon="2.221574">
        <ele>46.959213</ele>
        <time>2023-07-04T09:12:55.903Z</time>
      </trkpt>
      <trkpt lat="48.867430" lon="2.221591">
        <ele>46.918084</ele>
        <time>2023-07-04T09:12:56.162Z</time>
      </trkpt>
      <trkpt lat="48.867555" lon="2.221703">
        <ele>46.636474</ele>
        <time>2023-07-04T09:12:57.888Z</time>
      </trkpt>
      <trkpt lat="48.867584" lon="2.221737">
        <ele>46.565395</ele>
        <time>2023-07-04T09:12:58.323Z</time>
      </trkpt>
      <trkpt lat="48.867606" lon="2.221762">
        <ele>46.512085</ele>
        <time>2023-07-04T09:12:58.629Z</time>
      </trkpt>
      <trkpt lat="48.867657" lon="2.221836">
        <ele>46.375251</ele>
        <time>2023-07-04T09:12:59.444Z</time>
      </trkpt>
      <trkpt lat="48.867906" lon="2.222191">
        <ele>45.712705</ele>
        <time>2023-07-04T09:13:03.314Z</time>
      </trkpt>
      <trkpt lat="48.868153" lon="2.222732">
        <ele>44.871952</ele>
        <time>2023-07-04T09:13:07.978Z</time>
      </trkpt>
      <trkpt lat="48.868226" lon="2.222976">
        <ele>44.529734</ele>
        <time>2023-07-04T09:13:09.848Z</time>
      </trkpt>
      <trkpt lat="48.868256" lon="2.223100">
        <ele>44.361057</ele>
        <time>2023-07-04T09:13:10.750Z</time>
      </trkpt>
      <trkpt lat="48.868292" lon="2.223227">
        <ele>44.184504</ele>
        <time>2023-07-04T09:13:11.692Z</time>
      </trkpt>
      <trkpt lat="48.868314" lon="2.223418">
        <ele>43.936948</ele>
        <time>2023-07-04T09:13:13.059Z</time>
      </trkpt>
      <trkpt lat="48.868310" lon="2.223482">
        <ele>43.854873</ele>
        <time>2023-07-04T09:13:13.501Z</time>
      </trkpt>
      <trkpt lat="48.868304" lon="2.223594">
        <ele>43.625978</ele>
        <time>2023-07-04T09:13:14.268Z</time>
      </trkpt>
      <trkpt lat="48.868298" lon="2.223749">
        <ele>43.276185</ele>
        <time>2023-07-04T09:13:15.332Z</time>
      </trkpt>
      <trkpt lat="48.868286" lon="2.223972">
        <ele>42.772126</ele>
        <time>2023-07-04T09:13:16.889Z</time>
      </trkpt>
      <trkpt lat="48.868173" lon="2.224500">
        <ele>41.521257</ele>
        <time>2023-07-04T09:13:20.574Z</time>
      </trkpt>
      <trkpt lat="48.867968" lon="2.225083">
        <ele>40.031974</ele>
        <time>2023-07-04T09:13:24.806Z</time>
      </trkpt>
      <trkpt lat="48.867903" lon="2.225283">
        <ele>39.529411</ele>
        <time>2023-07-04T09:13:26.209Z</time>
      </trkpt>
      <trkpt lat="48.867707" lon="2.225890">
        <ele>38.006058</ele>
        <time>2023-07-04T09:13:30.573Z</time>
      </trkpt>
      <trkpt lat="48.867697" lon="2.225927">
        <ele>37.915941</ele>
        <time>2023-07-04T09:13:30.835Z</time>
      </trkpt>
      <trkpt lat="48.867691" lon="2.225948">
        <ele>37.864361</ele>
        <time>2023-07-04T09:13:30.989Z</time>
      </trkpt>
      <trkpt lat="48.867675" lon="2.226046">
        <ele>37.647071</ele>
        <time>2023-07-04T09:13:31.656Z</time>
      </trkpt>
      <trkpt lat="48.867582" lon="2.226350">
        <ele>37.185389</ele>
        <time>2023-07-04T09:13:33.901Z</time>
      </trkpt>
      <trkpt lat="48.867570" lon="2.226386">
        <ele>37.129814</ele>
        <time>2023-07-04T09:13:34.174Z</time>
      </trkpt>
      <trkpt lat="48.867440" lon="2.226838">
        <ele>36.450489</ele>
        <time>2023-07-04T09:13:37.558Z</time>
      </trkpt>
      <trkpt lat="48.867291" lon="2.227695">
        <ele>35.229822</ele>
        <time>2023-07-04T09:13:43.968Z</time>
      </trkpt>
      <trkpt lat="48.867164" lon="2.228221">
        <ele>34.458235</ele>
        <time>2023-07-04T09:13:48.197Z</time>
      </trkpt>
      <trkpt lat="48.867112" lon="2.228576">
        <ele>33.957402</ele>
        <time>2023-07-04T09:13:51.037Z</time>
      </trkpt>
      <trkpt lat="48.866504" lon="2.230901">
        <ele>32.729119</ele>
        <time>2023-07-04T09:14:12.805Z</time>
      </trkpt>
      <trkpt lat="48.866436" lon="2.231145">
        <ele>32.603162</ele>
        <time>2023-07-04T09:14:14.933Z</time>
      </trkpt>
      <trkpt lat="48.866370" lon="2.231378">
        <ele>32.598121</ele>
        <time>2023-07-04T09:14:16.926Z</time>
      </trkpt>
      <trkpt lat="48.866258" lon="2.231749">
        <ele>32.598121</ele>
        <time>2023-07-04T09:14:20.139Z</time>
      </trkpt>
      <trkpt lat="48.865962" lon="2.232592">
        <ele>32.598121</ele>
        <time>2023-07-04T09:14:27.716Z</time>
      </trkpt>
      <trkpt lat="48.865672" lon="2.233237">
        <ele>32.598121</ele>
        <time>2023-07-04T09:14:33.739Z</time>
      </trkpt>
      <trkpt lat="48.865067" lon="2.234261">
        <ele>32.598121</ele>
        <time>2023-07-04T09:14:45.099Z</time>
      </trkpt>
    </trkseg>
  </trk>
</gpx>